Darstellungsparameter: Aktuell verwendete Einstellungen:
Skalierung der Graphiken ... ?
xyx+y,   Skalierungsfaktor:      Skalierung: Modus: x, Faktor: 1
Darstellungszeitraum ... ?
Vom - - bis: - -   Zeitraum: 18.01.2020 - 17.04.2020
Min/Max/Avg-Anzeige ... ?
Zeige MMA aktuell
Zeige MMA Monat
Zeige MMA alles
Zeige --A aktuell
Zeige --A Monat
Zeige --A alles
Keine MMA-Anzeige
MMA:
Average (ber die Originaldaten)
MMA-Basis: 18.01.2020 - 17.04.2020
Quicknavigation für Darstellung... ?
Tage:      1T, 2T, 3T, 5T -1T -2T -3T -5T +1T +2T +3T +5T
Wochen: 1W, 2W, 3W -1W -2W -3W +1W +2W +3W
Monate: 1M, 3M, 6M -1M -3M -6M +1M +3M +6M
Jahre:    1J, 3J, 5J, 10J -1J -3J -5J -10J +1J +3J +5J +10J
Nutze für die Darstellung ... ?
Originaldaten oder Mittelwerte auf ...
Stundenbasis Tagesbasis Wochenbasis
Monatsbasis Jahresbasis      Datenbasis: Original-Daten
Darstellen als:
Statistik (Auto) Statistik J:M      Darstellung:
Zur Graphik,    zurück zur Übersicht aller Sensoren.
 
Tabellarische Datenbersicht: ?
 
Sensor: Nr:Datum:Temp:Feuchte:
Aussen-T/F 1 18-01-2020 00:04:17 2.6 C 41 %
2 18-01-2020 00:14:17 2.6 C 43 %
3 18-01-2020 00:24:18 2.8 C 43 %
4 18-01-2020 00:34:17 3.2 C 43 %
5 18-01-2020 00:44:17 3.2 C 42 %
6 18-01-2020 00:54:17 4.2 C 36 %
7 18-01-2020 01:04:18 4.1 C 36 %
8 18-01-2020 01:14:18 4 C 36 %
9 18-01-2020 01:24:17 3.7 C 37 %
10 18-01-2020 01:34:18 3.8 C 39 %
11 18-01-2020 01:44:18 3.9 C 39 %
12 18-01-2020 01:54:17 4.2 C 35 %
13 18-01-2020 02:04:17 4 C 35 %
14 18-01-2020 02:14:17 3.4 C 39 %
15 18-01-2020 02:24:17 3.8 C 40 %
16 18-01-2020 02:34:17 3.3 C 39 %
17 18-01-2020 02:44:17 3.6 C 39 %
18 18-01-2020 02:54:18 3.9 C 36 %
19 18-01-2020 03:04:17 4.9 C 32 %
20 18-01-2020 03:14:17 4.9 C 31 %
21 18-01-2020 03:24:17 4.6 C 31 %
22 18-01-2020 03:34:17 4.4 C 31 %
23 18-01-2020 03:44:17 4.5 C 32 %
24 18-01-2020 03:54:17 4.3 C 32 %
25 18-01-2020 04:04:17 4.1 C 32 %
Sensor: Nr:Datum:Temp:Feuchte:
Aussen-T/F 26 18-01-2020 04:14:17 4.1 C 32 %
27 18-01-2020 04:24:17 4.3 C 32 %
28 18-01-2020 04:34:18 4.2 C 32 %
29 18-01-2020 04:44:18 4 C 32 %
30 18-01-2020 04:54:17 4.1 C 32 %
31 18-01-2020 05:04:17 4.1 C 31 %
32 18-01-2020 05:14:17 3.7 C 33 %
33 18-01-2020 05:24:17 3.8 C 32 %
34 18-01-2020 05:34:18 3.8 C 32 %
35 18-01-2020 05:44:18 3.9 C 32 %
36 18-01-2020 05:54:17 3.2 C 33 %
37 18-01-2020 06:04:17 3.4 C 32 %
38 18-01-2020 06:14:17 4 C 31 %
39 18-01-2020 06:24:17 3.6 C 32 %
40 18-01-2020 06:34:18 3.8 C 32 %
41 18-01-2020 06:44:18 3.6 C 32 %
42 18-01-2020 06:54:17 3.7 C 31 %
43 18-01-2020 07:04:17 3.2 C 32 %
44 18-01-2020 07:14:17 3.4 C 32 %
45 18-01-2020 07:24:17 3 C 33 %
46 18-01-2020 07:34:18 2.7 C 34 %
47 18-01-2020 07:44:18 4 C 31 %
48 18-01-2020 07:54:17 3.7 C 32 %
49 18-01-2020 08:04:18 4 C 31 %
50 18-01-2020 08:14:18 4.3 C 31 %
Sensor: Nr:Datum:Temp:Feuchte:
Aussen-T/F 51 18-01-2020 08:24:17 3.8 C 32 %
52 18-01-2020 08:34:17 3.7 C 32 %
53 18-01-2020 08:44:17 3.6 C 32 %
54 18-01-2020 08:54:17 3.6 C 32 %
55 18-01-2020 09:04:18 4.1 C 30 %
56 18-01-2020 09:14:18 3.9 C 32 %
57 18-01-2020 09:24:18 4.2 C 30 %
58 18-01-2020 09:34:17 4 C 31 %
59 18-01-2020 09:44:17 4.1 C 31 %
60 18-01-2020 09:54:17 4.3 C 31 %
61 18-01-2020 10:04:17 4.6 C 30 %
62 18-01-2020 10:14:17 4.9 C 30 %
63 18-01-2020 10:24:17 4.7 C 30 %
64 18-01-2020 10:34:18 4.4 C 30 %
65 18-01-2020 10:44:18 5.1 C 30 %
66 18-01-2020 10:54:17 5 C 29 %
67 18-01-2020 11:04:17 5.2 C 28 %
68 18-01-2020 11:14:17 5.3 C 27 %
69 18-01-2020 11:24:17 5.3 C 27 %
70 18-01-2020 11:34:18 5.5 C 27 %
71 18-01-2020 11:44:18 5.6 C 27 %
72 18-01-2020 11:54:17 5.6 C 27 %
73 18-01-2020 12:04:18 6 C 27 %
74 18-01-2020 12:14:18 6 C 26 %
75 18-01-2020 12:24:17 5.9 C 26 %
Sensor: Nr:Datum:Temp:Feuchte:
Aussen-T/F 76 18-01-2020 12:34:17 6 C 26 %
77 18-01-2020 12:44:17 5.7 C 26 %
78 18-01-2020 12:54:17 5.9 C 26 %
79 18-01-2020 13:04:17 6.1 C 25 %
80 18-01-2020 13:14:17 5.8 C 25 %
81 18-01-2020 13:24:17 6 C 25 %
82 18-01-2020 13:34:18 5.7 C 27 %
83 18-01-2020 13:44:18 5.4 C 27 %
84 18-01-2020 13:54:17 5.8 C 26 %
85 18-01-2020 14:04:17 5.7 C 27 %
86 18-01-2020 14:14:17 5.6 C 26 %
87 18-01-2020 14:24:17 6 C 26 %
88 18-01-2020 14:34:18 6.4 C 25 %
89 18-01-2020 14:44:18 6.5 C 23 %
90 18-01-2020 14:54:17 6.6 C 20 %
91 18-01-2020 15:04:17 6.6 C 20 %
92 18-01-2020 15:14:17 6.4 C 21 %
93 18-01-2020 15:24:17 6.3 C 21 %
94 18-01-2020 15:34:17 6.1 C 23 %
95 18-01-2020 15:44:17 5.9 C 25 %
96 18-01-2020 15:54:17 5.7 C 25 %
97 18-01-2020 16:04:17 5.7 C 25 %
98 18-01-2020 16:14:17 5.3 C 25 %
99 18-01-2020 16:24:17 5.1 C 25 %
100 18-01-2020 16:34:18 5 C 26 %
Sensor: Nr:Datum:Temp:Feuchte:
Aussen-T/F 101 18-01-2020 16:44:18 4.6 C 27 %
102 18-01-2020 16:54:17 4.8 C 28 %
103 18-01-2020 17:04:17 5 C 26 %
104 18-01-2020 17:14:17 4.7 C 27 %
105 18-01-2020 17:24:18 4.2 C 28 %
106 18-01-2020 17:34:17 3.5 C 31 %
107 18-01-2020 17:44:17 3.3 C 31 %
108 18-01-2020 17:54:17 3.1 C 32 %
109 18-01-2020 18:04:18 2.6 C 34 %
110 18-01-2020 18:14:18 2.3 C 36 %
111 18-01-2020 18:24:17 2 C 37 %
112 18-01-2020 18:34:17 2.5 C 38 %
113 18-01-2020 18:44:17 3.2 C 33 %
114 18-01-2020 18:54:17 3.1 C 31 %
115 18-01-2020 19:04:18 2.5 C 32 %
116 18-01-2020 19:14:18 1.6 C 38 %
117 18-01-2020 19:24:18 1 C 39 %
118 18-01-2020 19:34:17 0.7 C 41 %
119 18-01-2020 19:44:17 0.7 C 45 %
120 18-01-2020 19:54:17 0.7 C 45 %
121 18-01-2020 20:04:18 0.5 C 44 %
122 18-01-2020 20:14:18 0.4 C 45 %
123 18-01-2020 20:24:17 0.3 C 44 %
124 18-01-2020 20:34:18 0.2 C 43 %
125 18-01-2020 20:44:18 0.2 C 43 %
Sensor: Nr:Datum:Temp:Feuchte:
Aussen-T/F 126 18-01-2020 20:54:17 0 C 43 %
127 18-01-2020 21:04:17 0.3 C 44 %
128 18-01-2020 21:14:17 1 C 43 %
129 18-01-2020 21:24:17 1.5 C 42 %
130 18-01-2020 21:34:17 1.6 C 40 %
131 18-01-2020 21:44:17 1.8 C 39 %
132 18-01-2020 21:54:17 1.7 C 37 %
133 18-01-2020 22:04:18 1.5 C 38 %
134 18-01-2020 22:14:18 1.1 C 39 %
135 18-01-2020 22:24:17 1.1 C 41 %
136 18-01-2020 22:34:17 2 C 37 %
137 18-01-2020 22:44:18 2 C 36 %
138 18-01-2020 22:54:17 2.3 C 36 %
139 18-01-2020 23:04:17 2.3 C 35 %
140 18-01-2020 23:14:17 2.6 C 35 %
141 18-01-2020 23:24:17 2.4 C 35 %
142 18-01-2020 23:34:17 2.8 C 35 %
143 18-01-2020 23:44:17 2.7 C 36 %
144 18-01-2020 23:54:17 2.1 C 38 %
145 19-01-2020 00:04:18 1.8 C 42 %
146 19-01-2020 00:14:18 2.2 C 44 %
147 19-01-2020 00:24:17 2.2 C 44 %
148 19-01-2020 00:34:17 2.2 C 43 %
149 19-01-2020 00:44:17 2.5 C 41 %
150 19-01-2020 00:54:17 2.3 C 41 %
Sensor: Nr:Datum:Temp:Feuchte:
Aussen-T/F 151 19-01-2020 01:04:17 2.4 C 41 %
152 19-01-2020 01:14:17 2.2 C 40 %
153 19-01-2020 01:24:17 2 C 40 %
154 19-01-2020 01:34:17 2 C 43 %
155 19-01-2020 01:44:17 2 C 44 %
156 19-01-2020 01:54:18 1.9 C 45 %
157 19-01-2020 02:04:17 2 C 44 %
158 19-01-2020 02:14:17 1.9 C 45 %
159 19-01-2020 02:24:17 1.9 C 45 %
160 19-01-2020 02:34:17 1.9 C 45 %
161 19-01-2020 02:44:17 1.6 C 45 %
162 19-01-2020 02:54:18 1.8 C 46 %
163 19-01-2020 03:04:17 1.9 C 46 %
164 19-01-2020 03:14:17 2 C 45 %
165 19-01-2020 03:24:17 2 C 45 %
166 19-01-2020 03:34:17 2.1 C 45 %
167 19-01-2020 03:44:17 2.1 C 45 %
168 19-01-2020 03:54:17 2.1 C 45 %
169 19-01-2020 04:04:17 2.1 C 45 %
170 19-01-2020 04:14:17 2.1 C 45 %
171 19-01-2020 04:24:17 2.1 C 45 %
172 19-01-2020 04:34:18 2.2 C 45 %
173 19-01-2020 04:44:18 2.1 C 44 %
174 19-01-2020 04:54:17 2 C 44 %
175 19-01-2020 05:04:18 2.1 C 45 %
Sensor: Nr:Datum:Temp:Feuchte:
Aussen-T/F 176 19-01-2020 05:14:18 2.2 C 45 %
177 19-01-2020 05:24:17 2.2 C 45 %
178 19-01-2020 05:34:18 2.2 C 45 %
179 19-01-2020 05:44:18 2.2 C 44 %
180 19-01-2020 05:54:17 2.2 C 44 %
181 19-01-2020 06:04:18 2.2 C 44 %
182 19-01-2020 06:14:18 2.2 C 44 %
183 19-01-2020 06:24:17 2.2 C 43 %
184 19-01-2020 06:34:18 2.2 C 43 %
185 19-01-2020 06:44:18 2.2 C 44 %
186 19-01-2020 06:54:17 2.3 C 44 %
187 19-01-2020 07:04:17 2.3 C 45 %
188 19-01-2020 07:14:17 2.3 C 44 %
189 19-01-2020 07:24:17 2.3 C 44 %
190 19-01-2020 07:34:17 2.3 C 44 %
191 19-01-2020 07:44:17 2.3 C 44 %
192 19-01-2020 07:54:17 2.4 C 42 %
193 19-01-2020 08:04:17 2.4 C 42 %
194 19-01-2020 08:14:17 2.3 C 43 %
195 19-01-2020 08:24:18 2.3 C 43 %
196 19-01-2020 08:34:17 2.4 C 43 %
197 19-01-2020 08:44:17 2.5 C 43 %
198 19-01-2020 08:54:17 2.6 C 42 %
199 19-01-2020 09:04:18 2.5 C 42 %
200 19-01-2020 09:14:18 2.6 C 42 %
Sensor: Nr:Datum:Temp:Feuchte:
Aussen-T/F 201 19-01-2020 09:24:18 2.6 C 41 %
202 19-01-2020 09:34:17 2.7 C 40 %
203 19-01-2020 09:44:17 2.7 C 40 %
204 19-01-2020 09:54:18 2.7 C 40 %
205 19-01-2020 10:04:18 2.7 C 40 %
206 19-01-2020 10:14:18 2.7 C 40 %
207 19-01-2020 10:24:17 2.9 C 38 %
208 19-01-2020 10:34:17 3.1 C 38 %
209 19-01-2020 10:44:17 3.3 C 36 %
210 19-01-2020 10:54:17 3.6 C 35 %
211 19-01-2020 11:04:18 3.4 C 36 %
212 19-01-2020 11:14:18 3.5 C 36 %
213 19-01-2020 11:24:18 3.4 C 36 %
214 19-01-2020 11:34:17 3.5 C 36 %
215 19-01-2020 11:44:17 3.8 C 35 %
216 19-01-2020 11:54:17 4.1 C 33 %
217 19-01-2020 12:04:18 4.1 C 33 %
218 19-01-2020 12:14:18 4 C 33 %
219 19-01-2020 12:24:18 3.8 C 35 %
220 19-01-2020 12:34:17 4.1 C 35 %
221 19-01-2020 12:44:17 4.1 C 34 %
222 19-01-2020 12:54:18 4.1 C 34 %
223 19-01-2020 13:04:17 4.1 C 34 %
224 19-01-2020 13:14:17 4.4 C 33 %
225 19-01-2020 13:24:17 4.1 C 33 %
Sensor: Nr:Datum:Temp:Feuchte:
Aussen-T/F 226 19-01-2020 13:34:18 4.1 C 34 %
227 19-01-2020 13:44:18 4.2 C 33 %
228 19-01-2020 13:54:17 4.5 C 34 %
229 19-01-2020 14:04:17 5.2 C 32 %
230 19-01-2020 14:14:17 4.8 C 32 %
231 19-01-2020 14:24:17 4.7 C 32 %
232 19-01-2020 14:34:17 4.5 C 31 %
233 19-01-2020 14:44:17 4.5 C 31 %
234 19-01-2020 14:54:18 4.7 C 31 %
235 19-01-2020 15:04:17 4.5 C 31 %
236 19-01-2020 15:14:17 4.5 C 32 %
237 19-01-2020 15:24:17 4.5 C 32 %
238 19-01-2020 15:34:17 4.6 C 31 %
239 19-01-2020 15:44:17 4.8 C 31 %
240 19-01-2020 15:54:18 4.4 C 31 %
241 19-01-2020 16:04:17 4.1 C 32 %
242 19-01-2020 16:14:17 4.1 C 32 %
243 19-01-2020 16:24:17 4.1 C 34 %
244 19-01-2020 16:34:18 4.1 C 35 %
245 19-01-2020 16:44:18 3.8 C 36 %
246 19-01-2020 16:54:17 3.6 C 39 %
247 19-01-2020 17:04:18 3.5 C 42 %
248 19-01-2020 17:14:18 3.4 C 43 %
249 19-01-2020 17:24:18 3.3 C 45 %
250 19-01-2020 17:34:18 3.3 C 45 %
Sensor: Nr:Datum:Temp:Feuchte:
Aussen-T/F 251 19-01-2020 17:44:18 3.3 C 45 %
252 19-01-2020 17:54:17 3.4 C 44 %
253 19-01-2020 18:04:18 3.3 C 44 %
254 19-01-2020 18:14:18 3.4 C 43 %
255 19-01-2020 18:24:18 3.2 C 44 %
256 19-01-2020 18:34:17 3.3 C 45 %
257 19-01-2020 18:44:17 3.4 C 44 %
258 19-01-2020 18:54:17 3.4 C 44 %
259 19-01-2020 19:04:18 3.3 C 44 %
260 19-01-2020 19:14:18 3.4 C 43 %
261 19-01-2020 19:24:17 3.4 C 43 %
262 19-01-2020 19:34:18 3.4 C 43 %
263 19-01-2020 19:44:18 3.3 C 43 %
264 19-01-2020 19:54:17 3.3 C 44 %
265 19-01-2020 20:04:17 3.2 C 44 %
266 19-01-2020 20:14:17 3.2 C 44 %
267 19-01-2020 20:25:17 3.3 C 44 %
268 19-01-2020 20:34:18 3.3 C 44 %
269 19-01-2020 20:44:18 3.3 C 44 %
270 19-01-2020 20:54:17 3.2 C 44 %
271 19-01-2020 21:14:17 3.2 C 43 %
272 19-01-2020 21:14:17 3.2 C 43 %
273 19-01-2020 21:24:17 3.2 C 44 %
274 19-01-2020 21:34:18 3.2 C 44 %
275 19-01-2020 21:44:18 3.1 C 44 %
Sensor: Nr:Datum:Temp:Feuchte:
Aussen-T/F 276 19-01-2020 21:54:17 3.2 C 44 %
277 19-01-2020 22:04:17 3.1 C 44 %
278 19-01-2020 22:14:17 3.1 C 44 %
279 19-01-2020 22:24:17 3.2 C 44 %
280 19-01-2020 22:34:17 3.3 C 44 %
281 19-01-2020 22:44:17 3.3 C 43 %
282 19-01-2020 22:55:17 3.3 C 43 %
283 19-01-2020 23:05:17 3.2 C 42 %
284 19-01-2020 23:14:18 2.8 C 43 %
285 19-01-2020 23:24:18 2.2 C 43 %
286 19-01-2020 23:35:17 2.2 C 44 %
287 19-01-2020 23:44:17 2.1 C 45 %
288 19-01-2020 23:54:17 2 C 45 %
289 20-01-2020 00:05:17 2.1 C 45 %
290 20-01-2020 00:14:18 2.4 C 45 %
291 20-01-2020 00:24:18 2.1 C 45 %
292 20-01-2020 00:34:17 2.5 C 45 %
293 20-01-2020 00:44:18 2.5 C 45 %
294 20-01-2020 00:55:17 2.5 C 45 %
295 20-01-2020 01:04:18 2.3 C 45 %
296 20-01-2020 01:14:18 2.4 C 45 %
297 20-01-2020 01:24:18 2.2 C 45 %
298 20-01-2020 01:34:17 2.5 C 45 %
299 20-01-2020 01:44:17 2.4 C 45 %
300 20-01-2020 01:55:17 2.2 C 45 %
Sensor: Nr:Datum:Temp:Feuchte:
Aussen-T/F 301 20-01-2020 02:05:18 1.7 C 45 %
302 20-01-2020 02:15:18 1.7 C 45 %
303 20-01-2020 02:25:18 1.6 C 45 %
304 20-01-2020 02:35:17 1.8 C 46 %
305 20-01-2020 02:45:17 1.9 C 46 %
306 20-01-2020 02:55:17 2.1 C 45 %
307 20-01-2020 03:05:17 2 C 45 %
308 20-01-2020 03:15:17 1.5 C 45 %
309 20-01-2020 03:25:17 1.3 C 45 %
310 20-01-2020 03:35:17 1.3 C 45 %
311 20-01-2020 03:45:17 0.8 C 46 %
312 20-01-2020 03:55:17 1 C 45 %
313 20-01-2020 04:05:18 1.5 C 46 %
314 20-01-2020 04:15:17 1.6 C 46 %
315 20-01-2020 04:25:17 1.8 C 46 %
316 20-01-2020 04:35:17 1.8 C 46 %
317 20-01-2020 04:45:17 1.5 C 45 %
318 20-01-2020 04:55:18 1.4 C 45 %
319 20-01-2020 05:05:17 1.6 C 45 %
320 20-01-2020 05:15:17 1.6 C 45 %
321 20-01-2020 05:25:17 1.8 C 45 %
322 20-01-2020 05:35:18 1.5 C 45 %
323 20-01-2020 05:45:17 1.2 C 45 %
324 20-01-2020 05:55:17 1.4 C 45 %
325 20-01-2020 06:05:18 1.3 C 45 %
Sensor: Nr:Datum:Temp:Feuchte:
Aussen-T/F 326 20-01-2020 06:15:17 1.2 C 45 %
327 20-01-2020 06:25:17 1.2 C 45 %
328 20-01-2020 06:35:17 1.4 C 45 %
329 20-01-2020 06:45:18 1.4 C 45 %
330 20-01-2020 06:55:18 1.3 C 45 %
331 20-01-2020 07:05:17 1.1 C 45 %
332 20-01-2020 07:15:17 1 C 45 %
333 20-01-2020 07:25:17 1.1 C 45 %
334 20-01-2020 07:35:17 0.7 C 46 %
335 20-01-2020 07:45:17 0.4 C 46 %
336 20-01-2020 07:55:17 0.2 C 46 %
337 20-01-2020 08:05:18 0.1 C 46 %
338 20-01-2020 08:15:18 0.4 C 46 %
339 20-01-2020 08:25:18 0.8 C 46 %
340 20-01-2020 08:35:17 0.6 C 46 %
341 20-01-2020 08:45:17 1.3 C 45 %
342 20-01-2020 08:55:17 1.4 C 45 %
343 20-01-2020 09:05:17 1.5 C 45 %
344 20-01-2020 09:15:17 1.7 C 45 %
345 20-01-2020 09:25:17 1.9 C 45 %
346 20-01-2020 09:35:17 2.2 C 45 %
347 20-01-2020 09:45:18 2.3 C 45 %
348 20-01-2020 09:55:18 2.5 C 45 %
349 20-01-2020 10:05:18 2.8 C 45 %
350 20-01-2020 10:15:17 2.7 C 45 %
Sensor: Nr:Datum:Temp:Feuchte:
Aussen-T/F 351 20-01-2020 10:25:17 3 C 43 %
352 20-01-2020 10:35:17 3.5 C 43 %
353 20-01-2020 10:45:17 3.7 C 43 %
354 20-01-2020 10:55:17 3.9 C 43 %
355 20-01-2020 11:05:18 4 C 41 %
356 20-01-2020 11:15:18 4.2 C 40 %
357 20-01-2020 11:25:18 4.5 C 37 %
358 20-01-2020 11:35:18 4.5 C 35 %
359 20-01-2020 11:45:17 4.6 C 36 %
360 20-01-2020 11:55:17 5 C 35 %
361 20-01-2020 12:05:17 5.1 C 34 %
362 20-01-2020 12:15:18 5.1 C 30 %
363 20-01-2020 12:25:18 4.9 C 30 %
364 20-01-2020 12:35:18 5 C 26 %
365 20-01-2020 12:45:17 5.1 C 25 %
366 20-01-2020 12:55:17 5.2 C 21 %
367 20-01-2020 13:05:17 5.3 C 20 %
368 20-01-2020 13:15:17 5.6 C 21 %
369 20-01-2020 13:25:17 5.7 C 20 %
370 20-01-2020 13:35:17 6.1 C 20 %
371 20-01-2020 13:45:17 5.8 C 20 %
372 20-01-2020 13:55:18 5.7 C 20 %
373 20-01-2020 14:05:17 5.7 C 20 %
374 20-01-2020 14:15:17 5.9 C 20 %
375 20-01-2020 14:25:17 6 C 20 %
Sensor: Nr:Datum:Temp:Feuchte:
Aussen-T/F 376 20-01-2020 14:35:17 5.8 C 20 %
377 20-01-2020 14:45:18 5.7 C 20 %
378 20-01-2020 14:55:18 5.6 C 20 %
379 20-01-2020 15:05:17 5 C 20 %
380 20-01-2020 15:15:17 4.8 C 25 %
381 20-01-2020 15:25:17 4.9 C 20 %
382 20-01-2020 15:35:17 5.2 C 20 %
383 20-01-2020 15:45:17 5 C 20 %
384 20-01-2020 15:55:18 4.8 C 20 %
385 20-01-2020 16:05:17 4 C 26 %
386 20-01-2020 16:15:17 3.9 C 29 %
387 20-01-2020 16:25:17 3.7 C 30 %
388 20-01-2020 16:35:17 3.4 C 31 %
389 20-01-2020 16:45:18 3.1 C 30 %
390 20-01-2020 16:55:18 2.6 C 31 %
391 20-01-2020 17:05:17 2.2 C 30 %
392 20-01-2020 17:15:17 1.9 C 32 %
393 20-01-2020 17:25:17 1.8 C 32 %
394 20-01-2020 17:35:17 1.6 C 33 %
395 20-01-2020 17:45:18 1.2 C 34 %
396 20-01-2020 17:55:18 1 C 35 %
397 20-01-2020 18:05:18 0.8 C 36 %
398 20-01-2020 18:15:17 0.4 C 38 %
399 20-01-2020 18:25:17 0.1 C 40 %
400 20-01-2020 18:35:17 0.2 C 40 %
Sensor: Nr:Datum:Temp:Feuchte:
Aussen-T/F 401 20-01-2020 18:45:17 0.2 C 40 %
402 20-01-2020 18:55:17 -0.1 C 40 %
403 20-01-2020 19:05:18 -0.6 C 40 %
404 20-01-2020 19:15:17 -1 C 41 %
405 20-01-2020 19:25:18 -1.2 C 42 %
406 20-01-2020 19:35:17 -1.2 C 43 %
407 20-01-2020 19:45:17 -1.3 C 44 %
408 20-01-2020 19:55:17 -1.5 C 44 %
409 20-01-2020 20:05:18 -1.4 C 45 %
410 20-01-2020 20:15:17 -1.4 C 45 %
411 20-01-2020 20:25:17 -1.7 C 44 %
412 20-01-2020 20:35:17 -1.8 C 45 %
413 20-01-2020 20:45:18 -2 C 45 %
414 20-01-2020 20:55:18 -2.1 C 45 %
415 20-01-2020 21:05:18 -2.2 C 45 %
416 20-01-2020 21:15:17 -2.3 C 45 %
417 20-01-2020 21:25:17 -2.3 C 45 %
418 20-01-2020 21:35:17 -2.3 C 45 %
419 20-01-2020 21:45:17 -2.5 C 45 %
420 20-01-2020 21:55:17 -2.5 C 45 %
421 20-01-2020 22:05:18 -2.5 C 45 %
422 20-01-2020 22:15:18 -2.7 C 45 %
423 20-01-2020 22:25:18 -2.7 C 45 %
424 20-01-2020 22:35:17 -2.7 C 46 %
425 20-01-2020 22:45:17 -2.8 C 45 %
Sensor: Nr:Datum:Temp:Feuchte:
Aussen-T/F 426 20-01-2020 22:55:17 -2.8 C 45 %
427 20-01-2020 23:05:17 -2.9 C 45 %
428 20-01-2020 23:15:17 -2.7 C 45 %
429 20-01-2020 23:25:17 -2.9 C 45 %
430 20-01-2020 23:35:18 -3.1 C 44 %
431 20-01-2020 23:45:17 -2.6 C 45 %
432 20-01-2020 23:55:17 -2.8 C 45 %
433 21-01-2020 00:05:17 -2.5 C 45 %
434 21-01-2020 00:15:18 -3 C 43 %
435 21-01-2020 00:25:18 -3.1 C 44 %
436 21-01-2020 00:35:17 -3.1 C 44 %
437 21-01-2020 00:45:17 -3 C 44 %
438 21-01-2020 00:55:17 -3.1 C 44 %
439 21-01-2020 01:05:17 -3.3 C 44 %
440 21-01-2020 01:15:17 -3.1 C 44 %
441 21-01-2020 01:25:17 -3.3 C 44 %
442 21-01-2020 01:35:18 -3.1 C 45 %
443 21-01-2020 01:45:17 -3.3 C 44 %
444 21-01-2020 01:55:17 -3.5 C 43 %
445 21-01-2020 02:05:17 -3.6 C 43 %
446 21-01-2020 02:15:17 -3.5 C 45 %
447 21-01-2020 02:25:17 -3.7 C 44 %
448 21-01-2020 02:35:17 -3.7 C 44 %
449 21-01-2020 02:45:18 -3.8 C 44 %
450 21-01-2020 02:55:18 -3.6 C 44 %
Sensor: Nr:Datum:Temp:Feuchte:
Aussen-T/F 451 21-01-2020 03:05:17 -3.9 C 43 %
452 21-01-2020 03:15:17 -3.8 C 44 %
453 21-01-2020 03:25:17 -3.9 C 43 %
454 21-01-2020 03:35:17 -4.2 C 43 %
455 21-01-2020 03:45:17 -4.4 C 42 %
456 21-01-2020 03:55:17 -4.3 C 43 %
457 21-01-2020 04:05:18 -4.4 C 42 %
458 21-01-2020 04:15:17 -4.5 C 42 %
459 21-01-2020 04:25:17 -4.2 C 43 %
460 21-01-2020 04:35:17 -4.3 C 43 %
461 21-01-2020 04:45:17 -4.3 C 43 %
462 21-01-2020 04:55:17 -4.5 C 43 %
463 21-01-2020 05:05:18 -4.4 C 43 %
464 21-01-2020 05:15:17 -4.5 C 43 %
465 21-01-2020 05:25:17 -4.3 C 44 %
466 21-01-2020 05:35:17 -4 C 45 %
467 21-01-2020 05:45:17 -4.1 C 44 %
468 21-01-2020 05:55:17 -3.9 C 45 %
469 21-01-2020 06:05:18 -3.9 C 45 %
470 21-01-2020 06:15:17 -3.7 C 45 %
471 21-01-2020 06:25:17 -3.7 C 45 %
472 21-01-2020 06:35:17 -3.5 C 45 %
473 21-01-2020 06:45:17 -3.5 C 45 %
474 21-01-2020 06:55:17 -3.3 C 45 %
475 21-01-2020 07:05:17 -3.6 C 45 %
Sensor: Nr:Datum:Temp:Feuchte:
Aussen-T/F 476 21-01-2020 07:15:17 -3.6 C 45 %
477 21-01-2020 07:25:17 -3.5 C 45 %
478 21-01-2020 07:35:17 -3.5 C 45 %
479 21-01-2020 07:45:18 -3.5 C 45 %
480 21-01-2020 07:55:18 -3.6 C 45 %
481 21-01-2020 08:05:17 -3.3 C 45 %
482 21-01-2020 08:15:17 -3.6 C 45 %
483 21-01-2020 08:25:17 -3.5 C 45 %
484 21-01-2020 08:35:17 -3.7 C 45 %
485 21-01-2020 08:45:17 -3.8 C 45 %
486 21-01-2020 08:55:18 -3.6 C 45 %
487 21-01-2020 09:05:17 -3.6 C 45 %
488 21-01-2020 09:15:17 -3.7 C 45 %
489 21-01-2020 09:25:17 -3.5 C 45 %
490 21-01-2020 09:35:17 -3.7 C 44 %
491 21-01-2020 09:45:17 -3.9 C 44 %
492 21-01-2020 09:55:17 -3.7 C 44 %
493 21-01-2020 10:05:17 -3.6 C 45 %
494 21-01-2020 10:15:18 -3.3 C 45 %
495 21-01-2020 10:25:18 -3.1 C 45 %
496 21-01-2020 10:35:17 -3 C 45 %
497 21-01-2020 10:45:17 -3 C 44 %
498 21-01-2020 10:55:17 -2.7 C 44 %
499 21-01-2020 11:05:17 -3 C 44 %
500 21-01-2020 11:15:17 -2.9 C 44 %
Sensor: Nr:Datum:Temp:Feuchte:
Aussen-T/F 501 21-01-2020 11:25:17 -2.5 C 45 %
502 21-01-2020 11:35:17 -2.2 C 44 %
503 21-01-2020 11:45:18 -2 C 44 %
504 21-01-2020 11:55:18 -1.6 C 45 %
505 21-01-2020 12:05:18 -1.5 C 45 %
506 21-01-2020 12:15:17 -1.5 C 45 %
507 21-01-2020 12:25:17 -1.7 C 45 %
508 21-01-2020 12:35:17 -1.2 C 46 %
509 21-01-2020 12:45:18 -1.2 C 45 %
510 21-01-2020 12:55:18 -1.2 C 45 %
511 21-01-2020 13:05:18 -0.9 C 46 %
512 21-01-2020 13:15:17 -1 C 45 %
513 21-01-2020 13:25:18 -0.9 C 45 %
514 21-01-2020 13:35:17 -0.7 C 45 %
515 21-01-2020 13:45:17 -0.6 C 46 %
516 21-01-2020 13:55:17 -0.8 C 45 %
517 21-01-2020 14:05:17 -0.6 C 46 %
518 21-01-2020 14:15:17 -0.3 C 46 %
519 21-01-2020 14:25:17 -0.2 C 46 %
520 21-01-2020 14:35:18 -0.3 C 46 %
521 21-01-2020 14:45:18 -0.3 C 46 %
522 21-01-2020 14:55:18 -0.3 C 46 %
523 21-01-2020 15:05:17 -0.5 C 46 %
524 21-01-2020 15:15:17 -0.6 C 46 %
525 21-01-2020 15:25:17 -0.5 C 46 %
Sensor: Nr:Datum:Temp:Feuchte:
Aussen-T/F 526 21-01-2020 15:35:17 -0.4 C 46 %
527 21-01-2020 15:45:17 -0.4 C 46 %
528 21-01-2020 15:55:18 -0.6 C 46 %
529 21-01-2020 16:05:17 -0.8 C 46 %
530 21-01-2020 16:15:17 -0.9 C 46 %
531 21-01-2020 16:25:17 -0.9 C 46 %
532 21-01-2020 16:35:17 -0.9 C 46 %
533 21-01-2020 16:45:17 -1 C 46 %
534 21-01-2020 16:55:17 -1.3 C 46 %
535 21-01-2020 17:05:18 -1.4 C 46 %
536 21-01-2020 17:15:17 -1.4 C 46 %
537 21-01-2020 17:25:17 -1.5 C 46 %
538 21-01-2020 17:35:17 -1.6 C 46 %
539 21-01-2020 17:45:17 -1.7 C 46 %
540 21-01-2020 17:55:18 -1.8 C 46 %
541 21-01-2020 18:05:17 -1.9 C 46 %
542 21-01-2020 18:15:17 -2.2 C 45 %
543 21-01-2020 18:25:17 -2.2 C 45 %
544 21-01-2020 18:35:17 -2.3 C 45 %
545 21-01-2020 18:45:17 -2.4 C 45 %
546 21-01-2020 18:55:17 -2.5 C 45 %
547 21-01-2020 19:05:17 -2.1 C 46 %
548 21-01-2020 19:15:17 -2.1 C 46 %
549 21-01-2020 19:25:17 -2.3 C 45 %
550 21-01-2020 19:35:17 -2.3 C 45 %
Sensor: Nr:Datum:Temp:Feuchte:
Aussen-T/F 551 21-01-2020 19:45:17 -2.3 C 45 %
552 21-01-2020 19:55:18 -2.4 C 45 %
553 21-01-2020 20:05:18 -2.4 C 45 %
554 21-01-2020 20:15:17 -2.5 C 45 %
555 21-01-2020 20:25:17 -2.7 C 45 %
556 21-01-2020 20:35:17 -2.5 C 45 %
557 21-01-2020 20:45:18 -2.6 C 45 %
558 21-01-2020 20:55:18 -2.7 C 45 %
559 21-01-2020 21:05:18 -3 C 45 %
560 21-01-2020 21:15:17 -3 C 45 %
561 21-01-2020 21:25:18 -3 C 45 %
562 21-01-2020 21:35:17 -2.9 C 45 %
563 21-01-2020 21:45:17 -2.8 C 45 %
564 21-01-2020 21:55:17 -2.7 C 45 %
565 21-01-2020 22:05:18 -2.7 C 45 %
566 21-01-2020 22:15:18 -2.9 C 45 %
567 21-01-2020 22:25:18 -2.9 C 45 %
568 21-01-2020 22:35:18 -3 C 45 %
569 21-01-2020 22:45:17 -3.2 C 45 %
570 21-01-2020 22:55:17 -3.3 C 45 %
571 21-01-2020 23:05:18 -3.4 C 45 %
572 21-01-2020 23:15:17 -3.2 C 45 %
573 21-01-2020 23:25:18 -3.2 C 45 %
574 21-01-2020 23:35:17 -3.2 C 45 %
575 21-01-2020 23:45:17 -3.2 C 45 %
Sensor: Nr:Datum:Temp:Feuchte:
Aussen-T/F 576 21-01-2020 23:55:17 -3.2 C 45 %
577 22-01-2020 00:05:17 -3.4 C 45 %
578 22-01-2020 00:15:17 -3.6 C 45 %
579 22-01-2020 00:25:17 -3.8 C 45 %
580 22-01-2020 00:35:17 -3.5 C 45 %
581 22-01-2020 00:45:18 -3.4 C 45 %
582 22-01-2020 00:55:18 -3.3 C 45 %
583 22-01-2020 01:05:17 -3.5 C 45 %
584 22-01-2020 01:15:18 -3.4 C 45 %
585 22-01-2020 01:25:18 -3.5 C 45 %
586 22-01-2020 01:35:17 -3.6 C 45 %
587 22-01-2020 01:45:17 -3.6 C 45 %
588 22-01-2020 01:55:17 -3.7 C 45 %
589 22-01-2020 02:05:18 -3.8 C 45 %
590 22-01-2020 02:15:18 -3.8 C 45 %
591 22-01-2020 02:25:18 -3.9 C 45 %
592 22-01-2020 02:35:18 -3.9 C 45 %
593 22-01-2020 02:45:17 -3.9 C 45 %
594 22-01-2020 02:55:17 -4 C 45 %
595 22-01-2020 03:05:17 -4.1 C 44 %
596 22-01-2020 03:15:17 -3.9 C 45 %
597 22-01-2020 03:25:17 -3.9 C 45 %
598 22-01-2020 03:35:18 -3.9 C 45 %
599 22-01-2020 03:45:17 -3.9 C 45 %
600 22-01-2020 03:55:17 -4 C 45 %
Sensor: Nr:Datum:Temp:Feuchte:
Aussen-T/F 601 22-01-2020 04:05:17 -3.9 C 45 %
602 22-01-2020 04:15:18 -4 C 45 %
603 22-01-2020 04:25:18 -4 C 45 %
604 22-01-2020 04:35:17 -3.9 C 45 %
605 22-01-2020 04:45:17 -4 C 45 %
606 22-01-2020 04:55:17 -3.9 C 45 %
607 22-01-2020 05:05:17 -4 C 45 %
608 22-01-2020 05:15:17 -3.9 C 45 %
609 22-01-2020 05:25:17 -4 C 44 %
610 22-01-2020 05:35:18 -3.9 C 44 %
611 22-01-2020 05:45:17 -3.8 C 45 %
612 22-01-2020 05:55:17 -3.9 C 45 %
613 22-01-2020 06:05:17 -3.9 C 45 %
614 22-01-2020 06:15:17 -3.9 C 44 %
615 22-01-2020 06:25:17 -4 C 44 %
616 22-01-2020 06:35:18 -4 C 44 %
617 22-01-2020 06:45:17 -3.9 C 44 %
618 22-01-2020 06:55:17 -3.8 C 44 %
619 22-01-2020 07:05:17 -3.8 C 44 %
620 22-01-2020 07:15:17 -3.5 C 45 %
621 22-01-2020 07:25:17 -3.7 C 45 %
622 22-01-2020 07:35:17 -3.5 C 45 %
623 22-01-2020 07:45:18 -3.4 C 45 %
624 22-01-2020 07:55:18 -3.4 C 45 %
625 22-01-2020 08:05:17 -3.3 C 45 %
Sensor: Nr:Datum:Temp:Feuchte:
Aussen-T/F 626 22-01-2020 08:15:17 -3.6 C 45 %
627 22-01-2020 08:25:17 -3.5 C 45 %
628 22-01-2020 08:35:18 -3.5 C 45 %
629 22-01-2020 08:45:17 -3.4 C 45 %
630 22-01-2020 08:55:17 -3.3 C 45 %
631 22-01-2020 09:05:17 -3.3 C 45 %
632 22-01-2020 09:15:17 -3.2 C 45 %
633 22-01-2020 09:25:17 -3.2 C 45 %
634 22-01-2020 09:35:18 -2.9 C 45 %
635 22-01-2020 09:45:17 -2.9 C 44 %
636 22-01-2020 09:55:17 -3 C 44 %
637 22-01-2020 10:05:17 -2.9 C 45 %
638 22-01-2020 10:15:17 -3 C 45 %
639 22-01-2020 10:25:17 -3 C 45 %
640 22-01-2020 10:35:17 -3 C 44 %
641 22-01-2020 10:45:17 -2.9 C 45 %
642 22-01-2020 10:55:17 -3.1 C 45 %
643 22-01-2020 11:05:18 -3 C 45 %
644 22-01-2020 11:15:18 -2.8 C 45 %
645 22-01-2020 11:25:18 -2.5 C 45 %
646 22-01-2020 11:35:17 -2 C 45 %
647 22-01-2020 11:45:17 -1.9 C 44 %
648 22-01-2020 11:55:17 -1.3 C 44 %
649 22-01-2020 12:05:17 -1.8 C 42 %
650 22-01-2020 12:15:17 -1.5 C 43 %
Sensor: Nr:Datum:Temp:Feuchte:
Aussen-T/F 651 22-01-2020 12:25:17 -1.1 C 45 %
652 22-01-2020 12:35:18 -1 C 45 %
653 22-01-2020 12:45:17 -1.4 C 43 %
654 22-01-2020 12:55:17 -1.2 C 44 %
655 22-01-2020 13:05:17 -1.3 C 44 %
656 22-01-2020 13:15:17 -1 C 44 %
657 22-01-2020 13:25:17 -0.8 C 44 %
658 22-01-2020 13:35:18 -0.6 C 44 %
659 22-01-2020 13:45:17 -0.3 C 44 %
660 22-01-2020 13:55:17 -0.2 C 43 %
661 22-01-2020 14:05:17 -0.5 C 42 %
662 22-01-2020 14:15:17 -0.7 C 41 %
663 22-01-2020 14:25:17 -0.5 C 43 %
664 22-01-2020 14:35:17 -0.6 C 42 %
665 22-01-2020 14:45:17 -0.4 C 43 %
666 22-01-2020 14:55:17 -0.6 C 42 %
667 22-01-2020 15:05:18 -0.5 C 42 %
668 22-01-2020 15:15:17 -0.6 C 41 %
669 22-01-2020 15:25:17 -0.5 C 42 %
670 22-01-2020 15:35:17 -0.5 C 41 %
671 22-01-2020 15:45:18 -0.3 C 42 %
672 22-01-2020 15:55:18 -0.3 C 42 %
673 22-01-2020 16:05:17 -0.3 C 42 %
674 22-01-2020 16:15:17 -0.2 C 43 %
675 22-01-2020 16:25:17 -0.2 C 43 %
Sensor: Nr:Datum:Temp:Feuchte:
Aussen-T/F 676 22-01-2020 16:35:17 -0.3 C 42 %
677 22-01-2020 16:45:17 -0.4 C 43 %
678 22-01-2020 16:55:18 -0.4 C 44 %
679 22-01-2020 17:05:17 -0.4 C 45 %
680 22-01-2020 17:15:18 -0.4 C 45 %
681 22-01-2020 17:25:18 -0.5 C 45 %
682 22-01-2020 17:35:17 -0.4 C 46 %
683 22-01-2020 17:45:17 -0.4 C 46 %
684 22-01-2020 17:55:17 -0.4 C 46 %
685 22-01-2020 18:05:18 -0.4 C 46 %
686 22-01-2020 18:15:17 -0.5 C 45 %
687 22-01-2020 18:25:18 -0.6 C 46 %
688 22-01-2020 18:35:17 -0.6 C 46 %
689 22-01-2020 18:45:17 -0.5 C 46 %
690 22-01-2020 18:55:17 -0.5 C 46 %
691 22-01-2020 19:05:17 -0.4 C 46 %
692 22-01-2020 19:15:17 -0.4 C 46 %
693 22-01-2020 19:25:17 -0.3 C 46 %
694 22-01-2020 19:35:17 -0.3 C 46 %
695 22-01-2020 19:45:17 -0.3 C 46 %
696 22-01-2020 19:55:17 -0.2 C 46 %
697 22-01-2020 20:05:18 -0.2 C 46 %
698 22-01-2020 20:15:17 -0.2 C 46 %
699 22-01-2020 20:25:17 -0.2 C 46 %
700 22-01-2020 20:35:17 -0.2 C 46 %
Sensor: Nr:Datum:Temp:Feuchte:
Aussen-T/F 701 22-01-2020 20:45:17 -0.2 C 46 %
702 22-01-2020 20:55:17 -0.2 C 46 %
703 22-01-2020 21:05:18 -0.2 C 46 %
704 22-01-2020 21:15:17 -0.1 C 46 %
705 22-01-2020 21:25:18 -0.2 C 46 %
706 22-01-2020 21:35:17 -0.1 C 46 %
707 22-01-2020 21:45:18 -0.1 C 46 %
708 22-01-2020 21:55:18 -0.1 C 46 %
709 22-01-2020 22:05:17 -0.1 C 46 %
710 22-01-2020 22:15:17 -0.1 C 46 %
711 22-01-2020 22:25:17 0 C 46 %
712 22-01-2020 22:35:18 -0.1 C 46 %
713 22-01-2020 22:45:17 0 C 46 %
714 22-01-2020 22:55:17 0 C 46 %
715 22-01-2020 23:05:17 0 C 46 %
716 22-01-2020 23:15:17 0 C 46 %
717 22-01-2020 23:25:17 0 C 46 %
718 22-01-2020 23:35:17 0.1 C 46 %
719 22-01-2020 23:45:17 0.1 C 46 %
720 22-01-2020 23:55:17 0.1 C 46 %
721 23-01-2020 00:05:17 0.1 C 46 %
722 23-01-2020 00:15:17 0.1 C 46 %
723 23-01-2020 00:25:17 0.1 C 46 %
724 23-01-2020 00:35:18 0.1 C 46 %
725 23-01-2020 00:45:17 0.1 C 46 %
Sensor: Nr:Datum:Temp:Feuchte:
Aussen-T/F 726 23-01-2020 00:55:17 0.1 C 46 %
727 23-01-2020 01:05:18 0.1 C 46 %
728 23-01-2020 01:15:18 0.1 C 46 %
729 23-01-2020 01:25:18 0.2 C 46 %
730 23-01-2020 01:35:17 0.1 C 46 %
731 23-01-2020 01:45:17 0.1 C 46 %
732 23-01-2020 01:55:18 0.2 C 46 %
733 23-01-2020 02:05:17 0.2 C 46 %
734 23-01-2020 02:15:17 0.2 C 46 %
735 23-01-2020 02:25:17 0.2 C 46 %
736 23-01-2020 02:35:17 0.3 C 46 %
737 23-01-2020 02:45:17 0.2 C 46 %
738 23-01-2020 02:55:18 0.2 C 46 %
739 23-01-2020 03:05:17 0.3 C 46 %
740 23-01-2020 03:15:17 0.3 C 46 %
741 23-01-2020 03:25:17 0.3 C 46 %
742 23-01-2020 03:35:17 0.3 C 46 %
743 23-01-2020 03:45:17 0.3 C 46 %
744 23-01-2020 03:55:18 0.3 C 46 %
745 23-01-2020 04:05:17 0.3 C 46 %
746 23-01-2020 04:15:17 0.3 C 46 %
747 23-01-2020 04:25:17 0.3 C 46 %
748 23-01-2020 04:35:18 0.3 C 46 %
749 23-01-2020 04:45:17 0.4 C 46 %
750 23-01-2020 04:55:17 0.3 C 46 %
Sensor: Nr:Datum:Temp:Feuchte:
Aussen-T/F 751 23-01-2020 05:05:17 0.4 C 46 %
752 23-01-2020 05:15:18 0.3 C 46 %
753 23-01-2020 05:25:18 0.3 C 46 %
754 23-01-2020 05:35:17 0.3 C 46 %
755 23-01-2020 05:45:17 0.3 C 46 %
756 23-01-2020 05:55:17 0.4 C 46 %
757 23-01-2020 06:05:18 0.4 C 46 %
758 23-01-2020 06:15:17 0.4 C 46 %
759 23-01-2020 06:25:18 0.4 C 46 %
760 23-01-2020 06:35:17 0.5 C 46 %
761 23-01-2020 06:45:17 0.5 C 46 %
762 23-01-2020 06:55:17 0.5 C 46 %
763 23-01-2020 07:05:17 0.5 C 46 %
764 23-01-2020 07:15:17 0.5 C 46 %
765 23-01-2020 07:25:17 0.5 C 46 %
766 23-01-2020 07:35:18 0.5 C 46 %
767 23-01-2020 07:45:17 0.6 C 46 %
768 23-01-2020 07:55:17 0.6 C 46 %
769 23-01-2020 08:05:17 0.6 C 46 %
770 23-01-2020 08:15:17 0.7 C 46 %
771 23-01-2020 08:25:17 0.7 C 46 %
772 23-01-2020 08:35:18 0.7 C 46 %
773 23-01-2020 08:45:17 0.7 C 46 %
774 23-01-2020 08:55:17 0.8 C 46 %
775 23-01-2020 09:05:17 0.8 C 46 %
Sensor: Nr:Datum:Temp:Feuchte:
Aussen-T/F 776 23-01-2020 09:15:17 0.8 C 46 %
777 23-01-2020 09:25:17 1.5 C 45 %
778 23-01-2020 09:35:17 1 C 45 %
779 23-01-2020 09:45:18 1 C 45 %
780 23-01-2020 09:55:18 1.1 C 45 %
781 23-01-2020 10:05:17 1.1 C 45 %
782 23-01-2020 10:15:17 1.1 C 44 %
783 23-01-2020 10:25:17 1.3 C 44 %
784 23-01-2020 10:35:17 1.3 C 44 %
785 23-01-2020 10:45:17 1.4 C 44 %
786 23-01-2020 10:55:17 1.4 C 43 %
787 23-01-2020 11:05:18 1.6 C 42 %
788 23-01-2020 11:15:17 1.7 C 42 %
789 23-01-2020 11:25:17 1.7 C 41 %
790 23-01-2020 11:35:17 1.8 C 40 %
791 23-01-2020 11:45:17 1.7 C 40 %
792 23-01-2020 11:55:17 1.8 C 40 %
793 23-01-2020 12:05:17 1.9 C 40 %
794 23-01-2020 12:15:17 1.9 C 40 %
795 23-01-2020 12:25:17 1.8 C 38 %
796 23-01-2020 12:35:17 2 C 37 %
797 23-01-2020 12:45:18 2 C 37 %
798 23-01-2020 12:55:18 2.1 C 37 %
799 23-01-2020 13:05:18 2.1 C 37 %
800 23-01-2020 13:15:17 2.1 C 37 %
Sensor: Nr:Datum:Temp:Feuchte:
Aussen-T/F 801 23-01-2020 13:25:17 2.2 C 37 %
802 23-01-2020 13:35:17 2.3 C 36 %
803 23-01-2020 13:45:17 2.3 C 36 %
804 23-01-2020 13:55:17 2.2 C 36 %
805 23-01-2020 14:05:17 2.2 C 36 %
806 23-01-2020 14:15:18 2.3 C 36 %
807 23-01-2020 14:25:18 2.2 C 37 %
808 23-01-2020 14:35:18 2.2 C 36 %
809 23-01-2020 14:45:17 2.2 C 36 %
810 23-01-2020 14:55:17 2.1 C 36 %
811 23-01-2020 15:05:17 2.2 C 36 %
812 23-01-2020 15:15:17 2.3 C 35 %
813 23-01-2020 15:25:17 2.3 C 35 %
814 23-01-2020 15:35:18 2.2 C 36 %
815 23-01-2020 15:45:17 2.1 C 36 %
816 23-01-2020 15:55:17 2.1 C 37 %
817 23-01-2020 16:05:17 2 C 37 %
818 23-01-2020 16:15:17 1.9 C 37 %
819 23-01-2020 16:25:17 1.9 C 38 %
820 23-01-2020 16:35:18 1.8 C 39 %
821 23-01-2020 16:45:17 1.7 C 39 %
822 23-01-2020 16:55:17 1.6 C 40 %
823 23-01-2020 17:05:17 1.5 C 41 %
824 23-01-2020 17:15:17 1.4 C 42 %
825 23-01-2020 17:25:17 1.4 C 42 %
Sensor: Nr:Datum:Temp:Feuchte:
Aussen-T/F 826 23-01-2020 17:35:18 0.8 C 43 %
827 23-01-2020 17:45:17 0.2 C 43 %
828 23-01-2020 17:55:17 -0.2 C 45 %
829 23-01-2020 18:05:17 -0.5 C 45 %
830 23-01-2020 18:15:17 -0.6 C 46 %
831 23-01-2020 18:25:17 -0.7 C 46 %
832 23-01-2020 18:35:18 -0.8 C 46 %
833 23-01-2020 18:45:17 -0.7 C 46 %
834 23-01-2020 18:55:17 -0.7 C 46 %
835 23-01-2020 19:05:17 -1 C 46 %
836 23-01-2020 19:15:17 -1.3 C 46 %
837 23-01-2020 19:25:17 -1.7 C 46 %
838 23-01-2020 19:35:18 -1.9 C 46 %
839 23-01-2020 19:45:17 -1.6 C 46 %
840 23-01-2020 19:55:17 -1.8 C 46 %
841 23-01-2020 20:05:17 -2 C 46 %
842 23-01-2020 20:15:17 -1.8 C 46 %
843 23-01-2020 20:25:17 -2 C 45 %
844 23-01-2020 20:35:18 -2 C 46 %
845 23-01-2020 20:45:18 -1.7 C 46 %
846 23-01-2020 20:55:18 -1.3 C 46 %
847 23-01-2020 21:05:17 -1.1 C 46 %
848 23-01-2020 21:15:17 -0.9 C 46 %
849 23-01-2020 21:25:17 -0.8 C 46 %
850 23-01-2020 21:35:18 -0.7 C 46 %
Sensor: Nr:Datum:Temp:Feuchte:
Aussen-T/F 851 23-01-2020 21:45:17 -0.7 C 46 %
852 23-01-2020 21:55:17 -0.6 C 46 %
853 23-01-2020 22:05:17 -0.6 C 46 %
854 23-01-2020 22:15:17 -0.6 C 46 %
855 23-01-2020 22:25:17 -0.5 C 46 %
856 23-01-2020 22:35:17 -0.4 C 46 %
857 23-01-2020 22:45:18 -0.3 C 46 %
858 23-01-2020 22:55:18 -0.2 C 46 %
859 23-01-2020 23:05:18 -0.2 C 46 %
860 23-01-2020 23:15:17 -0.2 C 46 %
861 23-01-2020 23:25:17 -0.2 C 46 %
862 23-01-2020 23:35:17 -0.1 C 46 %
863 23-01-2020 23:45:17 -0.1 C 46 %
864 23-01-2020 23:55:17 -0.1 C 46 %
865 24-01-2020 00:05:18 0 C 46 %
866 24-01-2020 00:15:17 0.1 C 45 %
867 24-01-2020 00:25:17 0 C 45 %
868 24-01-2020 00:35:17 0.2 C 42 %
869 24-01-2020 00:45:17 0.1 C 42 %
870 24-01-2020 00:55:17 0.1 C 42 %
871 24-01-2020 01:05:17 0.1 C 41 %
872 24-01-2020 01:15:18 0.1 C 41 %
873 24-01-2020 01:25:18 0 C 40 %
874 24-01-2020 01:35:17 0 C 40 %
875 24-01-2020 01:45:17 0 C 40 %
Sensor: Nr:Datum:Temp:Feuchte:
Aussen-T/F 876 24-01-2020 01:55:17 0 C 39 %
877 24-01-2020 02:05:18 -0.1 C 40 %
878 24-01-2020 02:15:17 -0.1 C 40 %
879 24-01-2020 02:25:17 -0.1 C 40 %
880 24-01-2020 02:35:17 -0.1 C 40 %
881 24-01-2020 02:45:18 -0.1 C 40 %
882 24-01-2020 02:55:18 0 C 39 %
883 24-01-2020 03:05:17 -0.1 C 39 %
884 24-01-2020 03:15:17 -0.1 C 39 %
885 24-01-2020 03:25:17 -0.1 C 39 %
886 24-01-2020 03:35:17 0 C 38 %
887 24-01-2020 03:45:17 0 C 38 %
888 24-01-2020 03:55:18 -0.1 C 39 %
889 24-01-2020 04:05:17 -0.1 C 39 %
890 24-01-2020 04:15:17 -0.1 C 38 %
891 24-01-2020 04:25:17 -0.1 C 38 %
892 24-01-2020 04:35:17 -0.1 C 38 %
893 24-01-2020 04:45:17 -0.1 C 38 %
894 24-01-2020 04:55:18 -0.1 C 38 %
895 24-01-2020 05:05:17 -0.1 C 38 %
896 24-01-2020 05:15:17 -0.2 C 38 %
897 24-01-2020 05:25:17 -0.1 C 38 %
898 24-01-2020 05:35:17 -0.2 C 38 %
899 24-01-2020 05:45:18 -0.2 C 38 %
900 24-01-2020 05:55:18 -0.2 C 38 %
Sensor: Nr:Datum:Temp:Feuchte:
Aussen-T/F 901 24-01-2020 06:05:17 -0.2 C 38 %
902 24-01-2020 06:15:18 -0.2 C 38 %
903 24-01-2020 06:25:18 -0.2 C 38 %
904 24-01-2020 06:35:18 -0.2 C 38 %
905 24-01-2020 06:45:17 -0.2 C 38 %
906 24-01-2020 06:55:17 -0.2 C 38 %
907 24-01-2020 07:05:17 -0.2 C 38 %
908 24-01-2020 07:15:17 -0.3 C 38 %
909 24-01-2020 07:25:17 -0.3 C 38 %
910 24-01-2020 07:35:18 -0.3 C 38 %
911 24-01-2020 07:45:17 -0.3 C 37 %
912 24-01-2020 07:55:17 -0.3 C 37 %
913 24-01-2020 08:05:17 -0.3 C 37 %
914 24-01-2020 08:15:17 -0.3 C 37 %
915 24-01-2020 08:25:17 -0.3 C 37 %
916 24-01-2020 08:35:17 -0.3 C 36 %
917 24-01-2020 08:45:17 -0.3 C 36 %
918 24-01-2020 08:55:17 -0.3 C 36 %
919 24-01-2020 09:05:17 -0.3 C 36 %
920 24-01-2020 09:15:17 -0.2 C 36 %
921 24-01-2020 09:25:17 -0.1 C 36 %
922 24-01-2020 09:35:18 0 C 36 %
923 24-01-2020 09:45:17 0.1 C 36 %
924 24-01-2020 09:55:17 0.2 C 35 %
925 24-01-2020 10:05:17 0.2 C 35 %
Sensor: Nr:Datum:Temp:Feuchte:
Aussen-T/F 926 24-01-2020 10:15:17 0.2 C 35 %
927 24-01-2020 10:25:17 0.4 C 35 %
928 24-01-2020 10:35:17 0.5 C 35 %
929 24-01-2020 10:45:17 0.6 C 35 %
930 24-01-2020 10:55:17 0.4 C 34 %
931 24-01-2020 11:05:17 0.7 C 34 %
932 24-01-2020 11:15:17 0.7 C 34 %
933 24-01-2020 11:25:17 0.9 C 34 %
934 24-01-2020 11:35:17 1 C 33 %
935 24-01-2020 11:45:18 1.2 C 32 %
936 24-01-2020 11:55:18 1.3 C 32 %
937 24-01-2020 12:05:17 1.6 C 31 %
938 24-01-2020 12:15:17 1.6 C 31 %
939 24-01-2020 12:25:17 1.9 C 31 %
940 24-01-2020 12:35:17 1.5 C 31 %
941 24-01-2020 12:45:17 1.7 C 30 %
942 24-01-2020 12:55:17 2.1 C 30 %
943 24-01-2020 13:05:18 1.9 C 30 %
944 24-01-2020 13:15:18 2 C 29 %
945 24-01-2020 13:25:18 2.4 C 30 %
946 24-01-2020 13:35:18 3 C 28 %
947 24-01-2020 13:45:17 3.2 C 27 %
948 24-01-2020 13:55:18 2.5 C 27 %
949 24-01-2020 14:05:17 2.2 C 27 %
950 24-01-2020 14:15:17 2.7 C 28 %
Sensor: Nr:Datum:Temp:Feuchte:
Aussen-T/F 951 24-01-2020 14:25:17 2.6 C 29 %
952 24-01-2020 14:35:17 2.8 C 28 %
953 24-01-2020 14:45:18 2.7 C 28 %
954 24-01-2020 14:55:18 2.5 C 29 %
955 24-01-2020 15:05:17 2.6 C 29 %
956 24-01-2020 15:15:17 2.5 C 29 %
957 24-01-2020 15:25:17 2.4 C 30 %
958 24-01-2020 15:35:17 2.3 C 30 %
959 24-01-2020 15:45:17 2.3 C 30 %
960 24-01-2020 15:55:18 2.3 C 30 %
961 24-01-2020 16:05:17 2.2 C 30 %
962 24-01-2020 16:15:17 2 C 30 %
963 24-01-2020 16:25:17 2.1 C 30 %
964 24-01-2020 16:35:18 1.9 C 31 %
965 24-01-2020 16:45:17 1.8 C 32 %
966 24-01-2020 16:55:17 1.8 C 32 %
967 24-01-2020 17:05:17 1.7 C 32 %
968 24-01-2020 17:15:17 1.6 C 32 %
969 24-01-2020 17:25:17 1.5 C 33 %
970 24-01-2020 17:35:17 1.5 C 35 %
971 24-01-2020 17:45:17 1.3 C 35 %
972 24-01-2020 17:55:17 1.3 C 35 %
973 24-01-2020 18:05:17 1.3 C 36 %
974 24-01-2020 18:15:17 1.4 C 36 %
975 24-01-2020 18:25:17 1.2 C 36 %
Sensor: Nr:Datum:Temp:Feuchte:
Aussen-T/F 976 24-01-2020 18:35:18 1.2 C 36 %
977 24-01-2020 18:45:17 1.2 C 36 %
978 24-01-2020 18:55:17 1.3 C 36 %
979 24-01-2020 19:05:17 1.2 C 37 %
980 24-01-2020 19:15:17 1.2 C 37 %
981 24-01-2020 19:25:17 1.2 C 37 %
982 24-01-2020 19:35:18 1.2 C 37 %
983 24-01-2020 19:45:17 1.2 C 37 %
984 24-01-2020 19:55:17 1.4 C 37 %
985 24-01-2020 20:05:17 1.4 C 37 %
986 24-01-2020 20:15:17 1.3 C 37 %
987 24-01-2020 20:25:17 1.4 C 37 %
988 24-01-2020 20:31:17 1 C 36 %
989 24-01-2020 20:35:17 1.4 C 37 %
990 24-01-2020 20:41:17 1 C 36 %
991 24-01-2020 20:45:18 1.4 C 37 %
992 24-01-2020 20:51:17 1 C 36 %
993 24-01-2020 20:55:18 1.4 C 37 %
994 24-01-2020 21:01:17 0.9 C 37 %
995 24-01-2020 21:05:17 1.3 C 37 %
996 24-01-2020 21:11:17 0.9 C 38 %
997 24-01-2020 21:15:17 1.2 C 37 %
998 24-01-2020 21:21:17 0.9 C 38 %
999 24-01-2020 21:25:17 1.2 C 37 %
1000 24-01-2020 21:31:17 0.8 C 38 %
Sensor: Nr:Datum:Temp:Feuchte:
Aussen-T/F 1001 24-01-2020 21:35:17 1.1 C 36 %
1002 24-01-2020 21:41:17 0.8 C 38 %
1003 24-01-2020 23:05:17 0.8 C 38 %
1004 24-01-2020 23:15:17 0.8 C 38 %
1005 24-01-2020 23:25:17 0.7 C 37 %
1006 24-01-2020 23:35:18 0.7 C 37 %
1007 24-01-2020 23:45:17 0.7 C 37 %
1008 24-01-2020 23:55:17 0.7 C 37 %
1009 25-01-2020 00:05:18 0.6 C 37 %
1010 25-01-2020 00:15:17 0.6 C 37 %
1011 25-01-2020 00:25:17 0.7 C 38 %
1012 25-01-2020 00:35:17 0.6 C 38 %
1013 25-01-2020 00:45:17 0.6 C 38 %
1014 25-01-2020 00:55:17 0.6 C 39 %
1015 25-01-2020 01:05:17 0.7 C 39 %
1016 25-01-2020 01:15:17 0.6 C 39 %
1017 25-01-2020 01:25:17 0.7 C 40 %
1018 25-01-2020 01:35:18 0.7 C 40 %
1019 25-01-2020 01:45:17 0.6 C 40 %
1020 25-01-2020 01:55:17 0.6 C 40 %
1021 25-01-2020 02:05:17 0.6 C 40 %
1022 25-01-2020 02:15:18 0.5 C 40 %
1023 25-01-2020 02:25:18 0.5 C 40 %
1024 25-01-2020 02:35:17 0.6 C 40 %
1025 25-01-2020 02:45:17 0.6 C 40 %
Sensor: Nr:Datum:Temp:Feuchte:
Aussen-T/F 1026 25-01-2020 02:55:18 0.6 C 40 %
1027 25-01-2020 03:05:17 0.6 C 40 %
1028 25-01-2020 03:15:17 0.5 C 40 %
1029 25-01-2020 03:25:17 0.5 C 40 %
1030 25-01-2020 03:35:17 0.5 C 40 %
1031 25-01-2020 03:45:18 0.5 C 40 %
1032 25-01-2020 03:55:18 0.4 C 40 %
1033 25-01-2020 04:05:18 0.4 C 40 %
1034 25-01-2020 04:15:17 0.4 C 40 %
1035 25-01-2020 04:25:18 0.4 C 40 %
1036 25-01-2020 04:35:17 0.3 C 40 %
1037 25-01-2020 04:45:17 0.4 C 40 %
1038 25-01-2020 04:55:17 0.4 C 40 %
1039 25-01-2020 05:05:18 0.4 C 40 %
1040 25-01-2020 05:15:18 0.4 C 40 %
1041 25-01-2020 05:25:18 0.4 C 40 %
1042 25-01-2020 05:35:17 0.3 C 40 %
1043 25-01-2020 05:45:17 0.3 C 39 %
1044 25-01-2020 05:55:17 0.3 C 40 %
1045 25-01-2020 06:05:17 0.3 C 40 %
1046 25-01-2020 06:15:18 0.4 C 40 %
1047 25-01-2020 06:25:18 0.3 C 40 %
1048 25-01-2020 06:35:17 0.3 C 40 %
1049 25-01-2020 06:45:17 0.4 C 40 %
1050 25-01-2020 06:55:17 0.4 C 40 %
Sensor: Nr:Datum:Temp:Feuchte:
Aussen-T/F 1051 25-01-2020 07:05:18 0.4 C 40 %
1052 25-01-2020 07:15:17 0.5 C 40 %
1053 25-01-2020 07:25:17 0.5 C 40 %
1054 25-01-2020 07:35:17 0.5 C 41 %
1055 25-01-2020 07:45:18 0.5 C 41 %
1056 25-01-2020 07:55:18 0.4 C 41 %
1057 25-01-2020 08:05:17 0.5 C 42 %
1058 25-01-2020 08:15:17 0.5 C 42 %
1059 25-01-2020 08:25:17 0.6 C 42 %
1060 25-01-2020 08:35:18 0.6 C 42 %
1061 25-01-2020 08:45:17 0.6 C 42 %
1062 25-01-2020 08:55:17 0.8 C 42 %
1063 25-01-2020 09:05:18 0.8 C 41 %
1064 25-01-2020 09:15:17 0.9 C 41 %
1065 25-01-2020 09:25:18 1.1 C 40 %
1066 25-01-2020 09:35:17 1.2 C 40 %
1067 25-01-2020 09:45:18 1.2 C 40 %
1068 25-01-2020 09:55:18 1.2 C 41 %
1069 25-01-2020 10:05:18 1.5 C 41 %
1070 25-01-2020 10:15:18 1.6 C 41 %
1071 25-01-2020 10:25:18 1.7 C 41 %
1072 25-01-2020 10:35:17 1.9 C 40 %
1073 25-01-2020 10:45:17 2.1 C 40 %
1074 25-01-2020 10:55:17 2.2 C 38 %
1075 25-01-2020 11:05:17 2.4 C 39 %
Sensor: Nr:Datum:Temp:Feuchte:
Aussen-T/F 1076 25-01-2020 11:15:17 2.5 C 38 %
1077 25-01-2020 11:25:18 2.4 C 39 %
1078 25-01-2020 11:35:18 2.9 C 38 %
1079 25-01-2020 11:45:17 2.8 C 37 %
1080 25-01-2020 11:55:17 3 C 37 %
1081 25-01-2020 12:05:18 3.3 C 36 %
1082 25-01-2020 12:15:18 3.4 C 35 %
1083 25-01-2020 12:25:18 3.6 C 35 %
1084 25-01-2020 12:35:18 3.7 C 35 %
1085 25-01-2020 12:45:18 3.7 C 35 %
1086 25-01-2020 12:55:18 3.7 C 35 %
1087 25-01-2020 13:05:17 3.5 C 35 %
1088 25-01-2020 13:15:17 3.5 C 35 %
1089 25-01-2020 13:25:17 3.4 C 36 %
1090 25-01-2020 13:35:17 3.6 C 36 %
1091 25-01-2020 13:45:17 3.8 C 35 %
1092 25-01-2020 13:55:17 3.9 C 35 %
1093 25-01-2020 14:05:18 4.2 C 34 %
1094 25-01-2020 14:15:18 4.2 C 34 %
1095 25-01-2020 14:25:18 4.1 C 35 %
1096 25-01-2020 14:35:18 4.2 C 34 %
1097 25-01-2020 14:45:17 4.4 C 34 %
1098 25-01-2020 14:55:18 4.5 C 34 %
1099 25-01-2020 15:05:18 4.5 C 34 %
1100 25-01-2020 15:15:18 4.4 C 34 %
Sensor: Nr:Datum:Temp:Feuchte:
Aussen-T/F 1101 25-01-2020 15:25:18 4.3 C 34 %
1102 25-01-2020 15:35:17 4.2 C 34 %
1103 25-01-2020 15:45:18 4.1 C 35 %
1104 25-01-2020 15:55:18 4.2 C 35 %
1105 25-01-2020 16:05:18 4.2 C 35 %
1106 25-01-2020 16:15:17 4.1 C 35 %
1107 25-01-2020 16:25:17 4.1 C 35 %
1108 25-01-2020 16:35:17 3.9 C 36 %
1109 25-01-2020 16:45:17 3.9 C 37 %
1110 25-01-2020 16:55:17 3.8 C 37 %
1111 25-01-2020 17:05:17 3.7 C 37 %
1112 25-01-2020 17:15:17 3.6 C 38 %
1113 25-01-2020 17:25:17 3.6 C 38 %
1114 25-01-2020 17:35:17 3.6 C 39 %
1115 25-01-2020 17:45:17 3.9 C 39 %
1116 25-01-2020 17:55:17 3.5 C 39 %
1117 25-01-2020 18:05:18 3.4 C 39 %
1118 25-01-2020 18:15:17 3.4 C 39 %
1119 25-01-2020 18:25:17 3.3 C 40 %
1120 25-01-2020 18:35:17 3.3 C 40 %
1121 25-01-2020 18:45:17 3.2 C 40 %
1122 25-01-2020 18:55:17 3.2 C 40 %
1123 25-01-2020 19:05:18 3.2 C 40 %
1124 25-01-2020 19:15:17 3.2 C 40 %
1125 25-01-2020 19:25:17 3.2 C 40 %
Sensor: Nr:Datum:Temp:Feuchte:
Aussen-T/F 1126 25-01-2020 19:35:17 3.2 C 40 %
1127 25-01-2020 19:45:17 3.2 C 40 %
1128 25-01-2020 19:55:17 3.1 C 41 %
1129 25-01-2020 20:05:18 3.1 C 41 %
1130 25-01-2020 20:15:18 3 C 41 %
1131 25-01-2020 20:25:18 3 C 42 %
1132 25-01-2020 20:35:17 2.9 C 43 %
1133 25-01-2020 20:45:17 2.8 C 43 %
1134 25-01-2020 20:55:17 2.6 C 42 %
1135 25-01-2020 21:05:17 2.5 C 41 %
1136 25-01-2020 21:15:18 2.5 C 41 %
1137 25-01-2020 21:25:18 2.3 C 41 %
1138 25-01-2020 21:35:18 2.2 C 41 %
1139 25-01-2020 21:45:17 2.1 C 42 %
1140 25-01-2020 21:55:18 1.9 C 43 %
1141 25-01-2020 22:05:18 1.8 C 43 %
1142 25-01-2020 22:15:18 1.7 C 43 %
1143 25-01-2020 22:25:18 1.6 C 42 %
1144 25-01-2020 22:35:17 1.5 C 43 %
1145 25-01-2020 22:45:17 1.5 C 43 %
1146 25-01-2020 22:55:17 1.4 C 43 %
1147 25-01-2020 23:05:17 1.4 C 43 %
1148 25-01-2020 23:15:17 1.3 C 43 %
1149 25-01-2020 23:25:17 1.1 C 43 %
1150 25-01-2020 23:35:17 1.1 C 43 %
Sensor: Nr:Datum:Temp:Feuchte:
Aussen-T/F 1151 25-01-2020 23:45:17 1.1 C 43 %
1152 25-01-2020 23:55:17 1 C 43 %
1153 26-01-2020 00:05:18 1 C 44 %
1154 26-01-2020 00:15:18 1.1 C 44 %
1155 26-01-2020 00:25:18 1 C 43 %
1156 26-01-2020 00:35:18 1 C 44 %
1157 26-01-2020 00:45:17 1 C 44 %
1158 26-01-2020 00:55:18 1 C 43 %
1159 26-01-2020 01:05:17 0.8 C 44 %
1160 26-01-2020 01:15:17 0.7 C 44 %
1161 26-01-2020 01:25:17 0.7 C 44 %
1162 26-01-2020 01:35:17 0.7 C 45 %
1163 26-01-2020 01:45:18 0.8 C 45 %
1164 26-01-2020 01:55:18 0.8 C 45 %
1165 26-01-2020 02:05:18 0.8 C 45 %
1166 26-01-2020 02:15:17 0.8 C 45 %
1167 26-01-2020 02:25:17 0.8 C 45 %
1168 26-01-2020 02:35:17 0.8 C 44 %
1169 26-01-2020 02:45:17 0.7 C 44 %
1170 26-01-2020 02:55:17 0.8 C 44 %
1171 26-01-2020 03:05:17 0.7 C 44 %
1172 26-01-2020 03:15:17 0.7 C 44 %
1173 26-01-2020 03:25:17 0.6 C 44 %
1174 26-01-2020 03:35:17 0.7 C 45 %
1175 26-01-2020 03:45:17 0.6 C 45 %
Sensor: Nr:Datum:Temp:Feuchte:
Aussen-T/F 1176 26-01-2020 03:55:17 0.6 C 45 %
1177 26-01-2020 04:05:17 0.6 C 45 %
1178 26-01-2020 04:15:17 0.6 C 45 %
1179 26-01-2020 04:25:17 0.7 C 45 %
1180 26-01-2020 04:35:18 0.7 C 45 %
1181 26-01-2020 04:45:18 0.7 C 44 %
1182 26-01-2020 04:55:18 0.7 C 44 %
1183 26-01-2020 05:05:18 0.7 C 44 %
1184 26-01-2020 05:15:18 0.6 C 43 %
1185 26-01-2020 05:25:18 0.7 C 43 %
1186 26-01-2020 05:35:18 0.6 C 43 %
1187 26-01-2020 05:45:18 0.6 C 43 %
1188 26-01-2020 05:55:18 0.6 C 43 %
1189 26-01-2020 06:05:18 0.6 C 44 %
1190 26-01-2020 06:15:17 0.5 C 44 %
1191 26-01-2020 06:25:17 0.6 C 44 %
1192 26-01-2020 06:35:17 0.6 C 44 %
1193 26-01-2020 06:45:18 0.6 C 44 %
1194 26-01-2020 06:55:18 0.6 C 44 %
1195 26-01-2020 07:05:17 0.7 C 45 %
1196 26-01-2020 07:15:17 0.7 C 44 %
1197 26-01-2020 07:25:17 0.7 C 44 %
1198 26-01-2020 07:35:18 0.7 C 45 %
1199 26-01-2020 07:45:17 0.7 C 45 %
1200 26-01-2020 07:55:18 0.7 C 45 %
Sensor: Nr:Datum:Temp:Feuchte:
Aussen-T/F 1201 26-01-2020 08:05:18 0.7 C 45 %
1202 26-01-2020 08:15:18 0.6 C 45 %
1203 26-01-2020 08:25:18 0.6 C 45 %
1204 26-01-2020 08:35:18 0.6 C 45 %
1205 26-01-2020 08:45:17 0.7 C 45 %
1206 26-01-2020 08:55:17 0.7 C 45 %
1207 26-01-2020 09:05:18 0.9 C 45 %
1208 26-01-2020 09:15:18 0.9 C 44 %
1209 26-01-2020 09:25:18 1 C 42 %
1210 26-01-2020 09:35:18 1 C 41 %
1211 26-01-2020 09:45:17 1 C 40 %
1212 26-01-2020 09:55:17 0.8 C 41 %
1213 26-01-2020 10:05:18 0.7 C 41 %
1214 26-01-2020 10:15:18 0.9 C 42 %
1215 26-01-2020 10:25:18 1.1 C 40 %
1216 26-01-2020 10:35:18 1.6 C 40 %
1217 26-01-2020 10:45:18 1.9 C 38 %
1218 26-01-2020 10:55:18 2.1 C 37 %
1219 26-01-2020 11:05:18 2.2 C 37 %
1220 26-01-2020 11:15:18 2.3 C 37 %
1221 26-01-2020 11:25:18 2.4 C 37 %
1222 26-01-2020 11:35:18 2.3 C 37 %
1223 26-01-2020 11:45:17 2.4 C 38 %
1224 26-01-2020 11:55:18 2.9 C 38 %
1225 26-01-2020 12:05:18 4.2 C 34 %
Sensor: Nr:Datum:Temp:Feuchte:
Aussen-T/F 1226 26-01-2020 12:15:18 4.9 C 32 %
1227 26-01-2020 12:25:18 4 C 32 %
1228 26-01-2020 12:35:18 3.8 C 35 %
1229 26-01-2020 12:45:17 3.8 C 36 %
1230 26-01-2020 12:55:17 3.9 C 37 %
1231 26-01-2020 13:05:18 3.9 C 37 %
1232 26-01-2020 13:15:18 4 C 36 %
1233 26-01-2020 13:25:18 4.2 C 36 %
1234 26-01-2020 13:35:18 4.4 C 36 %
1235 26-01-2020 13:45:17 4.5 C 37 %
1236 26-01-2020 13:55:17 4.5 C 37 %
1237 26-01-2020 14:05:18 4.6 C 38 %
1238 26-01-2020 14:15:17 4.7 C 37 %
1239 26-01-2020 14:25:17 4.7 C 37 %
1240 26-01-2020 14:35:17 4.8 C 37 %
1241 26-01-2020 14:45:18 4.8 C 37 %
1242 26-01-2020 14:55:18 5.7 C 35 %
1243 26-01-2020 15:05:18 6.6 C 33 %
1244 26-01-2020 15:15:18 6.3 C 32 %
1245 26-01-2020 15:25:18 6 C 33 %
1246 26-01-2020 15:35:18 5.5 C 35 %
1247 26-01-2020 15:45:17 4.9 C 36 %
1248 26-01-2020 15:55:17 4.7 C 38 %
1249 26-01-2020 16:05:18 4.6 C 38 %
1250 26-01-2020 16:15:18 4.2 C 39 %
Sensor: Nr:Datum:Temp:Feuchte:
Aussen-T/F 1251 26-01-2020 16:25:18 4 C 39 %
1252 26-01-2020 16:35:18 3.7 C 41 %
1253 26-01-2020 16:45:18 3.7 C 41 %
1254 26-01-2020 16:55:18 4.1 C 38 %
1255 26-01-2020 17:05:18 3.6 C 39 %
1256 26-01-2020 17:15:18 3.5 C 39 %
1257 26-01-2020 17:25:18 3.3 C 40 %
1258 26-01-2020 17:35:17 3.5 C 40 %
1259 26-01-2020 17:45:17 3.8 C 39 %
1260 26-01-2020 17:55:17 3.8 C 39 %
1261 26-01-2020 18:05:17 3.8 C 38 %
1262 26-01-2020 18:15:18 3.8 C 38 %
1263 26-01-2020 18:25:18 3.9 C 38 %
1264 26-01-2020 18:35:18 3.8 C 38 %
1265 26-01-2020 18:45:17 3.5 C 39 %
1266 26-01-2020 18:55:17 3.4 C 39 %
1267 26-01-2020 19:05:17 3.3 C 40 %
1268 26-01-2020 19:15:17 3.1 C 40 %
1269 26-01-2020 19:25:18 3 C 41 %
1270 26-01-2020 19:35:18 3.2 C 41 %
1271 26-01-2020 19:45:17 3.2 C 40 %
1272 26-01-2020 19:55:18 3 C 40 %
1273 26-01-2020 20:05:18 3 C 42 %
1274 26-01-2020 20:15:18 2.9 C 42 %
1275 26-01-2020 20:25:18 3 C 42 %
Sensor: Nr:Datum:Temp:Feuchte:
Aussen-T/F 1276 26-01-2020 20:35:18 2.9 C 43 %
1277 26-01-2020 20:45:18 2.7 C 43 %
1278 26-01-2020 20:55:18 2.4 C 44 %
1279 26-01-2020 21:05:17 2.2 C 43 %
1280 26-01-2020 21:15:17 2 C 45 %
1281 26-01-2020 21:25:17 2.1 C 45 %
1282 26-01-2020 21:35:17 2.2 C 45 %
1283 26-01-2020 21:45:17 1.9 C 46 %
1284 26-01-2020 21:55:17 1.5 C 45 %
1285 26-01-2020 22:05:17 1.4 C 46 %
1286 26-01-2020 22:15:17 0.9 C 47 %
1287 26-01-2020 22:25:17 0.6 C 46 %
1288 26-01-2020 22:35:18 0.3 C 46 %
1289 26-01-2020 22:45:17 0.3 C 46 %
1290 26-01-2020 22:55:18 0.3 C 46 %
1291 26-01-2020 23:05:18 0.9 C 48 %
1292 26-01-2020 23:15:18 0.2 C 47 %
1293 26-01-2020 23:25:18 1.4 C 46 %
1294 26-01-2020 23:35:17 1.4 C 46 %
1295 26-01-2020 23:45:17 1.5 C 46 %
1296 26-01-2020 23:55:17 1.6 C 46 %
1297 27-01-2020 00:05:17 2 C 45 %
1298 27-01-2020 00:15:17 1.9 C 46 %
1299 27-01-2020 00:25:17 1.9 C 46 %
1300 27-01-2020 00:35:17 1.8 C 46 %
Sensor: Nr:Datum:Temp:Feuchte:
Aussen-T/F 1301 27-01-2020 00:45:18 1.7 C 46 %
1302 27-01-2020 00:55:18 1.6 C 45 %
1303 27-01-2020 01:05:17 1.6 C 45 %
1304 27-01-2020 01:15:17 1.5 C 45 %
1305 27-01-2020 01:25:17 1.2 C 45 %
1306 27-01-2020 01:35:17 0.8 C 46 %
1307 27-01-2020 01:45:17 0.8 C 46 %
1308 27-01-2020 01:55:17 0.5 C 46 %
1309 27-01-2020 02:05:17 1 C 45 %
1310 27-01-2020 02:15:17 1.6 C 46 %
1311 27-01-2020 02:25:17 1.9 C 46 %
1312 27-01-2020 02:35:18 2 C 45 %
1313 27-01-2020 02:45:18 2.1 C 45 %
1314 27-01-2020 02:55:18 2.3 C 45 %
1315 27-01-2020 03:05:18 2.3 C 45 %
1316 27-01-2020 03:15:17 2.4 C 45 %
1317 27-01-2020 03:25:17 2.6 C 45 %
1318 27-01-2020 03:35:17 2.4 C 45 %
1319 27-01-2020 03:45:17 2 C 44 %
1320 27-01-2020 03:55:17 2.4 C 44 %
1321 27-01-2020 04:05:17 3 C 44 %
1322 27-01-2020 04:15:17 3 C 43 %
1323 27-01-2020 04:25:17 3.5 C 44 %
1324 27-01-2020 04:35:17 3.5 C 44 %
1325 27-01-2020 04:45:18 3.6 C 44 %
Sensor: Nr:Datum:Temp:Feuchte:
Aussen-T/F 1326 27-01-2020 04:55:18 3.7 C 44 %
1327 27-01-2020 05:05:18 3.6 C 44 %
1328 27-01-2020 05:15:17 4 C 43 %
1329 27-01-2020 05:25:17 4 C 43 %
1330 27-01-2020 05:35:18 4 C 43 %
1331 27-01-2020 05:45:17 4 C 43 %
1332 27-01-2020 05:55:17 4.2 C 43 %
1333 27-01-2020 06:05:18 4.3 C 43 %
1334 27-01-2020 06:15:18 4.8 C 43 %
1335 27-01-2020 06:25:18 5.1 C 42 %
1336 27-01-2020 06:35:17 5.4 C 42 %
1337 27-01-2020 06:45:17 5.9 C 42 %
1338 27-01-2020 06:55:17 6.1 C 41 %
1339 27-01-2020 07:05:17 5.9 C 41 %
1340 27-01-2020 07:15:18 5.9 C 41 %
1341 27-01-2020 07:25:18 5.9 C 42 %
1342 27-01-2020 07:35:18 5.8 C 42 %
1343 27-01-2020 07:45:18 5.7 C 42 %
1344 27-01-2020 07:55:18 5.6 C 42 %
1345 27-01-2020 08:05:18 5.5 C 42 %
1346 27-01-2020 08:15:17 5.5 C 42 %
1347 27-01-2020 08:25:17 5.7 C 43 %
1348 27-01-2020 08:35:17 5.8 C 43 %
1349 27-01-2020 08:45:17 5.8 C 43 %
1350 27-01-2020 08:55:17 5.9 C 41 %
Sensor: Nr:Datum:Temp:Feuchte:
Aussen-T/F 1351 27-01-2020 09:05:17 6 C 40 %
1352 27-01-2020 09:15:17 6.4 C 40 %
1353 27-01-2020 09:25:17 6.8 C 37 %
1354 27-01-2020 09:35:18 6.7 C 37 %
1355 27-01-2020 09:45:17 7.1 C 36 %
1356 27-01-2020 09:55:17 7.6 C 34 %
1357 27-01-2020 10:05:18 7.9 C 32 %
1358 27-01-2020 10:15:18 8 C 32 %
1359 27-01-2020 10:25:18 8 C 32 %
1360 27-01-2020 10:35:17 8 C 32 %
1361 27-01-2020 10:45:18 8 C 32 %
1362 27-01-2020 10:55:18 8 C 32 %
1363 27-01-2020 11:05:17 7.9 C 33 %
1364 27-01-2020 11:15:17 7.8 C 33 %
1365 27-01-2020 11:25:17 7.8 C 34 %
1366 27-01-2020 11:35:17 7.9 C 33 %
1367 27-01-2020 11:45:18 7.8 C 33 %
1368 27-01-2020 11:55:18 7.9 C 34 %
1369 27-01-2020 12:05:17 8 C 32 %
1370 27-01-2020 12:15:17 8.4 C 32 %
1371 27-01-2020 12:25:17 8.6 C 32 %
1372 27-01-2020 12:35:17 8.7 C 31 %
1373 27-01-2020 12:45:17 9 C 31 %
1374 27-01-2020 12:55:17 9 C 30 %
1375 27-01-2020 13:05:18 9 C 30 %
Sensor: Nr:Datum:Temp:Feuchte:
Aussen-T/F 1376 27-01-2020 13:15:17 8.7 C 31 %
1377 27-01-2020 13:25:17 7.9 C 32 %
1378 27-01-2020 13:35:17 7.4 C 34 %
1379 27-01-2020 13:45:17 7.3 C 35 %
1380 27-01-2020 13:55:17 7.1 C 36 %
1381 27-01-2020 14:05:18 7.2 C 36 %
1382 27-01-2020 14:15:17 7.1 C 36 %
1383 27-01-2020 14:25:17 7.1 C 38 %
1384 27-01-2020 14:35:17 7 C 36 %
1385 27-01-2020 14:45:17 7 C 37 %
1386 27-01-2020 14:55:17 7 C 38 %
1387 27-01-2020 15:05:18 6.9 C 38 %
1388 27-01-2020 15:15:17 6.8 C 40 %
1389 27-01-2020 15:25:17 6.8 C 37 %
1390 27-01-2020 15:35:17 6.9 C 37 %
1391 27-01-2020 15:45:17 6.7 C 37 %
1392 27-01-2020 15:55:17 6.7 C 37 %
1393 27-01-2020 16:05:17 6.6 C 38 %
1394 27-01-2020 16:15:18 6.5 C 40 %
1395 27-01-2020 16:25:18 6.5 C 40 %
1396 27-01-2020 16:35:18 6.4 C 40 %
1397 27-01-2020 16:45:17 6.4 C 39 %
1398 27-01-2020 16:55:17 6.3 C 40 %
1399 27-01-2020 17:05:17 6.3 C 39 %
1400 27-01-2020 17:15:17 6.4 C 39 %
Sensor: Nr:Datum:Temp:Feuchte:
Aussen-T/F 1401 27-01-2020 17:25:17 6.6 C 37 %
1402 27-01-2020 17:35:17 6.3 C 38 %
1403 27-01-2020 17:45:17 6.2 C 39 %
1404 27-01-2020 17:55:17 6.5 C 37 %
1405 27-01-2020 18:05:17 6.4 C 37 %
1406 27-01-2020 18:15:17 6.5 C 37 %
1407 27-01-2020 18:25:18 6.4 C 37 %
1408 27-01-2020 18:35:18 6.4 C 37 %
1409 27-01-2020 18:45:17 6.6 C 36 %
1410 27-01-2020 18:55:17 6.4 C 36 %
1411 27-01-2020 19:05:18 6.3 C 36 %
1412 27-01-2020 19:15:17 6.2 C 37 %
1413 27-01-2020 19:25:17 6.1 C 39 %
1414 27-01-2020 19:35:17 6.1 C 40 %
1415 27-01-2020 19:45:18 6.1 C 40 %
1416 27-01-2020 19:55:18 5.9 C 42 %
1417 27-01-2020 20:05:18 5.9 C 43 %
1418 27-01-2020 20:15:18 5.8 C 42 %
1419 27-01-2020 20:25:18 5.9 C 40 %
1420 27-01-2020 20:35:18 5.6 C 41 %
1421 27-01-2020 20:45:18 5.4 C 42 %
1422 27-01-2020 20:55:18 5.4 C 43 %
1423 27-01-2020 21:05:18 5.4 C 43 %
1424 27-01-2020 21:15:18 5.4 C 43 %
1425 27-01-2020 21:25:18 5.3 C 42 %
Sensor: Nr:Datum:Temp:Feuchte:
Aussen-T/F 1426 27-01-2020 21:35:18 5.4 C 43 %
1427 27-01-2020 21:45:18 5.4 C 43 %
1428 27-01-2020 21:55:18 5.3 C 42 %
1429 27-01-2020 22:05:17 5.3 C 43 %
1430 27-01-2020 22:15:17 5.3 C 43 %
1431 27-01-2020 22:25:17 5.3 C 43 %
1432 27-01-2020 22:35:17 5.5 C 42 %
1433 27-01-2020 22:45:17 5.5 C 41 %
1434 27-01-2020 22:55:17 5.6 C 40 %
1435 27-01-2020 23:05:17 5.6 C 40 %
1436 27-01-2020 23:15:17 5.6 C 41 %
1437 27-01-2020 23:25:17 5.7 C 41 %
1438 27-01-2020 23:35:17 5.5 C 40 %
1439 27-01-2020 23:45:17 5.7 C 40 %
1440 27-01-2020 23:55:17 5.8 C 39 %
1441 28-01-2020 00:05:18 5.9 C 38 %
1442 28-01-2020 00:15:17 6 C 37 %
1443 28-01-2020 00:25:18 6 C 37 %
1444 28-01-2020 00:35:18 6 C 37 %
1445 28-01-2020 00:45:17 6.3 C 36 %
1446 28-01-2020 00:55:18 6.7 C 36 %
1447 28-01-2020 01:05:18 6.7 C 35 %
1448 28-01-2020 01:15:17 6.8 C 35 %
1449 28-01-2020 01:25:17 6.8 C 35 %
1450 28-01-2020 01:35:17 6.9 C 35 %
Sensor: Nr:Datum:Temp:Feuchte:
Aussen-T/F 1451 28-01-2020 01:45:17 6.8 C 35 %
1452 28-01-2020 01:55:17 7 C 35 %
1453 28-01-2020 02:05:18 6.8 C 35 %
1454 28-01-2020 02:15:18 7 C 34 %
1455 28-01-2020 02:25:18 7.4 C 33 %
1456 28-01-2020 02:35:17 7 C 33 %
1457 28-01-2020 02:45:17 6.8 C 35 %
1458 28-01-2020 02:55:17 7.4 C 33 %
1459 28-01-2020 03:05:17 7.4 C 33 %
1460 28-01-2020 03:15:17 7.6 C 32 %
1461 28-01-2020 03:25:18 7.6 C 31 %
1462 28-01-2020 03:35:18 7.6 C 31 %
1463 28-01-2020 03:45:18 6.8 C 33 %
1464 28-01-2020 03:55:18 6.4 C 36 %
1465 28-01-2020 04:05:18 5.8 C 39 %
1466 28-01-2020 04:15:17 5.6 C 38 %
1467 28-01-2020 04:25:17 5.6 C 38 %
1468 28-01-2020 04:35:17 5.6 C 39 %
1469 28-01-2020 04:45:18 5.4 C 41 %
1470 28-01-2020 04:55:18 5.6 C 38 %
1471 28-01-2020 05:05:18 5.8 C 38 %
1472 28-01-2020 05:15:18 6.1 C 35 %
1473 28-01-2020 05:25:18 6.1 C 35 %
1474 28-01-2020 05:35:18 5.5 C 37 %
1475 28-01-2020 05:45:17 5.7 C 38 %
Sensor: Nr:Datum:Temp:Feuchte:
Aussen-T/F 1476 28-01-2020 05:55:17 6 C 35 %
1477 28-01-2020 06:05:18 6.3 C 34 %
1478 28-01-2020 06:15:17 6 C 36 %
1479 28-01-2020 06:25:17 5.6 C 37 %
1480 28-01-2020 06:35:17 5.3 C 38 %
1481 28-01-2020 06:45:18 4.9 C 38 %
1482 28-01-2020 06:55:18 4.6 C 38 %
1483 28-01-2020 07:05:18 4.2 C 41 %
1484 28-01-2020 07:15:18 4.2 C 40 %
1485 28-01-2020 07:25:18 4 C 42 %
1486 28-01-2020 07:35:17 4.1 C 44 %
1487 28-01-2020 07:45:18 4.7 C 38 %
1488 28-01-2020 07:55:18 4.2 C 38 %
1489 28-01-2020 08:05:18 4.5 C 38 %
1490 28-01-2020 08:15:17 4.2 C 40 %
1491 28-01-2020 08:25:17 4.1 C 37 %
1492 28-01-2020 08:35:17 4.1 C 39 %
1493 28-01-2020 08:45:17 4.2 C 38 %
1494 28-01-2020 08:55:17 4.3 C 40 %
1495 28-01-2020 09:05:17 4.3 C 40 %
1496 28-01-2020 09:15:17 4.2 C 41 %
1497 28-01-2020 09:25:17 4.1 C 38 %
1498 28-01-2020 09:35:18 3.8 C 39 %
1499 28-01-2020 09:45:17 4 C 36 %
1500 28-01-2020 09:55:17 4.2 C 35 %
Sensor: Nr:Datum:Temp:Feuchte:
Aussen-T/F 1501 28-01-2020 10:05:18 4.1 C 36 %
1502 28-01-2020 10:15:17 4.3 C 35 %
1503 28-01-2020 10:25:17 4.4 C 35 %
1504 28-01-2020 10:35:17 4.7 C 33 %
1505 28-01-2020 10:45:17 4.7 C 33 %
1506 28-01-2020 10:55:17 4.9 C 33 %
1507 28-01-2020 11:05:17 5.1 C 32 %
1508 28-01-2020 11:15:17 4.7 C 33 %
1509 28-01-2020 11:25:17 5.1 C 32 %
1510 28-01-2020 11:35:17 5.2 C 31 %
1511 28-01-2020 11:45:17 5.5 C 31 %
1512 28-01-2020 11:55:17 5.3 C 31 %
1513 28-01-2020 12:05:17 5.6 C 31 %
1514 28-01-2020 12:15:18 6 C 27 %
1515 28-01-2020 12:25:18 6.3 C 25 %
1516 28-01-2020 12:35:17 6.2 C 25 %
1517 28-01-2020 12:45:18 6.4 C 25 %
1518 28-01-2020 12:55:18 6.5 C 23 %
1519 28-01-2020 13:05:17 6.4 C 20 %
1520 28-01-2020 13:15:17 6.4 C 23 %
1521 28-01-2020 13:25:17 6.6 C 21 %
1522 28-01-2020 13:35:17 6.4 C 20 %
1523 28-01-2020 13:45:17 6.2 C 20 %
1524 28-01-2020 13:55:17 6.1 C 23 %
1525 28-01-2020 14:05:17 6.2 C 23 %
Sensor: Nr:Datum:Temp:Feuchte:
Aussen-T/F 1526 28-01-2020 14:15:17 6 C 23 %
1527 28-01-2020 14:25:17 6.1 C 20 %
1528 28-01-2020 14:35:18 6.1 C 20 %
1529 28-01-2020 14:45:17 5.9 C 23 %
1530 28-01-2020 14:55:18 5.9 C 20 %
1531 28-01-2020 15:05:18 6.6 C 20 %
1532 28-01-2020 15:15:17 6.5 C 20 %
1533 28-01-2020 15:25:17 6.4 C 20 %
1534 28-01-2020 15:35:18 5.6 C 21 %
1535 28-01-2020 15:45:17 5.7 C 20 %
1536 28-01-2020 15:55:17 5.2 C 21 %
1537 28-01-2020 16:05:18 5.1 C 23 %
1538 28-01-2020 16:15:18 5 C 21 %
1539 28-01-2020 16:25:18 4.9 C 20 %
1540 28-01-2020 16:35:17 4.8 C 20 %
1541 28-01-2020 16:45:18 4.6 C 20 %
1542 28-01-2020 16:55:18 4.3 C 20 %
1543 28-01-2020 17:05:17 4.2 C 20 %
1544 28-01-2020 17:15:17 4.2 C 20 %
1545 28-01-2020 17:25:17 3.9 C 23 %
1546 28-01-2020 17:35:17 4.3 C 21 %
1547 28-01-2020 17:45:17 4.1 C 21 %
1548 28-01-2020 17:55:17 4 C 21 %
1549 28-01-2020 18:05:17 3.8 C 23 %
1550 28-01-2020 18:15:18 3.5 C 25 %
Sensor: Nr:Datum:Temp:Feuchte:
Aussen-T/F 1551 28-01-2020 18:25:18 3.5 C 26 %
1552 28-01-2020 18:35:18 3.3 C 27 %
1553 28-01-2020 18:45:17 3.8 C 26 %
1554 28-01-2020 18:55:18 3.7 C 26 %
1555 28-01-2020 19:05:18 3.7 C 26 %
1556 28-01-2020 19:15:17 3.9 C 25 %
1557 28-01-2020 19:25:17 4 C 23 %
1558 28-01-2020 19:35:17 4 C 23 %
1559 28-01-2020 19:45:17 3.8 C 25 %
1560 28-01-2020 19:55:17 3.4 C 26 %
1561 28-01-2020 20:05:17 3.5 C 26 %
1562 28-01-2020 20:15:18 3.7 C 26 %
1563 28-01-2020 20:25:18 4 C 26 %
1564 28-01-2020 20:35:18 4 C 26 %
1565 28-01-2020 20:45:18 3.8 C 27 %
1566 28-01-2020 20:55:18 3.8 C 27 %
1567 28-01-2020 21:05:18 3.7 C 27 %
1568 28-01-2020 21:15:18 3.5 C 28 %
1569 28-01-2020 21:25:18 3.3 C 28 %
1570 28-01-2020 21:35:18 3.4 C 28 %
1571 28-01-2020 21:45:17 3.4 C 28 %
1572 28-01-2020 21:55:18 3.2 C 30 %
1573 28-01-2020 22:05:18 3.5 C 30 %
1574 28-01-2020 22:15:18 3.5 C 30 %
1575 28-01-2020 22:25:18 3.6 C 30 %
Sensor: Nr:Datum:Temp:Feuchte:
Aussen-T/F 1576 28-01-2020 22:35:17 3.6 C 30 %
1577 28-01-2020 22:45:18 3.3 C 30 %
1578 28-01-2020 22:55:18 3.6 C 30 %
1579 28-01-2020 23:05:18 3.5 C 31 %
1580 28-01-2020 23:15:18 3.6 C 31 %
1581 28-01-2020 23:25:18 3.6 C 31 %
1582 28-01-2020 23:35:18 3.9 C 30 %
1583 28-01-2020 23:45:18 4.2 C 29 %
1584 28-01-2020 23:55:18 4.2 C 29 %
1585 29-01-2020 00:05:18 3.7 C 31 %
1586 29-01-2020 00:15:18 3.6 C 31 %
1587 29-01-2020 00:25:18 3.9 C 31 %
1588 29-01-2020 00:35:18 4 C 30 %
1589 29-01-2020 00:45:17 3.5 C 32 %
1590 29-01-2020 00:55:17 3.2 C 35 %
1591 29-01-2020 01:05:17 2.9 C 37 %
1592 29-01-2020 01:15:17 2.9 C 36 %
1593 29-01-2020 01:25:17 3 C 35 %
1594 29-01-2020 01:35:18 3.2 C 35 %
1595 29-01-2020 01:45:17 3.2 C 35 %
1596 29-01-2020 01:55:17 3.3 C 34 %
1597 29-01-2020 02:05:18 3.2 C 34 %
1598 29-01-2020 02:15:17 3.2 C 35 %
1599 29-01-2020 02:25:17 3 C 36 %
1600 29-01-2020 02:35:17 2.6 C 39 %
Sensor: Nr:Datum:Temp:Feuchte:
Aussen-T/F 1601 29-01-2020 02:45:17 2.8 C 39 %
1602 29-01-2020 02:55:17 2.9 C 38 %
1603 29-01-2020 03:05:17 2.8 C 39 %
1604 29-01-2020 03:15:17 2.9 C 38 %
1605 29-01-2020 03:25:17 3.1 C 36 %
1606 29-01-2020 03:35:18 2.9 C 37 %
1607 29-01-2020 03:45:17 2.9 C 37 %
1608 29-01-2020 03:55:18 2.7 C 38 %
1609 29-01-2020 04:05:18 2.7 C 40 %
1610 29-01-2020 04:15:18 2.6 C 40 %
1611 29-01-2020 04:25:18 2.8 C 37 %
1612 29-01-2020 04:35:17 3.1 C 35 %
1613 29-01-2020 04:45:18 3.3 C 34 %
1614 29-01-2020 04:55:18 3.2 C 34 %
1615 29-01-2020 05:05:17 3.3 C 33 %
1616 29-01-2020 05:15:17 3.4 C 33 %
1617 29-01-2020 05:25:17 3.5 C 33 %
1618 29-01-2020 05:35:17 3.5 C 33 %
1619 29-01-2020 05:45:17 3.4 C 33 %
1620 29-01-2020 05:55:17 3.4 C 33 %
1621 29-01-2020 06:05:17 3.3 C 33 %
1622 29-01-2020 06:15:17 3.3 C 33 %
1623 29-01-2020 06:25:18 3.2 C 33 %
1624 29-01-2020 06:35:17 3.2 C 33 %
1625 29-01-2020 06:45:17 3.3 C 33 %
Sensor: Nr:Datum:Temp:Feuchte:
Aussen-T/F 1626 29-01-2020 06:55:17 2.8 C 35 %
1627 29-01-2020 07:05:17 3.6 C 33 %
1628 29-01-2020 07:15:17 3.5 C 33 %
1629 29-01-2020 07:25:18 3.8 C 32 %
1630 29-01-2020 07:35:18 3.7 C 32 %
1631 29-01-2020 07:45:18 3.5 C 32 %
1632 29-01-2020 07:55:18 3.6 C 32 %
1633 29-01-2020 08:05:18 3.6 C 32 %
1634 29-01-2020 08:15:18 3.6 C 32 %
1635 29-01-2020 08:25:18 3.6 C 32 %
1636 29-01-2020 08:35:18 4 C 30 %
1637 29-01-2020 08:45:17 4.1 C 30 %
1638 29-01-2020 08:55:18 4.1 C 30 %
1639 29-01-2020 09:05:18 4.1 C 30 %
1640 29-01-2020 09:15:17 4.1 C 30 %
1641 29-01-2020 09:25:17 4.2 C 30 %
1642 29-01-2020 09:35:17 4 C 30 %
1643 29-01-2020 09:45:17 3.6 C 32 %
1644 29-01-2020 09:55:17 3.7 C 33 %
1645 29-01-2020 10:05:18 4.1 C 31 %
1646 29-01-2020 10:15:17 4.2 C 30 %
1647 29-01-2020 10:25:17 4.3 C 30 %
1648 29-01-2020 10:35:17 4.3 C 30 %
1649 29-01-2020 10:45:17 4.5 C 30 %
1650 29-01-2020 10:55:17 4.7 C 30 %
Sensor: Nr:Datum:Temp:Feuchte:
Aussen-T/F 1651 29-01-2020 11:05:17 4.6 C 30 %
1652 29-01-2020 11:15:18 4.9 C 30 %
1653 29-01-2020 11:25:18 4.9 C 30 %
1654 29-01-2020 11:35:17 5.3 C 30 %
1655 29-01-2020 11:45:18 5.6 C 29 %
1656 29-01-2020 11:55:18 6.4 C 28 %
1657 29-01-2020 12:05:17 6.4 C 27 %
1658 29-01-2020 12:15:17 6 C 27 %
1659 29-01-2020 12:25:17 6.6 C 26 %
1660 29-01-2020 12:35:18 6.5 C 25 %
1661 29-01-2020 12:45:17 6.7 C 25 %
1662 29-01-2020 12:55:17 6.6 C 20 %
1663 29-01-2020 13:05:17 6.8 C 20 %
1664 29-01-2020 13:15:17 6.9 C 20 %
1665 29-01-2020 13:25:17 6.8 C 20 %
1666 29-01-2020 13:35:18 7.3 C 20 %
1667 29-01-2020 13:45:18 7.4 C 20 %
1668 29-01-2020 13:55:18 7.4 C 20 %
1669 29-01-2020 14:05:17 7.4 C 20 %
1670 29-01-2020 14:15:17 7.5 C 20 %
1671 29-01-2020 14:25:17 7 C 20 %
1672 29-01-2020 14:35:18 6.9 C 20 %
1673 29-01-2020 14:45:17 7.1 C 20 %
1674 29-01-2020 14:55:17 6.9 C 20 %
1675 29-01-2020 15:05:17 6.9 C 20 %
Sensor: Nr:Datum:Temp:Feuchte:
Aussen-T/F 1676 29-01-2020 15:15:18 6.7 C 20 %
1677 29-01-2020 15:25:18 6.9 C 20 %
1678 29-01-2020 15:35:17 6.8 C 20 %
1679 29-01-2020 15:45:17 6.9 C 20 %
1680 29-01-2020 15:55:17 6.9 C 20 %
1681 29-01-2020 16:05:17 6.7 C 20 %
1682 29-01-2020 16:15:18 6.9 C 20 %
1683 29-01-2020 16:25:18 6.9 C 20 %
1684 29-01-2020 16:35:17 7.2 C 20 %
1685 29-01-2020 16:45:18 6.9 C 20 %
1686 29-01-2020 16:55:18 6.6 C 20 %
1687 29-01-2020 17:05:17 6.3 C 20 %
1688 29-01-2020 17:15:17 5.9 C 20 %
1689 29-01-2020 17:25:18 5.2 C 20 %
1690 29-01-2020 17:35:18 4.5 C 20 %
1691 29-01-2020 17:45:18 4.4 C 20 %
1692 29-01-2020 17:55:18 4.3 C 20 %
1693 29-01-2020 18:05:18 3.8 C 21 %
1694 29-01-2020 18:15:17 4.1 C 20 %
1695 29-01-2020 18:25:17 3.3 C 26 %
1696 29-01-2020 18:35:18 3.1 C 28 %
1697 29-01-2020 18:45:17 3.6 C 26 %
1698 29-01-2020 18:55:18 3.1 C 27 %
1699 29-01-2020 19:05:18 2.3 C 30 %
1700 29-01-2020 19:15:17 2.3 C 31 %
Sensor: Nr:Datum:Temp:Feuchte:
Aussen-T/F 1701 29-01-2020 19:25:17 2.6 C 30 %
1702 29-01-2020 19:35:17 2.4 C 30 %
1703 29-01-2020 19:45:18 2.7 C 30 %
1704 29-01-2020 19:55:18 1.8 C 33 %
1705 29-01-2020 20:05:18 1.3 C 35 %
1706 29-01-2020 20:15:17 2.3 C 34 %
1707 29-01-2020 20:25:17 1.9 C 36 %
1708 29-01-2020 20:35:18 1.8 C 35 %
1709 29-01-2020 20:45:17 2.4 C 35 %
1710 29-01-2020 20:55:18 2.4 C 35 %
1711 29-01-2020 21:05:18 2.6 C 35 %
1712 29-01-2020 21:15:18 2.1 C 36 %
1713 29-01-2020 21:25:18 2.2 C 35 %
1714 29-01-2020 21:35:18 2.6 C 35 %
1715 29-01-2020 21:45:18 2.4 C 35 %
1716 29-01-2020 21:55:18 2.2 C 36 %
1717 29-01-2020 22:05:18 1.9 C 39 %
1718 29-01-2020 22:15:17 2.6 C 38 %
1719 29-01-2020 22:25:17 3.4 C 35 %
1720 29-01-2020 22:35:17 3.8 C 35 %
1721 29-01-2020 22:45:18 3.9 C 35 %
1722 29-01-2020 22:55:18 4.4 C 33 %
1723 29-01-2020 23:05:17 4.6 C 32 %
1724 29-01-2020 23:15:17 4.6 C 33 %
1725 29-01-2020 23:25:17 4.6 C 32 %
Sensor: Nr:Datum:Temp:Feuchte:
Aussen-T/F 1726 29-01-2020 23:35:18 4.8 C 32 %
1727 29-01-2020 23:45:18 4.9 C 32 %
1728 29-01-2020 23:55:18 5.1 C 31 %
1729 30-01-2020 00:05:17 5.1 C 31 %
1730 30-01-2020 00:15:17 5.2 C 31 %
1731 30-01-2020 00:25:17 5.2 C 31 %
1732 30-01-2020 00:35:17 5.1 C 31 %
1733 30-01-2020 00:45:17 5.3 C 31 %
1734 30-01-2020 00:55:17 5.4 C 31 %
1735 30-01-2020 01:05:17 5.6 C 31 %
1736 30-01-2020 01:15:17 5.5 C 31 %
1737 30-01-2020 01:25:18 5.8 C 31 %
1738 30-01-2020 01:35:18 5.7 C 31 %
1739 30-01-2020 01:45:17 5.7 C 31 %
1740 30-01-2020 01:55:18 5.8 C 30 %
1741 30-01-2020 02:05:18 5.7 C 31 %
1742 30-01-2020 02:15:18 5.8 C 31 %
1743 30-01-2020 02:25:18 5.6 C 31 %
1744 30-01-2020 02:35:17 5.6 C 31 %
1745 30-01-2020 02:45:17 5.3 C 31 %
1746 30-01-2020 02:55:17 5.1 C 32 %
1747 30-01-2020 03:05:17 5.4 C 32 %
1748 30-01-2020 03:15:17 5.4 C 32 %
1749 30-01-2020 03:25:17 5.8 C 31 %
1750 30-01-2020 03:35:18 5.9 C 31 %
Sensor: Nr:Datum:Temp:Feuchte:
Aussen-T/F 1751 30-01-2020 03:45:17 6 C 30 %
1752 30-01-2020 03:55:17 6 C 30 %
1753 30-01-2020 04:05:18 6 C 31 %
1754 30-01-2020 04:15:17 5.3 C 31 %
1755 30-01-2020 04:25:17 5.5 C 31 %
1756 30-01-2020 04:35:18 5.5 C 31 %
1757 30-01-2020 04:45:18 5 C 32 %
1758 30-01-2020 04:55:18 4.7 C 33 %
1759 30-01-2020 05:05:18 5 C 33 %
1760 30-01-2020 05:15:17 4.8 C 34 %
1761 30-01-2020 05:25:17 5.1 C 32 %
1762 30-01-2020 05:35:17 5 C 33 %
1763 30-01-2020 05:45:17 4.8 C 33 %
1764 30-01-2020 05:55:17 5.1 C 32 %
1765 30-01-2020 06:05:18 4.9 C 33 %
1766 30-01-2020 06:15:17 5.1 C 32 %
1767 30-01-2020 06:25:17 5 C 32 %
1768 30-01-2020 06:35:17 5 C 32 %
1769 30-01-2020 06:45:17 4.9 C 32 %
1770 30-01-2020 06:55:17 5 C 31 %
1771 30-01-2020 07:05:17 4.9 C 32 %
1772 30-01-2020 07:15:17 5.2 C 31 %
1773 30-01-2020 07:25:17 5.3 C 31 %
1774 30-01-2020 07:35:17 4.8 C 32 %
1775 30-01-2020 07:45:17 4.4 C 32 %
Sensor: Nr:Datum:Temp:Feuchte:
Aussen-T/F 1776 30-01-2020 07:55:17 4.4 C 33 %
1777 30-01-2020 08:05:18 4.5 C 33 %
1778 30-01-2020 08:15:17 4.3 C 34 %
1779 30-01-2020 08:25:17 4.3 C 35 %
1780 30-01-2020 08:35:18 4.5 C 35 %
1781 30-01-2020 08:45:17 5 C 33 %
1782 30-01-2020 08:55:18 5.2 C 32 %
1783 30-01-2020 09:05:18 5.4 C 32 %
1784 30-01-2020 09:15:17 5.4 C 32 %
1785 30-01-2020 09:25:17 5.3 C 32 %
1786 30-01-2020 09:35:17 5.6 C 32 %
1787 30-01-2020 09:45:17 5.5 C 32 %
1788 30-01-2020 09:55:17 6.3 C 30 %
1789 30-01-2020 10:05:17 6.4 C 30 %
1790 30-01-2020 10:15:17 6.7 C 30 %
1791 30-01-2020 10:25:17 7 C 29 %
1792 30-01-2020 10:35:17 6.8 C 30 %
1793 30-01-2020 10:45:17 6.8 C 30 %
1794 30-01-2020 10:55:17 7 C 30 %
1795 30-01-2020 11:05:18 7.1 C 30 %
1796 30-01-2020 11:15:17 7.4 C 30 %
1797 30-01-2020 11:25:17 7.5 C 30 %
1798 30-01-2020 11:35:17 7.9 C 30 %
1799 30-01-2020 11:45:17 8.2 C 29 %
1800 30-01-2020 11:55:17 8.1 C 29 %
Sensor: Nr:Datum:Temp:Feuchte:
Aussen-T/F 1801 30-01-2020 12:05:17 8.1 C 29 %
1802 30-01-2020 12:15:17 8 C 29 %
1803 30-01-2020 12:25:17 8.1 C 29 %
1804 30-01-2020 12:35:17 8.6 C 29 %
1805 30-01-2020 12:45:17 8.8 C 28 %
1806 30-01-2020 12:55:17 8.9 C 28 %
1807 30-01-2020 13:05:17 9.2 C 27 %
1808 30-01-2020 13:15:17 9.4 C 26 %
1809 30-01-2020 13:25:17 9.7 C 25 %
1810 30-01-2020 13:35:18 9.7 C 25 %
1811 30-01-2020 13:45:18 10 C 23 %
1812 30-01-2020 13:55:18 10.3 C 23 %
1813 30-01-2020 14:05:17 10.5 C 23 %
1814 30-01-2020 14:15:17 10.6 C 22 %
1815 30-01-2020 14:25:17 10.5 C 20 %
1816 30-01-2020 14:35:17 10.5 C 20 %
1817 30-01-2020 14:45:17 10.7 C 20 %
1818 30-01-2020 14:55:17 10.9 C 20 %
1819 30-01-2020 15:05:17 10.8 C 20 %
1820 30-01-2020 15:15:17 10.6 C 20 %
1821 30-01-2020 15:25:17 10.5 C 20 %
1822 30-01-2020 15:35:17 10.6 C 20 %
1823 30-01-2020 15:45:17 10.3 C 20 %
1824 30-01-2020 15:55:17 10.2 C 20 %
1825 30-01-2020 16:05:17 10 C 20 %
Sensor: Nr:Datum:Temp:Feuchte:
Aussen-T/F 1826 30-01-2020 16:15:18 9.4 C 21 %
1827 30-01-2020 16:25:18 9.1 C 21 %
1828 30-01-2020 16:35:18 9.1 C 23 %
1829 30-01-2020 16:45:18 8.9 C 25 %
1830 30-01-2020 16:55:18 8.6 C 25 %
1831 30-01-2020 17:05:18 9.1 C 25 %
1832 30-01-2020 17:15:17 8.9 C 26 %
1833 30-01-2020 17:25:17 8.9 C 26 %
1834 30-01-2020 17:35:18 9 C 26 %
1835 30-01-2020 17:45:18 9 C 26 %
1836 30-01-2020 17:55:18 9.1 C 26 %
1837 30-01-2020 18:05:18 9.2 C 26 %
1838 30-01-2020 18:15:17 9.1 C 26 %
1839 30-01-2020 18:25:17 9.1 C 27 %
1840 30-01-2020 18:35:17 9.1 C 27 %
1841 30-01-2020 18:45:17 9 C 28 %
1842 30-01-2020 18:55:17 8.3 C 31 %
1843 30-01-2020 19:05:17 8.2 C 34 %
1844 30-01-2020 19:15:17 8 C 35 %
1845 30-01-2020 19:25:17 8.2 C 35 %
1846 30-01-2020 19:35:18 8.5 C 35 %
1847 30-01-2020 19:45:18 8.9 C 33 %
1848 30-01-2020 19:55:18 9 C 32 %
1849 30-01-2020 20:05:18 9.2 C 32 %
1850 30-01-2020 20:15:17 9.2 C 32 %
Sensor: Nr:Datum:Temp:Feuchte:
Aussen-T/F 1851 30-01-2020 20:25:17 9.2 C 32 %
1852 30-01-2020 20:35:17 9.3 C 32 %
1853 30-01-2020 20:45:17 9.3 C 32 %
1854 30-01-2020 20:55:17 9.6 C 32 %
1855 30-01-2020 21:05:17 9.6 C 32 %
1856 30-01-2020 21:15:17 9.6 C 32 %
1857 30-01-2020 21:25:17 9.6 C 32 %
1858 30-01-2020 21:35:17 9.8 C 32 %
1859 30-01-2020 21:45:17 9.8 C 32 %
1860 30-01-2020 21:55:17 10 C 32 %
1861 30-01-2020 22:05:17 10.1 C 32 %
1862 30-01-2020 22:15:17 10.2 C 32 %
1863 30-01-2020 22:25:17 10.2 C 32 %
1864 30-01-2020 22:35:18 10.1 C 32 %
1865 30-01-2020 22:45:17 10.1 C 32 %
1866 30-01-2020 22:55:17 10.4 C 32 %
1867 30-01-2020 23:05:17 10.4 C 32 %
1868 30-01-2020 23:15:17 10.5 C 33 %
1869 30-01-2020 23:25:17 10.7 C 33 %
1870 30-01-2020 23:35:18 10.8 C 33 %
1871 30-01-2020 23:45:18 11.1 C 32 %
1872 30-01-2020 23:55:18 11 C 32 %
1873 31-01-2020 00:05:17 11.2 C 32 %
1874 31-01-2020 00:15:17 11.6 C 32 %
1875 31-01-2020 00:25:17 11.5 C 32 %
Sensor: Nr:Datum:Temp:Feuchte:
Aussen-T/F 1876 31-01-2020 00:35:17 11.7 C 32 %
1877 31-01-2020 00:45:17 11.9 C 32 %
1878 31-01-2020 00:55:17 12 C 31 %
1879 31-01-2020 01:05:17 12.1 C 31 %
1880 31-01-2020 01:15:17 12.2 C 31 %
1881 31-01-2020 01:25:17 12.6 C 31 %
1882 31-01-2020 01:35:18 12.8 C 31 %
1883 31-01-2020 01:45:17 12.9 C 31 %
1884 31-01-2020 01:55:18 12.8 C 31 %
1885 31-01-2020 02:05:18 13 C 30 %
1886 31-01-2020 02:15:17 13.1 C 30 %
1887 31-01-2020 02:25:17 12.9 C 31 %
1888 31-01-2020 02:35:17 13.1 C 30 %
1889 31-01-2020 02:45:18 12.9 C 30 %
1890 31-01-2020 02:55:18 12.8 C 30 %
1891 31-01-2020 03:05:18 13 C 30 %
1892 31-01-2020 03:15:17 13 C 30 %
1893 31-01-2020 03:25:17 12.9 C 31 %
1894 31-01-2020 03:35:17 12.9 C 31 %
1895 31-01-2020 03:45:17 12.9 C 31 %
1896 31-01-2020 03:55:17 12.8 C 31 %
1897 31-01-2020 04:05:17 12.9 C 31 %
1898 31-01-2020 04:15:17 12.8 C 31 %
1899 31-01-2020 04:25:17 12.7 C 31 %
1900 31-01-2020 04:35:17 12.8 C 31 %
Sensor: Nr:Datum:Temp:Feuchte:
Aussen-T/F 1901 31-01-2020 04:45:17 12.7 C 31 %
1902 31-01-2020 04:55:17 12.7 C 31 %
1903 31-01-2020 05:05:18 12.8 C 31 %
1904 31-01-2020 05:15:17 12.7 C 31 %
1905 31-01-2020 05:25:17 12.6 C 31 %
1906 31-01-2020 05:35:17 12.7 C 31 %
1907 31-01-2020 05:45:18 12.7 C 31 %
1908 31-01-2020 05:55:18 12.5 C 31 %
1909 31-01-2020 06:05:17 12.7 C 30 %
1910 31-01-2020 06:15:17 12.8 C 30 %
1911 31-01-2020 06:25:17 12.4 C 30 %
1912 31-01-2020 06:35:18 12.4 C 31 %
1913 31-01-2020 06:45:17 12.3 C 31 %
1914 31-01-2020 06:55:17 12.4 C 31 %
1915 31-01-2020 07:05:18 12.3 C 31 %
1916 31-01-2020 07:15:18 12.2 C 31 %
1917 31-01-2020 07:25:18 12.1 C 31 %
1918 31-01-2020 07:35:17 12.3 C 31 %
1919 31-01-2020 07:45:18 12.4 C 30 %
1920 31-01-2020 07:55:18 12.5 C 30 %
1921 31-01-2020 08:05:18 12.3 C 30 %
1922 31-01-2020 08:15:17 12.4 C 30 %
1923 31-01-2020 08:25:17 12.5 C 30 %
1924 31-01-2020 08:35:17 12.5 C 30 %
1925 31-01-2020 08:45:17 12.7 C 30 %
Sensor: Nr:Datum:Temp:Feuchte:
Aussen-T/F 1926 31-01-2020 08:55:17 12.7 C 30 %
1927 31-01-2020 09:05:18 12.8 C 30 %
1928 31-01-2020 09:15:18 12.9 C 29 %
1929 31-01-2020 09:25:18 13 C 28 %
1930 31-01-2020 09:35:17 13.1 C 28 %
1931 31-01-2020 09:45:17 13.2 C 28 %
1932 31-01-2020 09:55:17 13.3 C 27 %
1933 31-01-2020 10:05:17 13.2 C 27 %
1934 31-01-2020 10:15:17 13.3 C 27 %
1935 31-01-2020 10:25:17 13.5 C 27 %
1936 31-01-2020 10:35:18 13.5 C 27 %
1937 31-01-2020 10:45:18 13.4 C 27 %
1938 31-01-2020 10:55:18 13.5 C 26 %
1939 31-01-2020 11:05:17 13.7 C 26 %
1940 31-01-2020 11:15:18 13.7 C 26 %
1941 31-01-2020 11:25:18 13.8 C 26 %
1942 31-01-2020 11:35:18 13.8 C 26 %
1943 31-01-2020 11:45:18 13.8 C 26 %
1944 31-01-2020 11:55:18 13.6 C 25 %
1945 31-01-2020 12:05:17 13.4 C 25 %
1946 31-01-2020 12:15:17 13.5 C 25 %
1947 31-01-2020 12:25:17 13.5 C 25 %
1948 31-01-2020 12:35:17 13.7 C 25 %
1949 31-01-2020 12:45:17 14.1 C 25 %
1950 31-01-2020 12:55:17 14.2 C 25 %
Sensor: Nr:Datum:Temp:Feuchte:
Aussen-T/F 1951 31-01-2020 13:05:17 14.4 C 25 %
1952 31-01-2020 13:15:18 14.4 C 24 %
1953 31-01-2020 13:25:18 14.6 C 23 %
1954 31-01-2020 13:35:17 14.8 C 23 %
1955 31-01-2020 13:45:17 14.7 C 23 %
1956 31-01-2020 13:55:17 14.4 C 23 %
1957 31-01-2020 14:05:18 14.6 C 23 %
1958 31-01-2020 14:15:18 14.4 C 23 %
1959 31-01-2020 14:25:18 14.3 C 23 %
1960 31-01-2020 14:35:17 14.3 C 23 %
1961 31-01-2020 14:45:17 14.2 C 24 %
1962 31-01-2020 14:55:17 14.2 C 24 %
1963 31-01-2020 15:05:17 13.8 C 25 %
1964 31-01-2020 15:15:18 13.7 C 25 %
1965 31-01-2020 15:25:18 13.7 C 25 %
1966 31-01-2020 15:35:18 13.6 C 25 %
1967 31-01-2020 15:45:18 13.4 C 25 %
1968 31-01-2020 15:55:18 13.2 C 25 %
1969 31-01-2020 16:05:17 13 C 25 %
1970 31-01-2020 16:15:17 12.9 C 26 %
1971 31-01-2020 16:25:17 12.9 C 25 %
1972 31-01-2020 16:35:17 12.7 C 26 %
1973 31-01-2020 16:45:17 12.3 C 26 %
1974 31-01-2020 16:55:17 12.8 C 26 %
1975 31-01-2020 17:05:18 12.5 C 26 %
Sensor: Nr:Datum:Temp:Feuchte:
Aussen-T/F 1976 31-01-2020 17:15:18 12.3 C 26 %
1977 31-01-2020 17:25:18 12 C 26 %
1978 31-01-2020 17:35:18 12.1 C 26 %
1979 31-01-2020 17:45:18 12.1 C 26 %
1980 31-01-2020 17:55:18 11.7 C 27 %
1981 31-01-2020 18:05:17 12.1 C 26 %
1982 31-01-2020 18:15:17 12 C 26 %
1983 31-01-2020 18:25:17 12 C 27 %
1984 31-01-2020 18:35:17 12.2 C 27 %
1985 31-01-2020 18:45:17 12.4 C 27 %
1986 31-01-2020 18:55:17 12.4 C 27 %
1987 31-01-2020 19:05:17 12.5 C 27 %
1988 31-01-2020 19:15:17 12.4 C 27 %
1989 31-01-2020 19:25:17 12.6 C 27 %
1990 31-01-2020 19:35:18 12.6 C 27 %
1991 31-01-2020 19:45:17 12.6 C 27 %
1992 31-01-2020 19:55:17 12.5 C 27 %
1993 31-01-2020 20:05:18 12.4 C 27 %
1994 31-01-2020 20:15:18 12.4 C 28 %
1995 31-01-2020 20:25:18 12.4 C 28 %
1996 31-01-2020 20:35:18 12.2 C 27 %
1997 31-01-2020 20:45:17 12.4 C 27 %
1998 31-01-2020 20:55:18 12 C 28 %
1999 31-01-2020 21:05:18 12.1 C 28 %
2000 31-01-2020 21:16:17 12.1 C 28 %
Sensor: Nr:Datum:Temp:Feuchte:
Aussen-T/F 2001 31-01-2020 21:26:17 12.2 C 29 %
2002 31-01-2020 21:35:17 12.5 C 28 %
2003 31-01-2020 21:46:17 12.5 C 28 %
2004 31-01-2020 21:55:17 12.5 C 28 %
2005 31-01-2020 22:06:17 12.7 C 28 %
2006 31-01-2020 22:16:17 12.8 C 27 %
2007 31-01-2020 22:26:17 12.7 C 27 %
2008 31-01-2020 22:35:17 12.7 C 27 %
2009 31-01-2020 22:45:18 12.6 C 27 %
2010 31-01-2020 22:55:18 12.6 C 27 %
2011 31-01-2020 23:05:17 12.6 C 27 %
2012 31-01-2020 23:15:17 12.6 C 27 %
2013 31-01-2020 23:25:17 12.6 C 27 %
2014 31-01-2020 23:35:18 12.5 C 27 %
2015 31-01-2020 23:45:18 12.6 C 27 %
2016 31-01-2020 23:55:18 12.5 C 27 %
2017 01-02-2020 00:06:17 12.6 C 27 %
2018 01-02-2020 00:16:17 12.6 C 28 %
2019 01-02-2020 00:26:17 12.6 C 28 %
2020 01-02-2020 00:35:17 12.5 C 28 %
2021 01-02-2020 00:45:17 12.4 C 28 %
2022 01-02-2020 00:55:17 12.4 C 28 %
2023 01-02-2020 01:05:18 12.3 C 28 %
2024 01-02-2020 01:16:17 12.3 C 28 %
2025 01-02-2020 01:26:17 12.3 C 28 %
Sensor: Nr:Datum:Temp:Feuchte:
Aussen-T/F 2026 01-02-2020 01:36:17 12.3 C 27 %
2027 01-02-2020 01:45:18 12.1 C 27 %
2028 01-02-2020 01:55:18 12.1 C 27 %
2029 01-02-2020 02:06:17 12 C 27 %
2030 01-02-2020 02:15:17 11.6 C 28 %
2031 01-02-2020 02:25:17 11.8 C 28 %
2032 01-02-2020 02:35:18 11.3 C 29 %
2033 01-02-2020 02:46:17 11.2 C 29 %
2034 01-02-2020 02:56:17 11.6 C 28 %
2035 01-02-2020 03:06:17 11.3 C 28 %
2036 01-02-2020 03:16:18 11.8 C 28 %
2037 01-02-2020 03:26:18 11.8 C 28 %
2038 01-02-2020 03:36:17 12.1 C 27 %
2039 01-02-2020 03:46:17 12.2 C 27 %
2040 01-02-2020 03:56:17 12.3 C 27 %
2041 01-02-2020 04:06:18 12 C 27 %
2042 01-02-2020 04:16:18 11.7 C 28 %
2043 01-02-2020 04:26:18 11.8 C 29 %
2044 01-02-2020 04:36:17 11.7 C 29 %
2045 01-02-2020 04:46:17 11.6 C 29 %
2046 01-02-2020 04:56:17 11.7 C 29 %
2047 01-02-2020 05:06:18 11.6 C 29 %
2048 01-02-2020 05:16:18 11.7 C 29 %
2049 01-02-2020 05:26:18 11.5 C 29 %
2050 01-02-2020 05:36:18 11.6 C 29 %
Sensor: Nr:Datum:Temp:Feuchte:
Aussen-T/F 2051 01-02-2020 05:46:18 11.5 C 30 %
2052 01-02-2020 05:56:19 11.9 C 30 %
2053 01-02-2020 06:06:18 12 C 28 %
2054 01-02-2020 06:16:17 11.8 C 30 %
2055 01-02-2020 06:26:17 11.7 C 30 %
2056 01-02-2020 06:36:17 11.4 C 30 %
2057 01-02-2020 06:46:17 11.8 C 30 %
2058 01-02-2020 06:56:17 11.9 C 30 %
2059 01-02-2020 07:06:17 11.8 C 30 %
2060 01-02-2020 07:16:18 11.9 C 30 %
2061 01-02-2020 07:26:18 12.2 C 30 %
2062 01-02-2020 07:36:18 12.1 C 30 %
2063 01-02-2020 07:46:17 12.2 C 30 %
2064 01-02-2020 07:56:17 12.1 C 30 %
2065 01-02-2020 08:06:18 11.4 C 34 %
2066 01-02-2020 08:16:18 11.1 C 36 %
2067 01-02-2020 08:26:18 10.9 C 39 %
2068 01-02-2020 08:36:18 10.9 C 39 %
2069 01-02-2020 08:46:17 10.9 C 39 %
2070 01-02-2020 08:56:17 11.2 C 37 %
2071 01-02-2020 09:06:18 11.1 C 37 %
2072 01-02-2020 09:16:17 11.4 C 36 %
2073 01-02-2020 09:26:17 11.6 C 35 %
2074 01-02-2020 09:36:17 11.5 C 36 %
2075 01-02-2020 09:46:17 11.7 C 36 %
Sensor: Nr:Datum:Temp:Feuchte:
Aussen-T/F 2076 01-02-2020 09:56:17 11.7 C 36 %
2077 01-02-2020 10:06:17 11.8 C 35 %
2078 01-02-2020 10:16:17 12.3 C 33 %
2079 01-02-2020 10:26:17 12.2 C 34 %
2080 01-02-2020 10:36:17 12.2 C 34 %
2081 01-02-2020 10:46:17 12.1 C 35 %
2082 01-02-2020 10:56:17 12 C 35 %
2083 01-02-2020 11:06:17 12 C 35 %
2084 01-02-2020 11:16:17 12 C 35 %
2085 01-02-2020 11:26:17 12 C 35 %
2086 01-02-2020 11:36:17 12 C 35 %
2087 01-02-2020 11:46:17 12.1 C 35 %
2088 01-02-2020 11:56:17 11.9 C 36 %
2089 01-02-2020 12:06:17 12 C 35 %
2090 01-02-2020 12:16:16 11.9 C 36 %
2091 01-02-2020 12:26:16 12 C 35 %
2092 01-02-2020 12:36:16 12 C 35 %
2093 01-02-2020 12:46:17 12 C 35 %
2094 01-02-2020 12:56:17 12 C 35 %
2095 01-02-2020 13:06:17 12.2 C 35 %
2096 01-02-2020 13:16:17 12.1 C 35 %
2097 01-02-2020 13:26:17 12 C 36 %
2098 01-02-2020 13:36:17 11.9 C 36 %
2099 01-02-2020 13:46:17 11.8 C 37 %
2100 01-02-2020 13:56:17 11.7 C 39 %
Sensor: Nr:Datum:Temp:Feuchte:
Aussen-T/F 2101 01-02-2020 14:06:17 11.6 C 40 %
2102 01-02-2020 14:16:17 11.5 C 40 %
2103 01-02-2020 14:26:17 11.4 C 40 %
2104 01-02-2020 14:36:16 11.3 C 37 %
2105 01-02-2020 14:46:17 10.9 C 36 %
2106 01-02-2020 14:56:17 10.6 C 36 %
2107 01-02-2020 15:06:17 10.6 C 38 %
2108 01-02-2020 15:16:17 10.5 C 39 %
2109 01-02-2020 15:26:17 10.3 C 38 %
2110 01-02-2020 15:36:17 10.7 C 36 %
2111 01-02-2020 15:46:17 11.7 C 32 %
2112 01-02-2020 15:56:17 11.2 C 35 %
2113 01-02-2020 16:06:17 11.1 C 34 %
2114 01-02-2020 16:16:16 11.1 C 33 %
2115 01-02-2020 16:26:16 11.2 C 32 %
2116 01-02-2020 16:36:16 10.9 C 35 %
2117 01-02-2020 16:46:16 10.8 C 35 %
2118 01-02-2020 16:56:16 11 C 33 %
2119 01-02-2020 17:06:16 11.1 C 33 %
2120 01-02-2020 17:16:16 10.9 C 34 %
2121 01-02-2020 17:26:16 10.9 C 34 %
2122 01-02-2020 17:36:17 11 C 32 %
2123 01-02-2020 17:46:16 11.4 C 31 %
2124 01-02-2020 17:56:16 11.5 C 30 %
2125 01-02-2020 18:06:17 11.3 C 30 %
Sensor: Nr:Datum:Temp:Feuchte:
Aussen-T/F 2126 01-02-2020 18:16:17 11.1 C 31 %
2127 01-02-2020 18:26:18 11.5 C 30 %
2128 01-02-2020 18:36:17 11.5 C 30 %
2129 01-02-2020 18:46:17 11.2 C 31 %
2130 01-02-2020 18:56:17 11.2 C 31 %
2131 01-02-2020 19:06:17 11.3 C 31 %
2132 01-02-2020 19:16:17 10.7 C 33 %
2133 01-02-2020 19:26:17 10.5 C 33 %
2134 01-02-2020 19:36:16 10 C 38 %
2135 01-02-2020 19:46:17 9.8 C 40 %
2136 01-02-2020 19:56:17 10.4 C 36 %
2137 01-02-2020 20:06:16 10.6 C 34 %
2138 01-02-2020 20:16:17 10.7 C 32 %
2139 01-02-2020 20:26:18 10.1 C 33 %
2140 01-02-2020 20:36:17 9.9 C 34 %
2141 01-02-2020 20:46:17 9.4 C 35 %
2142 01-02-2020 20:56:17 8.6 C 35 %
2143 01-02-2020 21:06:17 8.5 C 34 %
2144 01-02-2020 21:16:16 9.4 C 30 %
2145 01-02-2020 21:26:16 9.5 C 30 %
2146 01-02-2020 21:36:16 9.4 C 30 %
2147 01-02-2020 21:46:16 9.4 C 30 %
2148 01-02-2020 21:56:16 9.4 C 28 %
2149 01-02-2020 22:06:16 9.4 C 28 %
2150 01-02-2020 22:16:16 8.9 C 29 %
Sensor: Nr:Datum:Temp:Feuchte:
Aussen-T/F 2151 01-02-2020 22:26:16 8.9 C 29 %
2152 01-02-2020 22:36:17 8.9 C 28 %
2153 01-02-2020 22:46:16 8.6 C 29 %
2154 01-02-2020 22:56:16 8.6 C 28 %
2155 01-02-2020 23:06:17 8.1 C 28 %
2156 01-02-2020 23:16:17 8.3 C 28 %
2157 01-02-2020 23:26:17 8 C 28 %
2158 01-02-2020 23:36:16 8 C 28 %
2159 01-02-2020 23:46:16 7.6 C 30 %
2160 01-02-2020 23:56:16 7.7 C 30 %
2161 02-02-2020 00:06:16 8 C 28 %
2162 02-02-2020 00:16:16 7.6 C 28 %
2163 02-02-2020 00:26:16 7.9 C 28 %
2164 02-02-2020 00:36:16 7.6 C 28 %
2165 02-02-2020 00:46:16 7.7 C 28 %
2166 02-02-2020 00:56:16 7.8 C 28 %
2167 02-02-2020 01:06:17 7.8 C 28 %
2168 02-02-2020 01:16:16 7.9 C 28 %
2169 02-02-2020 01:26:16 7.9 C 28 %
2170 02-02-2020 01:36:16 8 C 28 %
2171 02-02-2020 01:46:16 7.8 C 28 %
2172 02-02-2020 01:56:16 7.9 C 28 %
2173 02-02-2020 02:06:17 7.8 C 28 %
2174 02-02-2020 02:16:15 7.7 C 28 %
2175 02-02-2020 02:26:15 7.9 C 28 %
Sensor: Nr:Datum:Temp:Feuchte:
Aussen-T/F 2176 02-02-2020 02:36:16 7.9 C 28 %
2177 02-02-2020 02:46:17 7.9 C 28 %
2178 02-02-2020 02:56:17 7.9 C 28 %
2179 02-02-2020 03:06:17 8 C 28 %
2180 02-02-2020 03:16:17 7.9 C 28 %
2181 02-02-2020 03:26:17 7.8 C 28 %
2182 02-02-2020 03:36:18 7.8 C 28 %
2183 02-02-2020 03:46:18 7.8 C 27 %
2184 02-02-2020 03:56:18 7.7 C 28 %
2185 02-02-2020 04:06:18 7.6 C 28 %
2186 02-02-2020 04:16:17 7.6 C 28 %
2187 02-02-2020 04:26:17 7.3 C 28 %
2188 02-02-2020 04:36:17 7.2 C 28 %
2189 02-02-2020 04:46:18 7 C 28 %
2190 02-02-2020 04:56:18 7.1 C 28 %
2191 02-02-2020 05:06:17 7 C 28 %
2192 02-02-2020 05:16:17 7.1 C 28 %
2193 02-02-2020 05:26:17 6.9 C 30 %
2194 02-02-2020 05:36:18 6.8 C 30 %
2195 02-02-2020 05:46:17 6.9 C 30 %
2196 02-02-2020 05:56:17 6.8 C 30 %
2197 02-02-2020 06:06:18 6.9 C 30 %
2198 02-02-2020 06:16:17 6.7 C 31 %
2199 02-02-2020 06:26:17 6.8 C 30 %
2200 02-02-2020 06:36:17 6.7 C 31 %
Sensor: Nr:Datum:Temp:Feuchte:
Aussen-T/F 2201 02-02-2020 06:46:18 6.6 C 32 %
2202 02-02-2020 06:56:18 6.5 C 32 %
2203 02-02-2020 07:06:18 6.2 C 36 %
2204 02-02-2020 07:16:17 6 C 40 %
2205 02-02-2020 07:26:17 6 C 42 %
2206 02-02-2020 07:36:17 6.1 C 44 %
2207 02-02-2020 07:46:17 6.1 C 44 %
2208 02-02-2020 07:56:17 6.3 C 44 %
2209 02-02-2020 08:06:18 6.2 C 44 %
2210 02-02-2020 08:16:17 6.2 C 44 %
2211 02-02-2020 08:26:17 6.2 C 44 %
2212 02-02-2020 08:36:17 6.2 C 44 %
2213 02-02-2020 08:46:17 6.3 C 44 %
2214 02-02-2020 08:56:17 6.2 C 44 %
2215 02-02-2020 09:06:17 6.3 C 44 %
2216 02-02-2020 09:16:17 6.3 C 44 %
2217 02-02-2020 09:26:17 6.2 C 43 %
2218 02-02-2020 09:36:18 6.4 C 44 %
2219 02-02-2020 09:46:17 6.6 C 44 %
2220 02-02-2020 09:56:18 6.7 C 43 %
2221 02-02-2020 10:06:18 6.7 C 43 %
2222 02-02-2020 10:16:18 7 C 41 %
2223 02-02-2020 10:26:18 6.9 C 42 %
2224 02-02-2020 10:36:18 7 C 41 %
2225 02-02-2020 10:46:17 7.1 C 41 %
Sensor: Nr:Datum:Temp:Feuchte:
Aussen-T/F 2226 02-02-2020 10:56:17 7.2 C 42 %
2227 02-02-2020 11:06:18 7.4 C 42 %
2228 02-02-2020 11:16:17 7.6 C 42 %
2229 02-02-2020 11:26:17 8 C 41 %
2230 02-02-2020 11:36:17 8 C 40 %
2231 02-02-2020 11:46:17 7.9 C 40 %
2232 02-02-2020 11:56:17 8.1 C 40 %
2233 02-02-2020 12:06:17 8.5 C 40 %
2234 02-02-2020 12:16:17 9.2 C 38 %
2235 02-02-2020 12:26:17 10.4 C 40 %
2236 02-02-2020 12:36:17 11.4 C 36 %
2237 02-02-2020 12:46:17 12 C 34 %
2238 02-02-2020 12:56:17 12.3 C 33 %
2239 02-02-2020 13:06:18 12.4 C 33 %
2240 02-02-2020 13:16:18 12.4 C 33 %
2241 02-02-2020 13:26:18 12.4 C 33 %
2242 02-02-2020 13:36:17 12.5 C 33 %
2243 02-02-2020 13:46:18 12.8 C 33 %
2244 02-02-2020 13:56:18 13 C 32 %
2245 02-02-2020 14:06:17 13.1 C 32 %
2246 02-02-2020 14:16:17 13.2 C 32 %
2247 02-02-2020 14:26:17 13.4 C 31 %
2248 02-02-2020 14:36:17 13.4 C 32 %
2249 02-02-2020 14:46:17 13.4 C 32 %
2250 02-02-2020 14:56:17 13.5 C 31 %
Sensor: Nr:Datum:Temp:Feuchte:
Aussen-T/F 2251 02-02-2020 15:06:17 13.8 C 31 %
2252 02-02-2020 15:16:18 13.9 C 31 %
2253 02-02-2020 15:26:18 13.7 C 31 %
2254 02-02-2020 15:36:18 13.1 C 32 %
2255 02-02-2020 15:46:17 13.3 C 32 %
2256 02-02-2020 15:56:18 13.5 C 31 %
2257 02-02-2020 16:06:18 14.3 C 28 %
2258 02-02-2020 16:16:18 14.4 C 27 %
2259 02-02-2020 16:26:18 14.1 C 27 %
2260 02-02-2020 16:36:17 14.4 C 26 %
2261 02-02-2020 16:46:17 14.5 C 25 %
2262 02-02-2020 16:56:17 14 C 25 %
2263 02-02-2020 17:06:17 14 C 25 %
2264 02-02-2020 17:16:17 13.7 C 25 %
2265 02-02-2020 17:26:17 13.9 C 25 %
2266 02-02-2020 17:36:17 13.8 C 25 %
2267 02-02-2020 17:46:17 13.7 C 25 %
2268 02-02-2020 17:56:17 13.4 C 25 %
2269 02-02-2020 18:06:18 13.2 C 25 %
2270 02-02-2020 18:16:18 13.4 C 25 %
2271 02-02-2020 18:26:18 13.2 C 25 %
2272 02-02-2020 18:36:17 12.8 C 26 %
2273 02-02-2020 18:46:17 12.9 C 26 %
2274 02-02-2020 18:56:17 13.1 C 25 %
2275 02-02-2020 19:06:18 13.3 C 23 %
Sensor: Nr:Datum:Temp:Feuchte:
Aussen-T/F 2276 02-02-2020 19:16:17 13.1 C 22 %
2277 02-02-2020 19:26:17 12.9 C 25 %
2278 02-02-2020 19:36:17 12.6 C 25 %
2279 02-02-2020 19:46:17 12.9 C 25 %
2280 02-02-2020 19:56:17 12.9 C 25 %
2281 02-02-2020 20:06:18 12.7 C 25 %
2282 02-02-2020 20:16:17 12.6 C 25 %
2283 02-02-2020 20:26:17 12.5 C 25 %
2284 02-02-2020 20:36:17 12 C 26 %
2285 02-02-2020 20:46:18 12 C 26 %
2286 02-02-2020 20:56:18 12.4 C 25 %
2287 02-02-2020 21:06:18 12.2 C 25 %
2288 02-02-2020 21:16:17 12.2 C 25 %
2289 02-02-2020 21:26:17 12.3 C 25 %
2290 02-02-2020 21:36:18 12.3 C 25 %
2291 02-02-2020 21:46:17 12.1 C 25 %
2292 02-02-2020 21:56:18 12.2 C 25 %
2293 02-02-2020 22:06:17 12.2 C 25 %
2294 02-02-2020 22:16:17 11.9 C 26 %
2295 02-02-2020 22:26:18 11.9 C 26 %
2296 02-02-2020 22:36:18 12 C 25 %
2297 02-02-2020 22:46:18 12.1 C 25 %
2298 02-02-2020 22:56:18 11.8 C 25 %
2299 02-02-2020 23:06:17 11.8 C 26 %
2300 02-02-2020 23:16:17 12 C 25 %
Sensor: Nr:Datum:Temp:Feuchte:
Aussen-T/F 2301 02-02-2020 23:26:17 11.5 C 26 %
2302 02-02-2020 23:36:17 11.7 C 26 %
2303 02-02-2020 23:46:18 11.6 C 26 %
2304 02-02-2020 23:56:18 11.2 C 27 %
2305 03-02-2020 00:06:18 11.2 C 27 %
2306 03-02-2020 00:16:17 11.3 C 26 %
2307 03-02-2020 00:26:17 11 C 26 %
2308 03-02-2020 00:36:17 10.4 C 26 %
2309 03-02-2020 00:46:17 9.8 C 29 %
2310 03-02-2020 00:56:17 9.6 C 30 %
2311 03-02-2020 01:06:18 9.7 C 30 %
2312 03-02-2020 01:16:17 9.5 C 31 %
2313 03-02-2020 01:26:17 9.1 C 32 %
2314 03-02-2020 01:36:17 9 C 32 %
2315 03-02-2020 01:46:17 9.5 C 31 %
2316 03-02-2020 01:56:17 10 C 30 %
2317 03-02-2020 02:06:18 9.9 C 30 %
2318 03-02-2020 02:16:17 10.3 C 30 %
2319 03-02-2020 02:26:17 10.4 C 30 %
2320 03-02-2020 02:36:17 10.2 C 30 %
2321 03-02-2020 02:46:17 10.5 C 30 %
2322 03-02-2020 02:56:17 10.3 C 30 %
2323 03-02-2020 03:06:18 10.5 C 29 %
2324 03-02-2020 03:16:17 10.4 C 30 %
2325 03-02-2020 03:26:17 10.4 C 30 %
Sensor: Nr:Datum:Temp:Feuchte:
Aussen-T/F 2326 03-02-2020 03:36:17 10.4 C 30 %
2327 03-02-2020 03:46:17 10.1 C 30 %
2328 03-02-2020 03:56:17 10.1 C 30 %
2329 03-02-2020 04:06:17 9.9 C 32 %
2330 03-02-2020 04:16:17 9.9 C 32 %
2331 03-02-2020 04:26:18 9.9 C 32 %
2332 03-02-2020 04:36:18 10.1 C 31 %
2333 03-02-2020 04:46:17 10.1 C 31 %
2334 03-02-2020 04:56:18 10.1 C 31 %
2335 03-02-2020 05:06:18 10.1 C 31 %
2336 03-02-2020 05:16:17 10.1 C 31 %
2337 03-02-2020 05:26:17 9.8 C 32 %
2338 03-02-2020 05:36:17 10.1 C 31 %
2339 03-02-2020 05:46:17 9.7 C 32 %
2340 03-02-2020 05:56:17 10.2 C 31 %
2341 03-02-2020 06:06:17 10.4 C 31 %
2342 03-02-2020 06:16:17 10.7 C 30 %
2343 03-02-2020 06:26:17 10.5 C 30 %
2344 03-02-2020 06:36:17 10.4 C 30 %
2345 03-02-2020 06:46:17 10.2 C 30 %
2346 03-02-2020 06:56:17 10.5 C 30 %
2347 03-02-2020 07:06:18 10.5 C 30 %
2348 03-02-2020 07:16:18 10.3 C 30 %
2349 03-02-2020 07:26:18 10.3 C 30 %
2350 03-02-2020 07:36:18 10 C 30 %
Sensor: Nr:Datum:Temp:Feuchte:
Aussen-T/F 2351 03-02-2020 07:46:18 9.9 C 31 %
2352 03-02-2020 07:56:18 10 C 30 %
2353 03-02-2020 08:06:17 10.1 C 30 %
2354 03-02-2020 08:16:17 9.8 C 31 %
2355 03-02-2020 08:26:17 10.1 C 30 %
2356 03-02-2020 08:36:17 10.1 C 30 %
2357 03-02-2020 08:46:17 10 C 30 %
2358 03-02-2020 08:56:17 10.4 C 30 %
2359 03-02-2020 09:06:17 10.2 C 30 %
2360 03-02-2020 09:16:18 9.8 C 31 %
2361 03-02-2020 09:26:18 9.8 C 31 %
2362 03-02-2020 09:36:17 10.2 C 30 %
2363 03-02-2020 09:46:17 10.4 C 30 %
2364 03-02-2020 09:56:17 10.5 C 30 %
2365 03-02-2020 10:06:17 10.4 C 30 %
2366 03-02-2020 10:16:17 10.4 C 30 %
2367 03-02-2020 10:26:17 10.4 C 30 %
2368 03-02-2020 10:36:18 11.2 C 28 %
2369 03-02-2020 10:46:18 11.4 C 27 %
2370 03-02-2020 10:56:18 11.7 C 27 %
2371 03-02-2020 11:06:18 11.9 C 25 %
2372 03-02-2020 11:16:17 12.1 C 21 %
2373 03-02-2020 11:26:17 12.1 C 20 %
2374 03-02-2020 11:36:17 12.1 C 20 %
2375 03-02-2020 11:46:17 12.4 C 20 %
Sensor: Nr:Datum:Temp:Feuchte:
Aussen-T/F 2376 03-02-2020 11:56:17 12.3 C 20 %
2377 03-02-2020 12:06:17 12.2 C 20 %
2378 03-02-2020 12:16:17 12.3 C 20 %
2379 03-02-2020 12:26:17 12.3 C 20 %
2380 03-02-2020 12:36:17 12.5 C 20 %
2381 03-02-2020 12:46:18 12.5 C 20 %
2382 03-02-2020 12:56:18 12.5 C 20 %
2383 03-02-2020 13:06:18 12.2 C 20 %
2384 03-02-2020 13:16:17 12.3 C 20 %
2385 03-02-2020 13:26:17 12.1 C 20 %
2386 03-02-2020 13:36:17 12.3 C 20 %
2387 03-02-2020 13:46:17 12.1 C 20 %
2388 03-02-2020 13:56:17 12.2 C 20 %
2389 03-02-2020 14:06:18 12.5 C 20 %
2390 03-02-2020 14:16:18 12.2 C 20 %
2391 03-02-2020 14:26:18 11.7 C 23 %
2392 03-02-2020 14:36:17 12.3 C 20 %
2393 03-02-2020 14:46:17 11.9 C 23 %
2394 03-02-2020 14:56:17 12 C 20 %
2395 03-02-2020 15:06:17 12.1 C 20 %
2396 03-02-2020 15:16:17 12.1 C 20 %
2397 03-02-2020 15:26:17 12 C 20 %
2398 03-02-2020 15:36:18 12 C 20 %
2399 03-02-2020 15:46:18 12 C 20 %
2400 03-02-2020 15:56:18 12.1 C 20 %
Sensor: Nr:Datum:Temp:Feuchte:
Aussen-T/F 2401 03-02-2020 16:06:17 12 C 20 %
2402 03-02-2020 16:16:17 12 C 20 %
2403 03-02-2020 16:26:17 11.8 C 20 %
2404 03-02-2020 16:36:17 11.6 C 20 %
2405 03-02-2020 16:46:17 11.5 C 20 %
2406 03-02-2020 16:56:17 11.5 C 20 %
2407 03-02-2020 17:06:17 11.4 C 21 %
2408 03-02-2020 17:16:18 11.3 C 21 %
2409 03-02-2020 17:26:18 11 C 23 %
2410 03-02-2020 17:36:17 11 C 23 %
2411 03-02-2020 17:46:18 10.9 C 23 %
2412 03-02-2020 17:56:18 11 C 22 %
2413 03-02-2020 18:06:17 10.7 C 22 %
2414 03-02-2020 18:16:17 10.5 C 23 %
2415 03-02-2020 18:26:17 10.4 C 25 %
2416 03-02-2020 18:36:18 10.2 C 26 %
2417 03-02-2020 18:46:18 10.7 C 25 %
2418 03-02-2020 18:56:18 10.4 C 25 %
2419 03-02-2020 19:06:18 9.8 C 27 %
2420 03-02-2020 19:16:17 8.9 C 32 %
2421 03-02-2020 19:26:17 8.5 C 35 %
2422 03-02-2020 19:36:17 8.2 C 38 %
2423 03-02-2020 19:46:17 8.1 C 40 %
2424 03-02-2020 19:56:17 7.9 C 43 %
2425 03-02-2020 20:06:18 7.9 C 44 %
Sensor: Nr:Datum:Temp:Feuchte:
Aussen-T/F 2426 03-02-2020 20:16:17 7.9 C 44 %
2427 03-02-2020 20:26:17 7.9 C 44 %
2428 03-02-2020 20:36:17 8 C 43 %
2429 03-02-2020 20:46:17 7.9 C 43 %
2430 03-02-2020 20:56:18 7.9 C 43 %
2431 03-02-2020 21:06:18 7.8 C 44 %
2432 03-02-2020 21:16:17 7.8 C 44 %
2433 03-02-2020 21:26:17 7.8 C 44 %
2434 03-02-2020 21:36:17 7.7 C 44 %
2435 03-02-2020 21:46:17 7.7 C 43 %
2436 03-02-2020 21:56:17 7.7 C 43 %
2437 03-02-2020 22:06:17 7.8 C 43 %
2438 03-02-2020 22:16:18 7.2 C 43 %
2439 03-02-2020 22:26:18 7.2 C 43 %
2440 03-02-2020 22:36:17 7.2 C 43 %
2441 03-02-2020 22:46:18 7.2 C 43 %
2442 03-02-2020 22:56:18 6.9 C 44 %
2443 03-02-2020 23:06:18 6.9 C 44 %
2444 03-02-2020 23:16:17 6.8 C 43 %
2445 03-02-2020 23:26:17 6.7 C 43 %
2446 03-02-2020 23:36:17 6.5 C 43 %
2447 03-02-2020 23:46:17 6.3 C 43 %
2448 03-02-2020 23:56:17 6.2 C 43 %
2449 04-02-2020 00:06:17 5.9 C 42 %
2450 04-02-2020 00:16:18 5.7 C 43 %
Sensor: Nr:Datum:Temp:Feuchte:
Aussen-T/F 2451 04-02-2020 00:26:18 5.5 C 44 %
2452 04-02-2020 00:36:18 5.4 C 43 %
2453 04-02-2020 00:46:18 5.2 C 42 %
2454 04-02-2020 00:56:18 5.1 C 41 %
2455 04-02-2020 01:06:17 5.1 C 41 %
2456 04-02-2020 01:16:17 5.1 C 42 %
2457 04-02-2020 01:26:17 5.1 C 42 %
2458 04-02-2020 01:36:17 4.9 C 40 %
2459 04-02-2020 01:46:17 4.8 C 40 %
2460 04-02-2020 01:56:17 4.6 C 41 %
2461 04-02-2020 02:06:18 4.2 C 39 %
2462 04-02-2020 02:16:17 4 C 39 %
2463 04-02-2020 02:26:17 3.9 C 41 %
2464 04-02-2020 02:36:17 3.9 C 41 %
2465 04-02-2020 02:46:17 3.9 C 41 %
2466 04-02-2020 02:56:17 3.9 C 41 %
2467 04-02-2020 03:06:18 4 C 39 %
2468 04-02-2020 03:16:17 3.9 C 41 %
2469 04-02-2020 03:26:17 4.1 C 40 %
2470 04-02-2020 03:36:17 3.7 C 41 %
2471 04-02-2020 03:46:17 3.9 C 40 %
2472 04-02-2020 03:56:17 4.1 C 37 %
2473 04-02-2020 04:06:17 3.8 C 39 %
2474 04-02-2020 04:16:17 3.7 C 39 %
2475 04-02-2020 04:26:17 4 C 38 %
Sensor: Nr:Datum:Temp:Feuchte:
Aussen-T/F 2476 04-02-2020 04:36:18 4.2 C 38 %
2477 04-02-2020 04:46:18 4.1 C 37 %
2478 04-02-2020 04:56:18 3.7 C 39 %
2479 04-02-2020 05:06:17 3.6 C 39 %
2480 04-02-2020 05:16:18 3.2 C 41 %
2481 04-02-2020 05:26:18 3.4 C 42 %
2482 04-02-2020 05:36:18 3.6 C 41 %
2483 04-02-2020 05:46:17 3.8 C 38 %
2484 04-02-2020 05:56:17 3.9 C 36 %
2485 04-02-2020 06:06:17 4.2 C 35 %
2486 04-02-2020 06:16:17 4.4 C 33 %
2487 04-02-2020 06:26:17 4.6 C 33 %
2488 04-02-2020 06:36:17 4.7 C 32 %
2489 04-02-2020 06:46:17 4.3 C 34 %
2490 04-02-2020 06:56:17 4.4 C 34 %
2491 04-02-2020 07:06:18 4.7 C 33 %
2492 04-02-2020 07:16:17 4.6 C 32 %
2493 04-02-2020 07:26:17 4.3 C 33 %
2494 04-02-2020 07:36:17 4 C 34 %
2495 04-02-2020 07:46:17 3.9 C 35 %
2496 04-02-2020 07:56:17 3.8 C 35 %
2497 04-02-2020 08:06:17 3.6 C 35 %
2498 04-02-2020 08:16:17 3.8 C 35 %
2499 04-02-2020 08:26:17 3.6 C 35 %
2500 04-02-2020 08:36:18 3.6 C 35 %
Sensor: Nr:Datum:Temp:Feuchte:
Aussen-T/F 2501 04-02-2020 08:46:18 3.8 C 35 %
2502 04-02-2020 08:56:18 3.9 C 35 %
2503 04-02-2020 09:06:18 4 C 34 %
2504 04-02-2020 09:16:17 3.7 C 36 %
2505 04-02-2020 09:26:17 4 C 35 %
2506 04-02-2020 09:36:17 4 C 34 %
2507 04-02-2020 09:46:17 3.6 C 36 %
2508 04-02-2020 09:56:17 3.4 C 37 %
2509 04-02-2020 10:06:18 3 C 40 %
2510 04-02-2020 10:16:17 3.3 C 42 %
2511 04-02-2020 10:26:17 3.9 C 37 %
2512 04-02-2020 10:36:17 4.1 C 35 %
2513 04-02-2020 10:46:17 4.4 C 36 %
2514 04-02-2020 10:56:17 4.9 C 34 %
2515 04-02-2020 11:06:17 4.9 C 34 %
2516 04-02-2020 11:16:18 5.3 C 32 %
2517 04-02-2020 11:26:18 3.9 C 36 %
2518 04-02-2020 11:36:18 4.1 C 35 %
2519 04-02-2020 11:46:18 4.9 C 35 %
2520 04-02-2020 11:56:18 4.6 C 35 %
2521 04-02-2020 12:06:17 4.2 C 36 %
2522 04-02-2020 12:16:17 3.8 C 38 %
2523 04-02-2020 12:26:17 3.4 C 40 %
2524 04-02-2020 12:36:18 3.9 C 38 %
2525 04-02-2020 12:46:17 3.8 C 38 %
Sensor: Nr:Datum:Temp:Feuchte:
Aussen-T/F 2526 04-02-2020 12:56:18 4.1 C 36 %
2527 04-02-2020 13:06:18 4.7 C 34 %
2528 04-02-2020 13:16:17 4.8 C 33 %
2529 04-02-2020 13:26:17 5.2 C 31 %
2530 04-02-2020 13:36:17 5.3 C 31 %
2531 04-02-2020 13:46:17 5.6 C 30 %
2532 04-02-2020 13:56:17 5.7 C 30 %
2533 04-02-2020 14:06:18 5.9 C 30 %
2534 04-02-2020 14:16:17 6.1 C 27 %
2535 04-02-2020 14:26:17 6.4 C 27 %
2536 04-02-2020 14:36:17 6 C 27 %
2537 04-02-2020 14:46:18 6.5 C 26 %
2538 04-02-2020 14:56:18 6.5 C 27 %
2539 04-02-2020 15:06:17 5.9 C 27 %
2540 04-02-2020 15:16:17 5.1 C 29 %
2541 04-02-2020 15:26:17 4.8 C 30 %
2542 04-02-2020 15:36:18 4.4 C 32 %
2543 04-02-2020 15:46:18 4.4 C 33 %
2544 04-02-2020 15:56:18 4.5 C 33 %
2545 04-02-2020 16:06:17 4.5 C 33 %
2546 04-02-2020 16:16:17 4.5 C 33 %
2547 04-02-2020 16:26:17 4.8 C 33 %
2548 04-02-2020 16:36:17 4.8 C 33 %
2549 04-02-2020 16:46:17 4.9 C 33 %
2550 04-02-2020 16:56:18 4.4 C 33 %
Sensor: Nr:Datum:Temp:Feuchte:
Aussen-T/F 2551 04-02-2020 17:06:17 4.3 C 34 %
2552 04-02-2020 17:16:17 4 C 35 %
2553 04-02-2020 17:26:17 4 C 36 %
2554 04-02-2020 17:36:17 4 C 36 %
2555 04-02-2020 17:46:17 4.2 C 35 %
2556 04-02-2020 17:56:17 4 C 35 %
2557 04-02-2020 18:06:18 3.8 C 37 %
2558 04-02-2020 18:16:17 3.9 C 37 %
2559 04-02-2020 18:26:17 4.1 C 35 %
2560 04-02-2020 18:36:17 4.1 C 35 %
2561 04-02-2020 18:46:17 4.3 C 35 %
2562 04-02-2020 18:56:17 4.3 C 35 %
2563 04-02-2020 19:06:18 4.4 C 35 %
2564 04-02-2020 19:16:18 4.3 C 35 %
2565 04-02-2020 19:26:18 4 C 37 %
2566 04-02-2020 19:36:17 3.9 C 39 %
2567 04-02-2020 19:46:18 3.8 C 40 %
2568 04-02-2020 19:56:18 3.9 C 38 %
2569 04-02-2020 20:06:17 4 C 37 %
2570 04-02-2020 20:16:17 3.9 C 39 %
2571 04-02-2020 20:26:17 3.8 C 39 %
2572 04-02-2020 20:36:17 3.8 C 39 %
2573 04-02-2020 20:46:17 3.9 C 39 %
2574 04-02-2020 20:56:17 3.9 C 39 %
2575 04-02-2020 21:06:18 4 C 38 %
Sensor: Nr:Datum:Temp:Feuchte:
Aussen-T/F 2576 04-02-2020 21:16:18 4 C 38 %
2577 04-02-2020 21:26:18 4 C 38 %
2578 04-02-2020 21:36:17 3.8 C 39 %
2579 04-02-2020 21:46:17 3.8 C 40 %
2580 04-02-2020 21:56:17 3.8 C 40 %
2581 04-02-2020 22:06:17 3.8 C 40 %
2582 04-02-2020 22:16:17 4 C 40 %
2583 04-02-2020 22:26:17 4 C 39 %
2584 04-02-2020 22:36:18 3.8 C 39 %
2585 04-02-2020 22:46:18 3.5 C 40 %
2586 04-02-2020 22:56:18 3.6 C 40 %
2587 04-02-2020 23:06:17 3.7 C 40 %
2588 04-02-2020 23:16:17 3.7 C 40 %
2589 04-02-2020 23:26:17 4.1 C 37 %
2590 04-02-2020 23:36:18 4.1 C 36 %
2591 04-02-2020 23:46:17 4.1 C 36 %
2592 04-02-2020 23:56:17 4.1 C 37 %
2593 05-02-2020 00:06:17 4.2 C 36 %
2594 05-02-2020 00:16:17 4 C 37 %
2595 05-02-2020 00:26:17 4 C 37 %
2596 05-02-2020 00:36:18 4.2 C 36 %
2597 05-02-2020 00:46:17 4.2 C 36 %
2598 05-02-2020 00:56:18 4.3 C 35 %
2599 05-02-2020 01:06:18 4.4 C 35 %
2600 05-02-2020 01:16:18 4.5 C 34 %
Sensor: Nr:Datum:Temp:Feuchte:
Aussen-T/F 2601 05-02-2020 01:26:18 4.6 C 33 %
2602 05-02-2020 01:36:17 4.7 C 34 %
2603 05-02-2020 01:46:18 4.7 C 33 %
2604 05-02-2020 01:56:18 4.8 C 33 %
2605 05-02-2020 02:06:17 4.8 C 33 %
2606 05-02-2020 02:16:17 4.8 C 34 %
2607 05-02-2020 02:26:17 4.7 C 34 %
2608 05-02-2020 02:36:17 4.7 C 34 %
2609 05-02-2020 02:46:17 4.6 C 35 %
2610 05-02-2020 02:56:17 4.6 C 35 %
2611 05-02-2020 03:06:18 4.7 C 35 %
2612 05-02-2020 03:16:17 4.6 C 36 %
2613 05-02-2020 03:26:17 4.6 C 36 %
2614 05-02-2020 03:36:18 4.5 C 36 %
2615 05-02-2020 03:46:17 4.1 C 37 %
2616 05-02-2020 03:56:18 3.6 C 38 %
2617 05-02-2020 04:06:18 3.5 C 40 %
2618 05-02-2020 04:16:18 3.8 C 40 %
2619 05-02-2020 04:26:18 3.6 C 39 %
2620 05-02-2020 04:36:17 3.6 C 38 %
2621 05-02-2020 04:46:17 3.5 C 39 %
2622 05-02-2020 04:56:17 3.3 C 38 %
2623 05-02-2020 05:06:18 3.4 C 39 %
2624 05-02-2020 05:16:18 2.6 C 40 %
2625 05-02-2020 05:26:18 3.1 C 41 %
Sensor: Nr:Datum:Temp:Feuchte:
Aussen-T/F 2626 05-02-2020 05:36:18 2.6 C 41 %
2627 05-02-2020 05:46:18 2.8 C 41 %
2628 05-02-2020 05:56:18 3 C 41 %
2629 05-02-2020 06:06:17 3.3 C 42 %
2630 05-02-2020 06:16:17 4 C 38 %
2631 05-02-2020 06:26:17 3.8 C 38 %
2632 05-02-2020 06:36:18 3.7 C 38 %
2633 05-02-2020 06:46:17 3.7 C 38 %
2634 05-02-2020 06:56:18 3.1 C 38 %
2635 05-02-2020 07:06:18 3.1 C 38 %
2636 05-02-2020 07:16:17 2.8 C 39 %
2637 05-02-2020 07:26:17 2.5 C 39 %
2638 05-02-2020 07:36:17 2.5 C 40 %
2639 05-02-2020 07:46:17 2.6 C 40 %
2640 05-02-2020 07:56:17 2.6 C 40 %
2641 05-02-2020 08:06:18 2.3 C 40 %
2642 05-02-2020 08:16:17 2 C 41 %
2643 05-02-2020 08:26:17 1.7 C 43 %
2644 05-02-2020 08:36:17 1.6 C 43 %
2645 05-02-2020 08:46:17 1.6 C 43 %
2646 05-02-2020 08:56:17 1.5 C 44 %
2647 05-02-2020 09:06:17 1.4 C 45 %
2648 05-02-2020 09:16:17 2 C 44 %
2649 05-02-2020 09:26:17 2 C 42 %
2650 05-02-2020 09:36:18 2 C 42 %
Sensor: Nr:Datum:Temp:Feuchte:
Aussen-T/F 2651 05-02-2020 09:46:18 2.7 C 42 %
2652 05-02-2020 09:56:18 3.6 C 39 %
2653 05-02-2020 10:06:17 4 C 40 %
2654 05-02-2020 10:16:17 4.3 C 37 %
2655 05-02-2020 10:26:17 4.4 C 32 %
2656 05-02-2020 10:36:17 4.7 C 31 %
2657 05-02-2020 10:46:17 5 C 31 %
2658 05-02-2020 10:56:17 5.1 C 30 %
2659 05-02-2020 11:06:17 4.9 C 31 %
2660 05-02-2020 11:16:17 5 C 30 %
2661 05-02-2020 11:26:17 5.2 C 30 %
2662 05-02-2020 11:36:17 5.1 C 30 %
2663 05-02-2020 11:46:17 5.2 C 30 %
2664 05-02-2020 11:56:17 5.3 C 30 %
2665 05-02-2020 12:06:17 5.7 C 30 %
2666 05-02-2020 12:16:17 5.9 C 29 %
2667 05-02-2020 12:26:17 5.8 C 29 %
2668 05-02-2020 12:36:18 5.6 C 28 %
2669 05-02-2020 12:46:17 5.5 C 29 %
2670 05-02-2020 12:56:17 5.9 C 28 %
2671 05-02-2020 13:06:17 5.4 C 28 %
2672 05-02-2020 13:16:17 5.3 C 28 %
2673 05-02-2020 13:26:17 5.8 C 28 %
2674 05-02-2020 13:36:18 5.8 C 27 %
2675 05-02-2020 13:46:18 5.9 C 27 %
Sensor: Nr:Datum:Temp:Feuchte:
Aussen-T/F 2676 05-02-2020 13:56:18 5.9 C 27 %
2677 05-02-2020 14:06:17 5.8 C 27 %
2678 05-02-2020 14:16:18 5.6 C 27 %
2679 05-02-2020 14:26:18 5.7 C 27 %
2680 05-02-2020 14:36:17 6 C 28 %
2681 05-02-2020 14:46:17 7.7 C 26 %
2682 05-02-2020 14:56:17 7.1 C 25 %
2683 05-02-2020 15:06:17 6.9 C 25 %
2684 05-02-2020 15:16:17 7.3 C 25 %
2685 05-02-2020 15:26:17 5.7 C 27 %
2686 05-02-2020 15:36:17 6.9 C 25 %
2687 05-02-2020 15:46:17 6.4 C 27 %
2688 05-02-2020 15:56:17 5 C 29 %
2689 05-02-2020 16:06:17 5.8 C 28 %
2690 05-02-2020 16:16:17 6.2 C 27 %
2691 05-02-2020 16:26:17 6.8 C 26 %
2692 05-02-2020 16:36:18 4.8 C 30 %
2693 05-02-2020 16:46:18 3.8 C 33 %
2694 05-02-2020 16:56:18 3.7 C 35 %
2695 05-02-2020 17:06:17 3.4 C 35 %
2696 05-02-2020 17:16:17 3.4 C 35 %
2697 05-02-2020 17:26:17 3.2 C 35 %
2698 05-02-2020 17:36:18 3.1 C 35 %
2699 05-02-2020 17:46:18 2.6 C 36 %
2700 05-02-2020 17:56:18 2.4 C 36 %
Sensor: Nr:Datum:Temp:Feuchte:
Aussen-T/F 2701 05-02-2020 18:06:17 2.3 C 37 %
2702 05-02-2020 18:16:17 2.1 C 37 %
2703 05-02-2020 18:26:17 1.8 C 39 %
2704 05-02-2020 18:36:17 1.3 C 40 %
2705 05-02-2020 18:46:17 0.5 C 42 %
2706 05-02-2020 18:56:17 0.8 C 46 %
2707 05-02-2020 19:06:18 0.1 C 45 %
2708 05-02-2020 19:16:18 -0.1 C 45 %
2709 05-02-2020 19:26:18 -0.1 C 46 %
2710 05-02-2020 19:36:18 -0.4 C 46 %
2711 05-02-2020 19:46:17 -0.5 C 46 %
2712 05-02-2020 19:56:18 -0.7 C 46 %
2713 05-02-2020 20:06:18 -0.7 C 46 %
2714 05-02-2020 20:16:17 -0.7 C 46 %
2715 05-02-2020 20:26:17 -0.9 C 46 %
2716 05-02-2020 20:36:17 -0.5 C 46 %
2717 05-02-2020 20:46:17 -0.7 C 46 %
2718 05-02-2020 20:56:17 -0.8 C 46 %
2719 05-02-2020 21:06:17 -1 C 46 %
2720 05-02-2020 21:16:17 -0.7 C 47 %
2721 05-02-2020 21:26:17 -1 C 46 %
2722 05-02-2020 21:36:18 -1.3 C 46 %
2723 05-02-2020 21:46:18 -1.4 C 46 %
2724 05-02-2020 21:56:18 -1.3 C 46 %
2725 05-02-2020 22:06:18 -1.5 C 46 %
Sensor: Nr:Datum:Temp:Feuchte:
Aussen-T/F 2726 05-02-2020 22:16:17 -1.4 C 47 %
2727 05-02-2020 22:26:17 -1.4 C 46 %
2728 05-02-2020 22:36:17 -1.5 C 47 %
2729 05-02-2020 22:46:17 -1.4 C 47 %
2730 05-02-2020 22:56:17 -1.5 C 46 %
2731 05-02-2020 23:06:17 -1.2 C 47 %
2732 05-02-2020 23:16:17 -1.1 C 47 %
2733 05-02-2020 23:26:17 -1.2 C 46 %
2734 05-02-2020 23:36:17 -1.4 C 46 %
2735 05-02-2020 23:46:17 -1.4 C 46 %
2736 05-02-2020 23:56:17 -1.6 C 46 %
2737 06-02-2020 00:06:17 -1.6 C 46 %
2738 06-02-2020 00:16:17 -1.6 C 46 %
2739 06-02-2020 00:26:17 -1.4 C 47 %
2740 06-02-2020 00:36:17 -1.8 C 46 %
2741 06-02-2020 00:46:17 -1.3 C 47 %
2742 06-02-2020 00:56:17 -1.5 C 46 %
2743 06-02-2020 01:06:17 -1.4 C 46 %
2744 06-02-2020 01:16:17 -1.1 C 47 %
2745 06-02-2020 01:26:17 -0.9 C 47 %
2746 06-02-2020 01:36:18 -1.2 C 46 %
2747 06-02-2020 01:46:18 -1.2 C 46 %
2748 06-02-2020 01:56:18 -1.1 C 46 %
2749 06-02-2020 02:06:18 -1.1 C 46 %
2750 06-02-2020 02:16:17 -1.1 C 46 %
Sensor: Nr:Datum:Temp:Feuchte:
Aussen-T/F 2751 06-02-2020 02:26:17 -1.3 C 46 %
2752 06-02-2020 02:36:17 -1.3 C 46 %
2753 06-02-2020 02:46:17 -1.4 C 46 %
2754 06-02-2020 02:56:17 -1.6 C 46 %
2755 06-02-2020 03:06:17 -1.5 C 46 %
2756 06-02-2020 03:16:18 -1.6 C 46 %
2757 06-02-2020 03:26:18 -1.8 C 46 %
2758 06-02-2020 03:36:17 -1.9 C 46 %
2759 06-02-2020 03:46:17 -1.8 C 46 %
2760 06-02-2020 03:56:17 -2.2 C 46 %
2761 06-02-2020 04:06:17 -1.8 C 46 %
2762 06-02-2020 04:16:17 -2 C 46 %
2763 06-02-2020 04:26:17 -1.7 C 46 %
2764 06-02-2020 04:36:18 -1.6 C 46 %
2765 06-02-2020 04:46:18 -1.7 C 46 %
2766 06-02-2020 04:56:18 -1.6 C 46 %
2767 06-02-2020 05:06:17 -1.7 C 46 %
2768 06-02-2020 05:16:18 -1.6 C 46 %
2769 06-02-2020 05:26:18 -1.6 C 46 %
2770 06-02-2020 05:36:18 -2.2 C 46 %
2771 06-02-2020 05:46:18 -2.4 C 46 %
2772 06-02-2020 05:56:18 -2.3 C 46 %
2773 06-02-2020 06:06:18 -2.2 C 46 %
2774 06-02-2020 06:16:18 -2.1 C 46 %
2775 06-02-2020 06:26:18 -2.3 C 46 %
Sensor: Nr:Datum:Temp:Feuchte:
Aussen-T/F 2776 06-02-2020 06:36:17 -2.5 C 46 %
2777 06-02-2020 06:46:17 -2.1 C 46 %
2778 06-02-2020 06:56:17 -2.5 C 46 %
2779 06-02-2020 07:06:17 -2.6 C 46 %
2780 06-02-2020 07:16:17 -2.6 C 46 %
2781 06-02-2020 07:26:17 -2.6 C 46 %
2782 06-02-2020 07:36:17 -2.8 C 45 %
2783 06-02-2020 07:46:17 -2.5 C 45 %
2784 06-02-2020 07:56:17 -2.1 C 46 %
2785 06-02-2020 08:06:17 -1.9 C 46 %
2786 06-02-2020 08:16:17 -2 C 46 %
2787 06-02-2020 08:26:17 -1.8 C 46 %
2788 06-02-2020 08:36:18 -1.9 C 46 %
2789 06-02-2020 08:46:17 -1.5 C 47 %
2790 06-02-2020 08:56:18 -1.3 C 47 %
2791 06-02-2020 09:06:17 -1.3 C 47 %
2792 06-02-2020 09:16:17 -1.3 C 47 %
2793 06-02-2020 09:26:17 -1 C 47 %
2794 06-02-2020 09:36:17 -0.8 C 47 %
2795 06-02-2020 09:46:17 -0.9 C 47 %
2796 06-02-2020 09:56:17 -0.9 C 46 %
2797 06-02-2020 10:06:17 -0.7 C 46 %
2798 06-02-2020 10:16:18 -0.5 C 47 %
2799 06-02-2020 10:26:18 -0.4 C 46 %
2800 06-02-2020 10:36:18 -0.3 C 46 %
Sensor: Nr:Datum:Temp:Feuchte:
Aussen-T/F 2801 06-02-2020 10:46:18 -0.3 C 45 %
2802 06-02-2020 10:56:18 -0.3 C 45 %
2803 06-02-2020 11:06:17 -0.3 C 45 %
2804 06-02-2020 11:16:17 0 C 45 %
2805 06-02-2020 11:26:17 0.3 C 45 %
2806 06-02-2020 11:36:17 0.7 C 45 %
2807 06-02-2020 11:46:17 1.2 C 44 %
2808 06-02-2020 11:56:18 1.4 C 43 %
2809 06-02-2020 12:06:18 2.1 C 40 %
2810 06-02-2020 12:16:17 2.9 C 40 %
2811 06-02-2020 12:26:17 3.2 C 39 %
2812 06-02-2020 12:36:17 3.5 C 37 %
2813 06-02-2020 12:46:17 3.2 C 37 %
2814 06-02-2020 12:56:17 3.4 C 37 %
2815 06-02-2020 13:06:17 3.9 C 37 %
2816 06-02-2020 13:16:17 3.9 C 37 %
2817 06-02-2020 13:26:17 4 C 37 %
2818 06-02-2020 13:36:17 3.7 C 36 %
2819 06-02-2020 13:46:17 4.5 C 36 %
2820 06-02-2020 13:56:17 4.9 C 36 %
2821 06-02-2020 14:06:17 5.1 C 36 %
2822 06-02-2020 14:16:18 5.4 C 35 %
2823 06-02-2020 14:26:18 4.9 C 35 %
2824 06-02-2020 14:36:17 5.1 C 35 %
2825 06-02-2020 14:46:17 5.1 C 33 %
Sensor: Nr:Datum:Temp:Feuchte:
Aussen-T/F 2826 06-02-2020 14:56:17 5.6 C 34 %
2827 06-02-2020 15:06:17 5.6 C 32 %
2828 06-02-2020 15:16:18 5.2 C 31 %
2829 06-02-2020 15:26:18 5.2 C 31 %
2830 06-02-2020 15:36:17 5.4 C 31 %
2831 06-02-2020 15:46:17 5.6 C 31 %
2832 06-02-2020 15:56:17 5.5 C 30 %
2833 06-02-2020 16:06:17 5.6 C 29 %
2834 06-02-2020 16:16:17 5.4 C 28 %
2835 06-02-2020 16:26:17 7.4 C 23 %
2836 06-02-2020 16:36:17 6.7 C 25 %
2837 06-02-2020 16:46:17 4.8 C 30 %
2838 06-02-2020 16:56:17 3.9 C 33 %
2839 06-02-2020 17:06:18 3.3 C 35 %
2840 06-02-2020 17:16:18 3 C 35 %
2841 06-02-2020 17:26:18 2.7 C 36 %
2842 06-02-2020 17:36:17 2.2 C 36 %
2843 06-02-2020 17:46:17 2 C 37 %
2844 06-02-2020 17:56:18 1.7 C 38 %
2845 06-02-2020 18:06:18 1.6 C 38 %
2846 06-02-2020 18:16:17 1.3 C 38 %
2847 06-02-2020 18:26:17 1.2 C 40 %
2848 06-02-2020 18:36:18 1 C 40 %
2849 06-02-2020 18:46:17 1.2 C 40 %
2850 06-02-2020 18:56:17 0.4 C 42 %
Sensor: Nr:Datum:Temp:Feuchte:
Aussen-T/F 2851 06-02-2020 19:06:17 0.1 C 45 %
2852 06-02-2020 19:16:17 0.2 C 45 %
2853 06-02-2020 19:26:17 -0.5 C 45 %
2854 06-02-2020 19:36:17 -0.6 C 46 %
2855 06-02-2020 19:46:17 -0.9 C 46 %
2856 06-02-2020 19:56:18 -1 C 46 %
2857 06-02-2020 20:06:18 -1.3 C 46 %
2858 06-02-2020 20:16:17 -1.4 C 47 %
2859 06-02-2020 20:26:17 -1.6 C 46 %
2860 06-02-2020 20:36:18 -1.6 C 46 %
2861 06-02-2020 20:46:17 -1.7 C 46 %
2862 06-02-2020 20:56:17 -1.8 C 46 %
2863 06-02-2020 21:06:17 -1.9 C 46 %
2864 06-02-2020 21:16:17 -2 C 46 %
2865 06-02-2020 21:26:17 -2.1 C 46 %
2866 06-02-2020 21:36:17 -2 C 47 %
2867 06-02-2020 21:46:17 -2.3 C 46 %
2868 06-02-2020 21:56:17 -2.3 C 46 %
2869 06-02-2020 22:06:17 -2.1 C 46 %
2870 06-02-2020 22:16:17 -2.2 C 46 %
2871 06-02-2020 22:26:17 -2.3 C 46 %
2872 06-02-2020 22:36:18 -2.5 C 46 %
2873 06-02-2020 22:46:17 -2.5 C 46 %
2874 06-02-2020 22:56:17 -2.6 C 46 %
2875 06-02-2020 23:06:17 -2.6 C 46 %
Sensor: Nr:Datum:Temp:Feuchte:
Aussen-T/F 2876 06-02-2020 23:16:17 -2.7 C 46 %
2877 06-02-2020 23:26:17 -2.4 C 46 %
2878 06-02-2020 23:36:17 -2.5 C 46 %
2879 06-02-2020 23:46:18 -2.5 C 46 %
2880 06-02-2020 23:56:18 -2.6 C 46 %
2881 07-02-2020 00:06:18 -2.9 C 46 %
2882 07-02-2020 00:16:17 -3 C 46 %
2883 07-02-2020 00:26:17 -2.6 C 46 %
2884 07-02-2020 00:36:17 -2.9 C 46 %
2885 07-02-2020 00:46:17 -3 C 46 %
2886 07-02-2020 00:56:17 -3 C 46 %
2887 07-02-2020 01:06:17 -2.9 C 46 %
2888 07-02-2020 01:16:17 -3.1 C 45 %
2889 07-02-2020 01:26:17 -3.3 C 45 %
2890 07-02-2020 01:36:18 -3.2 C 45 %
2891 07-02-2020 01:46:17 -3 C 45 %
2892 07-02-2020 01:56:17 -3 C 45 %
2893 07-02-2020 02:06:18 -3 C 45 %
2894 07-02-2020 02:16:18 -2.9 C 45 %
2895 07-02-2020 02:26:18 -2.5 C 46 %
2896 07-02-2020 02:36:18 -2.2 C 46 %
2897 07-02-2020 02:46:18 -2.2 C 46 %
2898 07-02-2020 02:56:18 -2.1 C 46 %
2899 07-02-2020 03:06:17 -2.1 C 46 %
2900 07-02-2020 03:16:17 -2 C 46 %
Sensor: Nr:Datum:Temp:Feuchte:
Aussen-T/F 2901 07-02-2020 03:26:17 -2 C 46 %
2902 07-02-2020 03:36:17 -2.1 C 46 %
2903 07-02-2020 03:46:17 -2.1 C 46 %
2904 07-02-2020 03:56:17 -1.9 C 46 %
2905 07-02-2020 04:06:17 -2 C 46 %
2906 07-02-2020 04:16:18 -2.1 C 46 %
2907 07-02-2020 04:26:18 -2.2 C 46 %
2908 07-02-2020 04:36:18 -2.2 C 46 %
2909 07-02-2020 04:46:18 -2.1 C 46 %
2910 07-02-2020 04:56:18 -2.1 C 46 %
2911 07-02-2020 05:06:17 -2 C 46 %
2912 07-02-2020 05:16:17 -2.1 C 46 %
2913 07-02-2020 05:26:17 -2.2 C 46 %
2914 07-02-2020 05:36:17 -2.3 C 46 %
2915 07-02-2020 05:46:18 -2.3 C 46 %
2916 07-02-2020 05:56:18 -2.4 C 46 %
2917 07-02-2020 06:06:18 -2.4 C 46 %
2918 07-02-2020 06:16:17 -2.3 C 46 %
2919 07-02-2020 06:26:17 -2.5 C 46 %
2920 07-02-2020 06:36:18 -2.5 C 46 %
2921 07-02-2020 06:46:17 -2.4 C 46 %
2922 07-02-2020 06:56:17 -2.5 C 46 %
2923 07-02-2020 07:06:17 -2.6 C 46 %
2924 07-02-2020 07:16:17 -2.7 C 46 %
2925 07-02-2020 07:26:18 -2.5 C 46 %
Sensor: Nr:Datum:Temp:Feuchte:
Aussen-T/F 2926 07-02-2020 07:36:18 -2.4 C 46 %
2927 07-02-2020 07:46:17 -2.5 C 46 %
2928 07-02-2020 07:56:18 -2.5 C 46 %
2929 07-02-2020 08:06:18 -2.5 C 46 %
2930 07-02-2020 08:16:18 -2.6 C 46 %
2931 07-02-2020 08:26:18 -2.8 C 46 %
2932 07-02-2020 08:36:17 -2.7 C 46 %
2933 07-02-2020 08:46:17 -2.6 C 46 %
2934 07-02-2020 08:56:17 -2.4 C 46 %
2935 07-02-2020 09:06:17 -2.3 C 46 %
2936 07-02-2020 09:16:17 -2.5 C 46 %
2937 07-02-2020 09:26:17 -2.4 C 46 %
2938 07-02-2020 09:36:17 -2.3 C 46 %
2939 07-02-2020 09:46:17 -2.4 C 45 %
2940 07-02-2020 09:56:17 -2.4 C 46 %
2941 07-02-2020 10:06:18 -2.2 C 46 %
2942 07-02-2020 10:16:17 -2 C 46 %
2943 07-02-2020 10:26:17 -1.6 C 47 %
2944 07-02-2020 10:36:17 -1.2 C 46 %
2945 07-02-2020 10:46:17 -1.8 C 45 %
2946 07-02-2020 10:56:17 -1.4 C 46 %
2947 07-02-2020 11:06:17 -1.6 C 46 %
2948 07-02-2020 11:16:18 -1.5 C 46 %
2949 07-02-2020 11:26:18 -1 C 47 %
2950 07-02-2020 11:36:17 -0.8 C 46 %
Sensor: Nr:Datum:Temp:Feuchte:
Aussen-T/F 2951 07-02-2020 11:46:17 -0.6 C 47 %
2952 07-02-2020 11:56:17 -0.4 C 47 %
2953 07-02-2020 12:06:17 -0.1 C 47 %
2954 07-02-2020 12:16:18 0.4 C 47 %
2955 07-02-2020 12:26:18 0.4 C 46 %
2956 07-02-2020 12:36:18 0.7 C 46 %
2957 07-02-2020 12:46:18 0.6 C 46 %
2958 07-02-2020 12:56:18 0.8 C 47 %
2959 07-02-2020 13:06:18 1.2 C 46 %
2960 07-02-2020 13:16:17 2.8 C 43 %
2961 07-02-2020 13:26:17 2.7 C 39 %
2962 07-02-2020 13:36:17 3 C 38 %
2963 07-02-2020 13:46:17 2.7 C 38 %
2964 07-02-2020 13:56:17 2.4 C 40 %
2965 07-02-2020 14:06:17 2.7 C 39 %
2966 07-02-2020 14:16:17 2.6 C 39 %
2967 07-02-2020 14:26:17 2.8 C 39 %
2968 07-02-2020 14:36:18 3.8 C 36 %
2969 07-02-2020 14:46:18 5.1 C 34 %
2970 07-02-2020 14:56:18 4.6 C 35 %
2971 07-02-2020 15:06:18 5.8 C 33 %
2972 07-02-2020 15:16:17 6 C 32 %
2973 07-02-2020 15:26:17 4.8 C 32 %
2974 07-02-2020 15:36:17 5.4 C 31 %
2975 07-02-2020 15:46:17 5.6 C 30 %
Sensor: Nr:Datum:Temp:Feuchte:
Aussen-T/F 2976 07-02-2020 15:56:17 4.8 C 32 %
2977 07-02-2020 16:06:18 6.2 C 30 %
2978 07-02-2020 16:16:17 5.8 C 30 %
2979 07-02-2020 16:26:17 5.7 C 30 %
2980 07-02-2020 16:36:18 5.1 C 30 %
2981 07-02-2020 16:46:17 3.4 C 33 %
2982 07-02-2020 16:56:17 3 C 35 %
2983 07-02-2020 17:06:18 2.8 C 36 %
2984 07-02-2020 17:16:18 2.6 C 36 %
2985 07-02-2020 17:26:18 2.6 C 36 %
2986 07-02-2020 17:36:18 2 C 37 %
2987 07-02-2020 17:46:18 1.8 C 38 %
2988 07-02-2020 17:56:18 1.8 C 38 %
2989 07-02-2020 18:06:18 1.6 C 38 %
2990 07-02-2020 18:16:17 1.5 C 38 %
2991 07-02-2020 18:26:17 1.4 C 38 %
2992 07-02-2020 18:36:17 1.1 C 39 %
2993 07-02-2020 18:46:17 1.2 C 39 %
2994 07-02-2020 18:56:18 0.9 C 40 %
2995 07-02-2020 19:06:17 1.2 C 40 %
2996 07-02-2020 19:16:18 1 C 40 %
2997 07-02-2020 19:26:18 0.6 C 40 %
2998 07-02-2020 19:36:18 0.6 C 41 %
2999 07-02-2020 19:46:17 0.1 C 41 %
3000 07-02-2020 19:56:17 0.3 C 42 %
Sensor: Nr:Datum:Temp:Feuchte:
Aussen-T/F 3001 07-02-2020 20:06:18 0.2 C 42 %
3002 07-02-2020 20:16:18 0.2 C 43 %
3003 07-02-2020 20:26:18 0.1 C 43 %
3004 07-02-2020 20:36:18 0.1 C 42 %
3005 07-02-2020 20:46:18 0 C 42 %
3006 07-02-2020 20:56:18 0.1 C 43 %
3007 07-02-2020 21:06:18 -0.2 C 42 %
3008 07-02-2020 21:16:18 0.3 C 43 %
3009 07-02-2020 21:26:18 0.3 C 42 %
3010 07-02-2020 21:36:18 0.3 C 43 %
3011 07-02-2020 21:46:18 0 C 42 %
3012 07-02-2020 21:56:18 0.1 C 43 %
3013 07-02-2020 22:06:18 -0.5 C 42 %
3014 07-02-2020 22:16:17 -0.4 C 44 %
3015 07-02-2020 22:26:17 -0.1 C 45 %
3016 07-02-2020 22:36:18 -0.7 C 43 %
3017 07-02-2020 22:46:18 -0.3 C 44 %
3018 07-02-2020 22:56:18 -0.3 C 43 %
3019 07-02-2020 23:06:18 -0.3 C 44 %
3020 07-02-2020 23:16:17 -1.3 C 42 %
3021 07-02-2020 23:26:17 -0.6 C 46 %
3022 07-02-2020 23:36:18 -1 C 45 %
3023 07-02-2020 23:46:18 -0.7 C 46 %
3024 07-02-2020 23:56:18 -0.7 C 46 %
3025 08-02-2020 00:06:18 -1.2 C 44 %
Sensor: Nr:Datum:Temp:Feuchte:
Aussen-T/F 3026 08-02-2020 00:16:18 -1 C 45 %
3027 08-02-2020 00:26:18 -1.4 C 45 %
3028 08-02-2020 00:36:18 -0.9 C 46 %
3029 08-02-2020 00:46:17 -1.7 C 44 %
3030 08-02-2020 00:56:17 -1.9 C 45 %
3031 08-02-2020 01:06:18 -2.2 C 45 %
3032 08-02-2020 01:16:17 -2.3 C 46 %
3033 08-02-2020 01:26:18 -2.3 C 46 %
3034 08-02-2020 01:36:17 -2.5 C 46 %
3035 08-02-2020 01:46:17 -2.2 C 46 %
3036 08-02-2020 01:56:17 -2.5 C 46 %
3037 08-02-2020 02:06:18 -2.3 C 46 %
3038 08-02-2020 02:16:17 -2.4 C 46 %
3039 08-02-2020 02:26:17 -2.4 C 46 %
3040 08-02-2020 02:36:18 -2.5 C 46 %
3041 08-02-2020 02:46:18 -2.4 C 47 %
3042 08-02-2020 02:56:18 -2.7 C 46 %
3043 08-02-2020 03:06:18 -2.5 C 47 %
3044 08-02-2020 03:16:18 -2.5 C 46 %
3045 08-02-2020 03:26:18 -2.7 C 46 %
3046 08-02-2020 03:36:18 -2.8 C 46 %
3047 08-02-2020 03:46:18 -2.8 C 46 %
3048 08-02-2020 03:56:18 -2.6 C 46 %
3049 08-02-2020 04:06:18 -2.7 C 46 %
3050 08-02-2020 04:16:18 -3 C 45 %
Sensor: Nr:Datum:Temp:Feuchte:
Aussen-T/F 3051 08-02-2020 04:26:18 -2.8 C 46 %
3052 08-02-2020 04:36:18 -2.6 C 46 %
3053 08-02-2020 04:46:18 -2.2 C 46 %
3054 08-02-2020 04:56:18 -2.6 C 46 %
3055 08-02-2020 05:06:18 -2.6 C 46 %
3056 08-02-2020 05:16:18 -2.7 C 46 %
3057 08-02-2020 05:26:18 -2.6 C 46 %
3058 08-02-2020 05:36:18 -2.7 C 46 %
3059 08-02-2020 05:46:18 -2.6 C 46 %
3060 08-02-2020 05:56:18 -2.6 C 46 %
3061 08-02-2020 06:06:18 -2.5 C 46 %
3062 08-02-2020 06:16:18 -2.5 C 46 %
3063 08-02-2020 06:26:18 -2.6 C 46 %
3064 08-02-2020 06:36:18 -2.7 C 46 %
3065 08-02-2020 06:46:18 -2.3 C 46 %
3066 08-02-2020 06:56:18 -2.1 C 46 %
3067 08-02-2020 07:06:18 -2.1 C 46 %
3068 08-02-2020 07:16:18 -2.4 C 46 %
3069 08-02-2020 07:26:18 -2.2 C 46 %
3070 08-02-2020 07:36:18 -2.1 C 46 %
3071 08-02-2020 07:46:18 -2 C 46 %
3072 08-02-2020 07:56:18 -1.8 C 47 %
3073 08-02-2020 08:06:18 -1.7 C 46 %
3074 08-02-2020 08:16:18 -1.8 C 46 %
3075 08-02-2020 08:26:18 -1.8 C 46 %
Sensor: Nr:Datum:Temp:Feuchte:
Aussen-T/F 3076 08-02-2020 08:36:18 -1.5 C 46 %
3077 08-02-2020 08:46:18 -1.2 C 47 %
3078 08-02-2020 08:56:18 -1 C 47 %
3079 08-02-2020 09:06:18 -0.8 C 47 %
3080 08-02-2020 09:16:18 -0.5 C 47 %
3081 08-02-2020 09:26:18 -0.2 C 47 %
3082 08-02-2020 09:36:18 0 C 47 %
3083 08-02-2020 09:46:18 0.1 C 46 %
3084 08-02-2020 09:56:18 0.3 C 46 %
3085 08-02-2020 10:06:18 0.6 C 45 %
3086 08-02-2020 10:16:18 0.7 C 44 %
3087 08-02-2020 10:26:18 1 C 43 %
3088 08-02-2020 10:36:18 1.3 C 44 %
3089 08-02-2020 10:46:18 1.3 C 43 %
3090 08-02-2020 10:56:18 1.6 C 44 %
3091 08-02-2020 11:06:18 1.5 C 42 %
3092 08-02-2020 11:16:17 1.7 C 42 %
3093 08-02-2020 11:26:17 1.7 C 42 %
3094 08-02-2020 11:36:17 1.9 C 42 %
3095 08-02-2020 11:46:17 2 C 42 %
3096 08-02-2020 11:56:17 2.4 C 45 %
3097 08-02-2020 12:06:17 2.3 C 42 %
3098 08-02-2020 12:16:18 2.4 C 40 %
3099 08-02-2020 12:26:18 2.9 C 41 %
3100 08-02-2020 12:36:18 2.7 C 40 %
Sensor: Nr:Datum:Temp:Feuchte:
Aussen-T/F 3101 08-02-2020 12:46:17 2.7 C 40 %
3102 08-02-2020 12:56:18 2.8 C 41 %
3103 08-02-2020 13:06:18 3.1 C 41 %
3104 08-02-2020 13:16:18 3.3 C 41 %
3105 08-02-2020 13:26:18 3.4 C 42 %
3106 08-02-2020 13:36:17 3.6 C 43 %
3107 08-02-2020 13:46:18 3.5 C 37 %
3108 08-02-2020 13:56:18 3.6 C 37 %
3109 08-02-2020 14:06:17 4.3 C 36 %
3110 08-02-2020 14:16:17 4.4 C 35 %
3111 08-02-2020 14:26:17 4.3 C 34 %
3112 08-02-2020 14:36:17 4.7 C 34 %
3113 08-02-2020 14:46:17 4.8 C 34 %
3114 08-02-2020 14:56:17 5.2 C 33 %
3115 08-02-2020 15:06:17 5.2 C 33 %
3116 08-02-2020 15:16:17 5 C 33 %
3117 08-02-2020 15:26:17 5.2 C 33 %
3118 08-02-2020 15:36:18 5.1 C 33 %
3119 08-02-2020 15:46:17 5 C 34 %
3120 08-02-2020 15:56:18 5.1 C 34 %
3121 08-02-2020 16:06:18 4.7 C 35 %
3122 08-02-2020 16:16:18 4.6 C 36 %
3123 08-02-2020 16:26:18 4.5 C 36 %
3124 08-02-2020 16:36:17 4.3 C 37 %
3125 08-02-2020 16:46:17 4.3 C 37 %
Sensor: Nr:Datum:Temp:Feuchte:
Aussen-T/F 3126 08-02-2020 16:56:17 4.1 C 38 %
3127 08-02-2020 17:06:17 4 C 38 %
3128 08-02-2020 17:16:18 4 C 38 %
3129 08-02-2020 17:26:18 4.1 C 39 %
3130 08-02-2020 17:36:17 4 C 39 %
3131 08-02-2020 17:46:17 3.9 C 40 %
3132 08-02-2020 17:56:17 3.8 C 41 %
3133 08-02-2020 18:06:17 3.7 C 41 %
3134 08-02-2020 18:16:18 3.7 C 41 %
3135 08-02-2020 18:26:18 3.6 C 41 %
3136 08-02-2020 18:36:18 3.6 C 41 %
3137 08-02-2020 18:46:18 3.6 C 41 %
3138 08-02-2020 18:56:18 3.6 C 40 %
3139 08-02-2020 19:06:18 3.6 C 41 %
3140 08-02-2020 19:16:18 3.6 C 41 %
3141 08-02-2020 19:26:18 3.6 C 41 %
3142 08-02-2020 19:36:17 3.7 C 42 %
3143 08-02-2020 19:46:18 3.8 C 41 %
3144 08-02-2020 19:56:18 3.7 C 41 %
3145 08-02-2020 20:06:17 3.6 C 42 %
3146 08-02-2020 20:16:17 3.5 C 42 %
3147 08-02-2020 20:26:17 3.3 C 42 %
3148 08-02-2020 20:36:17 3.2 C 43 %
3149 08-02-2020 20:46:17 3 C 43 %
3150 08-02-2020 20:56:17 2.8 C 45 %
Sensor: Nr:Datum:Temp:Feuchte:
Aussen-T/F 3151 08-02-2020 21:06:17 3 C 45 %
3152 08-02-2020 21:16:17 2.9 C 45 %
3153 08-02-2020 21:26:17 2.7 C 44 %
3154 08-02-2020 21:36:17 2.6 C 45 %
3155 08-02-2020 21:46:17 2.5 C 45 %
3156 08-02-2020 21:56:17 2.2 C 45 %
3157 08-02-2020 22:06:18 1.9 C 45 %
3158 08-02-2020 22:16:17 1.9 C 46 %
3159 08-02-2020 22:26:17 1.9 C 47 %
3160 08-02-2020 22:36:17 2 C 46 %
3161 08-02-2020 22:46:17 2.1 C 46 %
3162 08-02-2020 22:56:17 2.1 C 46 %
3163 08-02-2020 23:06:17 2.5 C 46 %
3164 08-02-2020 23:16:18 2.7 C 46 %
3165 08-02-2020 23:26:18 2.4 C 46 %
3166 08-02-2020 23:36:18 1.9 C 46 %
3167 08-02-2020 23:46:17 2.2 C 46 %
3168 08-02-2020 23:56:17 2.5 C 46 %
3169 09-02-2020 00:06:17 2.7 C 46 %
3170 09-02-2020 00:16:18 2.6 C 46 %
3171 09-02-2020 00:26:18 2.7 C 46 %
3172 09-02-2020 00:36:18 2.8 C 46 %
3173 09-02-2020 00:46:18 2.8 C 46 %
3174 09-02-2020 00:56:18 2.8 C 45 %
3175 09-02-2020 01:06:18 2.8 C 45 %
Sensor: Nr:Datum:Temp:Feuchte:
Aussen-T/F 3176 09-02-2020 01:16:18 2.2 C 44 %
3177 09-02-2020 01:26:18 2.1 C 45 %
3178 09-02-2020 01:36:17 1.6 C 45 %
3179 09-02-2020 01:46:18 1.6 C 46 %
3180 09-02-2020 01:56:18 1.5 C 46 %
3181 09-02-2020 02:06:18 1.3 C 46 %
3182 09-02-2020 02:16:18 1.9 C 47 %
3183 09-02-2020 02:26:18 2.2 C 46 %
3184 09-02-2020 02:36:18 2.3 C 46 %
3185 09-02-2020 02:46:17 2.3 C 46 %
3186 09-02-2020 02:56:17 2.3 C 46 %
3187 09-02-2020 03:06:17 1.8 C 46 %
3188 09-02-2020 03:16:17 1.3 C 45 %
3189 09-02-2020 03:26:17 0.9 C 47 %
3190 09-02-2020 03:36:17 1.2 C 47 %
3191 09-02-2020 03:46:17 0.9 C 47 %
3192 09-02-2020 03:56:17 0.8 C 47 %
3193 09-02-2020 04:06:18 1.5 C 47 %
3194 09-02-2020 04:16:18 2 C 46 %
3195 09-02-2020 04:26:18 2.1 C 46 %
3196 09-02-2020 04:36:17 2 C 46 %
3197 09-02-2020 04:46:18 2.1 C 46 %
3198 09-02-2020 04:56:18 2.3 C 46 %
3199 09-02-2020 05:06:18 2.4 C 46 %
3200 09-02-2020 05:16:17 2.4 C 46 %
Sensor: Nr:Datum:Temp:Feuchte:
Aussen-T/F 3201 09-02-2020 05:26:17 2.8 C 46 %
3202 09-02-2020 05:36:17 2.9 C 45 %
3203 09-02-2020 05:46:17 2.7 C 45 %
3204 09-02-2020 05:56:17 2.8 C 45 %
3205 09-02-2020 06:06:18 2.5 C 45 %
3206 09-02-2020 06:16:18 2.1 C 44 %
3207 09-02-2020 06:26:18 1.7 C 45 %
3208 09-02-2020 06:36:18 1.5 C 46 %
3209 09-02-2020 06:46:18 2 C 46 %
3210 09-02-2020 06:56:18 2.2 C 46 %
3211 09-02-2020 07:06:18 2.3 C 46 %
3212 09-02-2020 07:16:17 2.5 C 46 %
3213 09-02-2020 07:26:17 3.7 C 46 %
3214 09-02-2020 07:36:18 4.2 C 45 %
3215 09-02-2020 07:46:18 5.2 C 44 %
3216 09-02-2020 07:56:18 5.6 C 44 %
3217 09-02-2020 08:06:18 5.3 C 42 %
3218 09-02-2020 08:16:17 6 C 40 %
3219 09-02-2020 08:26:17 8 C 35 %
3220 09-02-2020 08:36:17 8.7 C 33 %
3221 09-02-2020 08:46:17 8.6 C 33 %
3222 09-02-2020 08:56:17 9 C 32 %
3223 09-02-2020 09:06:18 9.6 C 32 %
3224 09-02-2020 09:16:18 10.1 C 30 %
3225 09-02-2020 09:26:18 10.4 C 30 %
Sensor: Nr:Datum:Temp:Feuchte:
Aussen-T/F 3226 09-02-2020 09:36:17 10.4 C 30 %
3227 09-02-2020 09:46:18 10.2 C 30 %
3228 09-02-2020 09:56:18 10 C 30 %
3229 09-02-2020 10:06:17 10.2 C 30 %
3230 09-02-2020 10:16:17 10.5 C 30 %
3231 09-02-2020 10:26:18 10.6 C 29 %
3232 09-02-2020 10:36:18 10.8 C 28 %
3233 09-02-2020 10:46:17 10.8 C 28 %
3234 09-02-2020 10:56:18 11 C 28 %
3235 09-02-2020 11:06:18 11.2 C 26 %
3236 09-02-2020 11:16:18 11.6 C 26 %
3237 09-02-2020 11:26:18 12.4 C 25 %
3238 09-02-2020 11:36:18 12 C 23 %
3239 09-02-2020 11:46:18 11.8 C 25 %
3240 09-02-2020 11:56:18 11.8 C 25 %
3241 09-02-2020 12:06:17 11.6 C 25 %
3242 09-02-2020 12:16:17 11.7 C 25 %
3243 09-02-2020 12:26:17 11.5 C 24 %
3244 09-02-2020 12:36:18 11.5 C 24 %
3245 09-02-2020 12:46:17 11.2 C 24 %
3246 09-02-2020 12:56:17 11 C 24 %
3247 09-02-2020 13:06:18 11.1 C 24 %
3248 09-02-2020 13:16:18 10.9 C 25 %
3249 09-02-2020 13:26:18 10.9 C 25 %
3250 09-02-2020 13:36:18 10.9 C 25 %
Sensor: Nr:Datum:Temp:Feuchte:
Aussen-T/F 3251 09-02-2020 13:46:18 11.2 C 24 %
3252 09-02-2020 13:56:18 11.5 C 23 %
3253 09-02-2020 14:06:17 11.9 C 23 %
3254 09-02-2020 14:16:17 12.1 C 20 %
3255 09-02-2020 14:26:18 12.2 C 20 %
3256 09-02-2020 14:36:18 12.1 C 20 %
3257 09-02-2020 14:46:18 12.1 C 20 %
3258 09-02-2020 14:56:18 12 C 20 %
3259 09-02-2020 15:06:18 12 C 20 %
3260 09-02-2020 15:16:17 12 C 20 %
3261 09-02-2020 15:26:17 12.2 C 20 %
3262 09-02-2020 15:36:17 12.3 C 20 %
3263 09-02-2020 15:46:17 12.3 C 20 %
3264 09-02-2020 15:56:17 12.1 C 20 %
3265 09-02-2020 16:06:17 12 C 20 %
3266 09-02-2020 16:16:17 12 C 20 %
3267 09-02-2020 16:26:17 12 C 20 %
3268 09-02-2020 16:36:17 12.2 C 20 %
3269 09-02-2020 16:46:18 12.2 C 20 %
3270 09-02-2020 16:56:18 12.6 C 20 %
3271 09-02-2020 17:06:18 12.4 C 20 %
3272 09-02-2020 17:16:17 12.4 C 20 %
3273 09-02-2020 17:26:17 12.7 C 20 %
3274 09-02-2020 17:36:17 12.8 C 20 %
3275 09-02-2020 17:46:17 12.8 C 20 %
Sensor: Nr:Datum:Temp:Feuchte:
Aussen-T/F 3276 09-02-2020 17:56:17 12.7 C 20 %
3277 09-02-2020 18:06:17 12.7 C 20 %
3278 09-02-2020 18:16:17 12.7 C 20 %
3279 09-02-2020 18:26:17 12.4 C 20 %
3280 09-02-2020 18:36:17 12.3 C 22 %
3281 09-02-2020 18:46:17 12.3 C 23 %
3282 09-02-2020 18:56:17 12.3 C 23 %
3283 09-02-2020 19:06:18 12.2 C 24 %
3284 09-02-2020 19:16:17 12.2 C 24 %
3285 09-02-2020 19:26:17 12.2 C 24 %
3286 09-02-2020 19:36:18 12.2 C 24 %
3287 09-02-2020 19:46:18 12.2 C 24 %
3288 09-02-2020 19:56:18 12.5 C 24 %
3289 09-02-2020 20:06:17 12.5 C 24 %
3290 09-02-2020 20:16:17 12.5 C 24 %
3291 09-02-2020 20:26:17 12.7 C 24 %
3292 09-02-2020 20:36:18 12.7 C 24 %
3293 09-02-2020 20:46:17 12.6 C 25 %
3294 09-02-2020 20:56:17 12.5 C 25 %
3295 09-02-2020 21:06:17 12.1 C 26 %
3296 09-02-2020 21:16:17 11.2 C 30 %
3297 09-02-2020 21:26:17 11.5 C 30 %
3298 09-02-2020 21:36:17 11.6 C 30 %
3299 09-02-2020 21:46:18 11.6 C 30 %
3300 09-02-2020 21:56:18 11.2 C 31 %
Sensor: Nr:Datum:Temp:Feuchte:
Aussen-T/F 3301 09-02-2020 22:06:18 10.8 C 33 %
3302 09-02-2020 22:16:17 10.8 C 33 %
3303 09-02-2020 22:26:17 10.9 C 33 %
3304 09-02-2020 22:36:17 11.7 C 31 %
3305 09-02-2020 22:46:18 11.3 C 32 %
3306 09-02-2020 22:56:18 10.7 C 35 %
3307 09-02-2020 23:06:17 10.9 C 35 %
3308 09-02-2020 23:16:17 10.7 C 35 %
3309 09-02-2020 23:26:17 10.5 C 35 %
3310 09-02-2020 23:36:18 10.7 C 35 %
3311 09-02-2020 23:46:18 10.6 C 35 %
3312 09-02-2020 23:56:18 11 C 34 %
3313 10-02-2020 00:06:18 10.9 C 35 %
3314 10-02-2020 00:16:18 11.1 C 34 %
3315 10-02-2020 00:26:18 10.9 C 35 %
3316 10-02-2020 00:36:17 11.3 C 35 %
3317 10-02-2020 00:46:17 11.1 C 35 %
3318 10-02-2020 00:56:17 11 C 35 %
3319 10-02-2020 01:06:17 10.8 C 37 %
3320 10-02-2020 01:16:17 10.8 C 36 %
3321 10-02-2020 01:26:17 10.8 C 37 %
3322 10-02-2020 01:36:18 10.7 C 39 %
3323 10-02-2020 01:46:18 10.7 C 40 %
3324 10-02-2020 01:56:18 9.5 C 38 %
3325 10-02-2020 02:06:18 8.8 C 40 %
Sensor: Nr:Datum:Temp:Feuchte:
Aussen-T/F 3326 10-02-2020 02:16:17 8.7 C 39 %
3327 10-02-2020 02:26:17 8.6 C 36 %
3328 10-02-2020 02:36:17 8.5 C 36 %
3329 10-02-2020 02:46:17 8.3 C 36 %
3330 10-02-2020 02:56:17 8 C 36 %
3331 10-02-2020 03:06:17 8.4 C 35 %
3332 10-02-2020 03:16:17 8.3 C 35 %
3333 10-02-2020 03:26:17 8.7 C 35 %
3334 10-02-2020 03:36:18 9.2 C 33 %
3335 10-02-2020 03:46:17 9.6 C 32 %
3336 10-02-2020 03:56:17 9.6 C 32 %
3337 10-02-2020 04:06:18 9.6 C 32 %
3338 10-02-2020 04:16:17 9.7 C 32 %
3339 10-02-2020 04:26:17 9.6 C 31 %
3340 10-02-2020 04:36:17 9.8 C 31 %
3341 10-02-2020 04:46:17 10 C 30 %
3342 10-02-2020 04:56:17 9.9 C 31 %
3343 10-02-2020 05:06:17 10.1 C 30 %
3344 10-02-2020 05:16:18 10 C 30 %
3345 10-02-2020 05:26:18 10 C 30 %
3346 10-02-2020 05:36:18 9.7 C 30 %
3347 10-02-2020 05:46:18 9.6 C 30 %
3348 10-02-2020 05:56:18 9.5 C 31 %
3349 10-02-2020 06:06:18 9 C 31 %
3350 10-02-2020 06:16:18 8.5 C 33 %
Sensor: Nr:Datum:Temp:Feuchte:
Aussen-T/F 3351 10-02-2020 06:26:18 8.2 C 35 %
3352 10-02-2020 06:36:17 8 C 34 %
3353 10-02-2020 06:46:18 9.1 C 30 %
3354 10-02-2020 06:56:18 9 C 29 %
3355 10-02-2020 07:06:17 8.9 C 30 %
3356 10-02-2020 07:16:17 8.7 C 30 %
3357 10-02-2020 07:26:17 9 C 28 %
3358 10-02-2020 07:36:17 8.4 C 30 %
3359 10-02-2020 07:46:18 8.5 C 29 %
3360 10-02-2020 07:56:18 8.5 C 29 %
3361 10-02-2020 08:06:17 8.9 C 28 %
3362 10-02-2020 08:16:17 8.1 C 29 %
3363 10-02-2020 08:26:17 7.9 C 30 %
3364 10-02-2020 08:36:17 7.1 C 32 %
3365 10-02-2020 08:46:17 7.3 C 31 %
3366 10-02-2020 08:56:17 7.3 C 31 %
3367 10-02-2020 09:06:17 7.7 C 27 %
3368 10-02-2020 09:16:17 7.3 C 28 %
3369 10-02-2020 09:26:17 7.6 C 26 %
3370 10-02-2020 09:36:18 7.5 C 27 %
3371 10-02-2020 09:46:18 7.3 C 27 %
3372 10-02-2020 09:56:18 7.3 C 27 %
3373 10-02-2020 10:06:18 7.6 C 26 %
3374 10-02-2020 10:16:17 8 C 26 %
3375 10-02-2020 10:26:17 8 C 25 %
Sensor: Nr:Datum:Temp:Feuchte:
Aussen-T/F 3376 10-02-2020 10:36:17 8.2 C 25 %
3377 10-02-2020 10:46:17 6.8 C 28 %
3378 10-02-2020 10:56:18 8.2 C 26 %
3379 10-02-2020 11:06:18 8.8 C 21 %
3380 10-02-2020 11:16:17 9.2 C 20 %
3381 10-02-2020 11:26:17 9.3 C 20 %
3382 10-02-2020 11:36:17 9 C 20 %
3383 10-02-2020 11:46:17 9.1 C 20 %
3384 10-02-2020 11:56:17 9.1 C 20 %
3385 10-02-2020 12:06:17 8.1 C 20 %
3386 10-02-2020 12:16:18 5.1 C 35 %
3387 10-02-2020 12:26:18 4.9 C 36 %
3388 10-02-2020 12:36:18 6.8 C 33 %
3389 10-02-2020 12:46:17 7.3 C 31 %
3390 10-02-2020 12:56:17 8.8 C 26 %
3391 10-02-2020 13:06:17 9.4 C 20 %
3392 10-02-2020 13:16:17 9.3 C 20 %
3393 10-02-2020 13:26:17 8.8 C 20 %
3394 10-02-2020 13:36:18 9.5 C 20 %
3395 10-02-2020 13:46:18 9.2 C 20 %
3396 10-02-2020 13:56:18 9 C 20 %
3397 10-02-2020 14:06:17 8.6 C 20 %
3398 10-02-2020 14:16:18 7.3 C 27 %
3399 10-02-2020 14:26:18 7.6 C 27 %
3400 10-02-2020 14:36:18 7.7 C 27 %
Sensor: Nr:Datum:Temp:Feuchte:
Aussen-T/F 3401 10-02-2020 14:46:17 8 C 26 %
3402 10-02-2020 14:56:17 8.2 C 26 %
3403 10-02-2020 15:06:17 8.1 C 26 %
3404 10-02-2020 15:16:18 8.6 C 25 %
3405 10-02-2020 15:26:18 8.7 C 23 %
3406 10-02-2020 15:36:18 7.6 C 25 %
3407 10-02-2020 15:46:18 7.7 C 25 %
3408 10-02-2020 15:56:18 7.6 C 26 %
3409 10-02-2020 16:06:17 7.7 C 25 %
3410 10-02-2020 16:16:17 7.8 C 25 %
3411 10-02-2020 16:26:17 7.8 C 26 %
3412 10-02-2020 16:36:17 7.4 C 27 %
3413 10-02-2020 16:46:17 7.3 C 27 %
3414 10-02-2020 16:56:17 6.9 C 30 %
3415 10-02-2020 17:06:18 6.7 C 30 %
3416 10-02-2020 17:16:17 6.8 C 30 %
3417 10-02-2020 17:26:17 6.6 C 30 %
3418 10-02-2020 17:36:17 6.5 C 30 %
3419 10-02-2020 17:46:17 6 C 32 %
3420 10-02-2020 17:56:17 5.8 C 36 %
3421 10-02-2020 18:06:17 5.5 C 37 %
3422 10-02-2020 18:16:18 4.9 C 39 %
3423 10-02-2020 18:26:18 4.9 C 40 %
3424 10-02-2020 18:36:18 5 C 40 %
3425 10-02-2020 18:46:18 5.5 C 39 %
Sensor: Nr:Datum:Temp:Feuchte:
Aussen-T/F 3426 10-02-2020 18:56:18 5.4 C 38 %
3427 10-02-2020 19:06:18 5.5 C 38 %
3428 10-02-2020 19:16:18 5.4 C 39 %
3429 10-02-2020 19:26:18 5.4 C 38 %
3430 10-02-2020 19:36:17 5.1 C 40 %
3431 10-02-2020 19:46:18 5 C 41 %
3432 10-02-2020 19:56:18 4.7 C 42 %
3433 10-02-2020 20:06:17 4.6 C 44 %
3434 10-02-2020 20:16:17 4.5 C 45 %
3435 10-02-2020 20:26:17 4.5 C 45 %
3436 10-02-2020 20:36:18 4.3 C 45 %
3437 10-02-2020 20:46:18 4.3 C 43 %
3438 10-02-2020 20:56:18 4.4 C 43 %
3439 10-02-2020 21:06:18 4.1 C 43 %
3440 10-02-2020 21:16:17 3.9 C 45 %
3441 10-02-2020 21:26:17 4 C 45 %
3442 10-02-2020 21:36:17 5.3 C 43 %
3443 10-02-2020 21:46:18 6.3 C 36 %
3444 10-02-2020 21:56:18 6.9 C 35 %
3445 10-02-2020 22:06:18 7 C 33 %
3446 10-02-2020 22:16:17 7 C 33 %
3447 10-02-2020 22:26:17 7 C 33 %
3448 10-02-2020 22:36:17 7.1 C 32 %
3449 10-02-2020 22:46:17 7.3 C 32 %
3450 10-02-2020 22:56:17 7.3 C 31 %
Sensor: Nr:Datum:Temp:Feuchte:
Aussen-T/F 3451 10-02-2020 23:06:17 7.6 C 30 %
3452 10-02-2020 23:16:17 7.7 C 29 %
3453 10-02-2020 23:26:17 7.6 C 28 %
3454 10-02-2020 23:36:18 7.4 C 28 %
3455 10-02-2020 23:46:18 7.3 C 28 %
3456 10-02-2020 23:56:18 7.3 C 27 %
3457 11-02-2020 00:06:17 7.5 C 26 %
3458 11-02-2020 00:16:17 7.4 C 26 %
3459 11-02-2020 00:26:17 7.7 C 25 %
3460 11-02-2020 00:36:17 4.6 C 35 %
3461 11-02-2020 00:46:17 4.4 C 36 %
3462 11-02-2020 00:56:17 4.4 C 35 %
3463 11-02-2020 01:06:17 4.5 C 34 %
3464 11-02-2020 01:16:17 4.6 C 33 %
3465 11-02-2020 01:26:17 4.7 C 32 %
3466 11-02-2020 01:36:17 4.7 C 31 %
3467 11-02-2020 01:46:17 4.5 C 31 %
3468 11-02-2020 01:56:17 4.7 C 30 %
3469 11-02-2020 02:06:17 5.1 C 27 %
3470 11-02-2020 02:16:17 5.3 C 26 %
3471 11-02-2020 02:26:17 5.3 C 26 %
3472 11-02-2020 02:36:17 4.8 C 27 %
3473 11-02-2020 02:46:17 4.3 C 30 %
3474 11-02-2020 02:56:17 4.1 C 30 %
3475 11-02-2020 03:06:17 4.8 C 29 %
Sensor: Nr:Datum:Temp:Feuchte:
Aussen-T/F 3476 11-02-2020 03:16:17 5.3 C 26 %
3477 11-02-2020 03:26:17 5.4 C 25 %
3478 11-02-2020 03:36:17 5.3 C 25 %
3479 11-02-2020 03:46:18 5.6 C 23 %
3480 11-02-2020 03:56:18 5.5 C 21 %
3481 11-02-2020 04:06:18 5.4 C 20 %
3482 11-02-2020 04:16:17 5.4 C 20 %
3483 11-02-2020 04:26:17 5.6 C 20 %
3484 11-02-2020 04:36:17 5.3 C 20 %
3485 11-02-2020 04:46:17 5.6 C 20 %
3486 11-02-2020 04:56:17 5.6 C 20 %
3487 11-02-2020 05:06:18 5.5 C 20 %
3488 11-02-2020 05:16:18 5.8 C 20 %
3489 11-02-2020 05:26:18 3.9 C 33 %
3490 11-02-2020 05:36:18 4.2 C 32 %
3491 11-02-2020 05:46:17 4.1 C 32 %
3492 11-02-2020 05:56:18 3.7 C 34 %
3493 11-02-2020 06:06:18 3.8 C 33 %
3494 11-02-2020 06:16:17 4.8 C 30 %
3495 11-02-2020 06:26:17 5 C 25 %
3496 11-02-2020 06:36:18 5.1 C 23 %
3497 11-02-2020 06:46:17 5 C 23 %
3498 11-02-2020 06:56:18 4 C 29 %
3499 11-02-2020 07:06:18 3.7 C 32 %
3500 11-02-2020 07:16:18 3.2 C 34 %
Sensor: Nr:Datum:Temp:Feuchte:
Aussen-T/F 3501 11-02-2020 07:26:18 4.1 C 31 %
3502 11-02-2020 07:36:18 3.8 C 31 %
3503 11-02-2020 07:46:17 4.4 C 30 %
3504 11-02-2020 07:56:17 4.5 C 29 %
3505 11-02-2020 08:06:18 4.5 C 29 %
3506 11-02-2020 08:16:17 4.6 C 28 %
3507 11-02-2020 08:26:17 4.9 C 27 %
3508 11-02-2020 08:36:17 4 C 31 %
3509 11-02-2020 08:46:17 3.9 C 33 %
3510 11-02-2020 08:56:17 4.1 C 32 %
3511 11-02-2020 09:06:17 4.3 C 31 %
3512 11-02-2020 09:16:17 4.6 C 31 %
3513 11-02-2020 09:26:17 4.6 C 31 %
3514 11-02-2020 09:36:18 4.5 C 31 %
3515 11-02-2020 09:46:18 4.6 C 31 %
3516 11-02-2020 09:56:18 5.1 C 29 %
3517 11-02-2020 10:06:18 5.3 C 28 %
3518 11-02-2020 10:16:17 5.9 C 26 %
3519 11-02-2020 10:26:17 5.9 C 25 %
3520 11-02-2020 10:36:17 5.9 C 25 %
3521 11-02-2020 10:46:17 5.4 C 25 %
3522 11-02-2020 10:56:17 5.8 C 25 %
3523 11-02-2020 11:06:17 6.2 C 26 %
3524 11-02-2020 11:16:17 6.6 C 20 %
3525 11-02-2020 11:26:17 6.9 C 20 %
Sensor: Nr:Datum:Temp:Feuchte:
Aussen-T/F 3526 11-02-2020 11:36:18 6.7 C 20 %
3527 11-02-2020 11:46:18 6.5 C 20 %
3528 11-02-2020 11:56:18 6.7 C 20 %
3529 11-02-2020 12:06:18 6.8 C 20 %
3530 11-02-2020 12:16:17 6.7 C 20 %
3531 11-02-2020 12:26:17 6.8 C 20 %
3532 11-02-2020 12:36:17 7 C 20 %
3533 11-02-2020 12:46:17 7.3 C 20 %
3534 11-02-2020 12:56:17 6.4 C 20 %
3535 11-02-2020 13:06:18 5.7 C 20 %
3536 11-02-2020 13:16:18 6.4 C 20 %
3537 11-02-2020 13:26:18 5.9 C 20 %
3538 11-02-2020 13:36:18 7.8 C 20 %
3539 11-02-2020 13:46:17 7.4 C 20 %
3540 11-02-2020 13:56:17 7.1 C 20 %
3541 11-02-2020 14:06:17 6.9 C 20 %
3542 11-02-2020 14:16:17 4.6 C 20 %
3543 11-02-2020 14:26:17 3.8 C 35 %
3544 11-02-2020 14:36:17 5 C 32 %
3545 11-02-2020 14:46:17 5 C 31 %
3546 11-02-2020 14:56:17 5.6 C 25 %
3547 11-02-2020 15:06:17 5.7 C 25 %
3548 11-02-2020 15:16:17 5.3 C 25 %
3549 11-02-2020 15:26:17 6.6 C 25 %
3550 11-02-2020 15:36:17 6.8 C 25 %
Sensor: Nr:Datum:Temp:Feuchte:
Aussen-T/F 3551 11-02-2020 15:46:17 6.9 C 25 %
3552 11-02-2020 15:56:17 7 C 25 %
3553 11-02-2020 16:06:17 7.4 C 20 %
3554 11-02-2020 16:16:18 7.1 C 20 %
3555 11-02-2020 16:26:18 7.5 C 20 %
3556 11-02-2020 16:36:17 7.2 C 20 %
3557 11-02-2020 16:46:17 6.5 C 20 %
3558 11-02-2020 16:56:17 6.5 C 20 %
3559 11-02-2020 17:06:18 6.1 C 20 %
3560 11-02-2020 17:16:17 5.9 C 21 %
3561 11-02-2020 17:26:17 5.6 C 21 %
3562 11-02-2020 17:36:17 5.8 C 21 %
3563 11-02-2020 17:46:17 5.8 C 20 %
3564 11-02-2020 17:56:17 5.9 C 20 %
3565 11-02-2020 18:06:17 5.8 C 20 %
3566 11-02-2020 18:16:17 5.7 C 20 %
3567 11-02-2020 18:26:17 5.2 C 20 %
3568 11-02-2020 18:36:17 5.3 C 20 %
3569 11-02-2020 18:46:17 5.4 C 21 %
3570 11-02-2020 18:56:18 5.2 C 23 %
3571 11-02-2020 19:06:18 5.1 C 23 %
3572 11-02-2020 19:16:18 4.9 C 26 %
3573 11-02-2020 19:26:18 4.8 C 26 %
3574 11-02-2020 19:36:17 4.6 C 27 %
3575 11-02-2020 19:46:18 4.6 C 27 %
Sensor: Nr:Datum:Temp:Feuchte:
Aussen-T/F 3576 11-02-2020 19:56:18 4.8 C 26 %
3577 11-02-2020 20:06:17 4.8 C 26 %
3578 11-02-2020 20:16:17 5.5 C 20 %
3579 11-02-2020 20:26:17 5.4 C 20 %
3580 11-02-2020 20:36:17 5.3 C 20 %
3581 11-02-2020 20:46:17 4.8 C 20 %
3582 11-02-2020 20:56:17 4.7 C 20 %
3583 11-02-2020 21:06:18 4.8 C 20 %
3584 11-02-2020 21:16:17 4.4 C 20 %
3585 11-02-2020 21:26:17 4.6 C 20 %
3586 11-02-2020 21:36:17 4.7 C 20 %
3587 11-02-2020 21:46:18 4.4 C 20 %
3588 11-02-2020 21:56:18 4.4 C 20 %
3589 11-02-2020 22:06:17 4.5 C 20 %
3590 11-02-2020 22:16:18 4.3 C 20 %
3591 11-02-2020 22:26:18 4.2 C 20 %
3592 11-02-2020 22:36:17 4.3 C 21 %
3593 11-02-2020 22:46:17 4.3 C 21 %
3594 11-02-2020 22:56:17 3.8 C 25 %
3595 11-02-2020 23:06:17 4 C 23 %
3596 11-02-2020 23:16:18 3.9 C 25 %
3597 11-02-2020 23:26:18 4.3 C 21 %
3598 11-02-2020 23:36:17 4.6 C 20 %
3599 11-02-2020 23:46:18 4.6 C 20 %
3600 11-02-2020 23:56:18 4.7 C 20 %
Sensor: Nr:Datum:Temp:Feuchte:
Aussen-T/F 3601 12-02-2020 00:06:18 4.9 C 20 %
3602 12-02-2020 00:16:17 4.8 C 20 %
3603 12-02-2020 00:26:17 4.6 C 21 %
3604 12-02-2020 00:36:18 4.7 C 21 %
3605 12-02-2020 00:46:17 4.9 C 21 %
3606 12-02-2020 00:56:18 4.6 C 25 %
3607 12-02-2020 01:06:18 4.6 C 25 %
3608 12-02-2020 01:16:18 4.3 C 25 %
3609 12-02-2020 01:26:18 4.5 C 26 %
3610 12-02-2020 01:36:17 4.6 C 26 %
3611 12-02-2020 01:46:18 4.7 C 25 %
3612 12-02-2020 01:56:18 4.7 C 26 %
3613 12-02-2020 02:06:18 4.5 C 25 %
3614 12-02-2020 02:16:17 4.5 C 25 %
3615 12-02-2020 02:26:17 4.3 C 26 %
3616 12-02-2020 02:36:18 4.2 C 25 %
3617 12-02-2020 02:46:18 4.2 C 26 %
3618 12-02-2020 02:56:18 4.2 C 26 %
3619 12-02-2020 03:06:18 4.1 C 26 %
3620 12-02-2020 03:16:17 4.2 C 26 %
3621 12-02-2020 03:26:17 4.3 C 26 %
3622 12-02-2020 03:36:17 4.2 C 26 %
3623 12-02-2020 03:46:17 4.1 C 26 %
3624 12-02-2020 03:56:17 3.8 C 28 %
3625 12-02-2020 04:06:17 4.2 C 27 %
Sensor: Nr:Datum:Temp:Feuchte:
Aussen-T/F 3626 12-02-2020 04:16:17 4.3 C 26 %
3627 12-02-2020 04:26:17 4.4 C 26 %
3628 12-02-2020 04:36:18 4.4 C 26 %
3629 12-02-2020 04:46:17 4.5 C 26 %
3630 12-02-2020 04:56:18 4.4 C 27 %
3631 12-02-2020 05:06:18 4.5 C 27 %
3632 12-02-2020 05:16:18 4.4 C 27 %
3633 12-02-2020 05:26:18 4.5 C 27 %
3634 12-02-2020 05:36:18 4.5 C 27 %
3635 12-02-2020 05:46:17 4.6 C 27 %
3636 12-02-2020 05:56:18 4.5 C 27 %
3637 12-02-2020 06:06:17 4.5 C 27 %
3638 12-02-2020 06:16:18 4.5 C 28 %
3639 12-02-2020 06:26:18 4.3 C 29 %
3640 12-02-2020 06:36:17 4.3 C 30 %
3641 12-02-2020 06:46:18 4.3 C 29 %
3642 12-02-2020 06:56:18 4.3 C 29 %
3643 12-02-2020 07:06:17 4.3 C 30 %
3644 12-02-2020 07:16:17 3.2 C 35 %
3645 12-02-2020 07:26:17 2.8 C 38 %
3646 12-02-2020 07:36:17 2.8 C 38 %
3647 12-02-2020 07:46:18 2.9 C 38 %
3648 12-02-2020 07:56:18 3 C 37 %
3649 12-02-2020 08:06:17 3.1 C 37 %
3650 12-02-2020 08:16:17 3.2 C 36 %
Sensor: Nr:Datum:Temp:Feuchte:
Aussen-T/F 3651 12-02-2020 08:26:17 3.3 C 36 %
3652 12-02-2020 08:36:17 3.2 C 36 %
3653 12-02-2020 08:46:17 3.5 C 35 %
3654 12-02-2020 08:56:17 3.6 C 35 %
3655 12-02-2020 09:06:17 3.5 C 35 %
3656 12-02-2020 09:16:17 3.7 C 35 %
3657 12-02-2020 09:26:18 3.9 C 34 %
3658 12-02-2020 09:36:18 3.7 C 34 %
3659 12-02-2020 09:46:17 4.2 C 32 %
3660 12-02-2020 09:56:17 4.7 C 32 %
3661 12-02-2020 10:06:17 4.3 C 32 %
3662 12-02-2020 10:16:18 3.6 C 35 %
3663 12-02-2020 10:26:18 3.6 C 37 %
3664 12-02-2020 10:36:17 3.9 C 38 %
3665 12-02-2020 10:46:17 4.4 C 35 %
3666 12-02-2020 10:56:17 5.4 C 32 %
3667 12-02-2020 11:06:17 5.3 C 32 %
3668 12-02-2020 11:16:17 5.4 C 31 %
3669 12-02-2020 11:26:17 5.7 C 31 %
3670 12-02-2020 11:36:17 5.3 C 31 %
3671 12-02-2020 11:46:17 4.7 C 32 %
3672 12-02-2020 11:56:17 4.5 C 32 %
3673 12-02-2020 12:06:18 4.7 C 32 %
3674 12-02-2020 12:16:18 5.4 C 31 %
3675 12-02-2020 12:26:18 5.1 C 31 %
Sensor: Nr:Datum:Temp:Feuchte:
Aussen-T/F 3676 12-02-2020 12:36:17 4.3 C 34 %
3677 12-02-2020 12:46:17 4.3 C 34 %
3678 12-02-2020 12:56:17 5.2 C 32 %
3679 12-02-2020 13:06:18 5.8 C 31 %
3680 12-02-2020 13:16:17 6.3 C 30 %
3681 12-02-2020 13:26:17 6.8 C 27 %
3682 12-02-2020 13:36:17 6.7 C 27 %
3683 12-02-2020 13:46:17 6.4 C 26 %
3684 12-02-2020 13:56:17 6.3 C 27 %
3685 12-02-2020 14:06:17 6.3 C 27 %
3686 12-02-2020 14:16:18 6.7 C 26 %
3687 12-02-2020 14:26:18 7 C 26 %
3688 12-02-2020 14:36:17 7.3 C 20 %
3689 12-02-2020 14:46:17 6.9 C 21 %
3690 12-02-2020 14:56:17 7.2 C 21 %
3691 12-02-2020 15:06:17 7 C 21 %
3692 12-02-2020 15:16:17 7.5 C 20 %
3693 12-02-2020 15:26:17 7.6 C 20 %
3694 12-02-2020 15:36:18 7.5 C 20 %
3695 12-02-2020 15:46:18 6.4 C 23 %
3696 12-02-2020 15:56:18 6.9 C 25 %
3697 12-02-2020 16:06:18 6.3 C 25 %
3698 12-02-2020 16:16:18 6.3 C 25 %
3699 12-02-2020 16:26:18 7 C 20 %
3700 12-02-2020 16:36:17 7.2 C 20 %
Sensor: Nr:Datum:Temp:Feuchte:
Aussen-T/F 3701 12-02-2020 16:46:17 7 C 23 %
3702 12-02-2020 16:56:18 6.6 C 23 %
3703 12-02-2020 17:06:18 5.8 C 25 %
3704 12-02-2020 17:16:17 5.4 C 25 %
3705 12-02-2020 17:26:17 5.4 C 25 %
3706 12-02-2020 17:36:17 5.1 C 26 %
3707 12-02-2020 17:46:17 5 C 26 %
3708 12-02-2020 17:56:17 4.5 C 30 %
3709 12-02-2020 18:06:17 4.2 C 31 %
3710 12-02-2020 18:16:17 4.2 C 31 %
3711 12-02-2020 18:26:17 4 C 32 %
3712 12-02-2020 18:36:17 4.1 C 31 %
3713 12-02-2020 18:46:17 3.7 C 33 %
3714 12-02-2020 18:56:17 3.9 C 33 %
3715 12-02-2020 19:06:18 4.1 C 32 %
3716 12-02-2020 19:17:17 3.9 C 33 %
3717 12-02-2020 19:27:17 3.7 C 33 %
3718 12-02-2020 19:36:17 3.6 C 33 %
3719 12-02-2020 19:46:17 3.3 C 35 %
3720 12-02-2020 19:56:17 3 C 35 %
3721 12-02-2020 20:06:17 3.1 C 36 %
3722 12-02-2020 20:16:17 1.8 C 39 %
3723 12-02-2020 20:26:17 1.7 C 41 %
3724 12-02-2020 20:36:18 1.7 C 41 %
3725 12-02-2020 20:46:17 2.5 C 39 %
Sensor: Nr:Datum:Temp:Feuchte:
Aussen-T/F 3726 12-02-2020 20:56:18 2.3 C 38 %
3727 12-02-2020 21:06:18 2 C 40 %
3728 12-02-2020 21:17:17 2.1 C 40 %
3729 12-02-2020 21:27:17 2.1 C 39 %
3730 12-02-2020 21:36:17 2.2 C 39 %
3731 12-02-2020 21:46:17 2.2 C 39 %
3732 12-02-2020 21:56:17 2.7 C 39 %
3733 12-02-2020 22:06:17 2.6 C 39 %
3734 12-02-2020 22:16:17 2.1 C 40 %
3735 12-02-2020 22:26:17 1.8 C 42 %
3736 12-02-2020 22:36:17 2 C 42 %
3737 12-02-2020 22:46:17 1.7 C 42 %
3738 12-02-2020 22:56:17 1.4 C 42 %
3739 12-02-2020 23:06:18 2.2 C 43 %
3740 12-02-2020 23:16:18 1.3 C 42 %
3741 12-02-2020 23:26:18 1.7 C 44 %
3742 12-02-2020 23:37:17 1.4 C 44 %
3743 12-02-2020 23:47:17 1.7 C 43 %
3744 12-02-2020 23:57:17 2.4 C 41 %
3745 13-02-2020 00:07:17 1.8 C 41 %
3746 13-02-2020 00:17:17 1.9 C 42 %
3747 13-02-2020 00:27:17 1.7 C 42 %
3748 13-02-2020 00:36:18 1.5 C 43 %
3749 13-02-2020 00:46:17 1.6 C 44 %
3750 13-02-2020 00:56:18 2 C 41 %
Sensor: Nr:Datum:Temp:Feuchte:
Aussen-T/F 3751 13-02-2020 01:06:18 1.7 C 42 %
3752 13-02-2020 01:17:17 1.6 C 43 %
3753 13-02-2020 01:27:17 1.7 C 43 %
3754 13-02-2020 01:37:17 1.6 C 43 %
3755 13-02-2020 01:47:17 1.6 C 43 %
3756 13-02-2020 01:57:17 1.3 C 43 %
3757 13-02-2020 02:07:18 1.3 C 43 %
3758 13-02-2020 02:17:18 0.6 C 45 %
3759 13-02-2020 02:27:18 0.2 C 45 %
3760 13-02-2020 02:37:17 0.2 C 47 %
3761 13-02-2020 02:47:17 0.1 C 47 %
3762 13-02-2020 02:57:17 0.1 C 47 %
3763 13-02-2020 03:07:17 0.4 C 48 %
3764 13-02-2020 03:17:17 0.4 C 47 %
3765 13-02-2020 03:27:17 0.4 C 46 %
3766 13-02-2020 03:37:17 -0.4 C 45 %
3767 13-02-2020 03:47:17 0.1 C 47 %
3768 13-02-2020 03:57:17 -0.1 C 47 %
3769 13-02-2020 04:07:17 -0.3 C 47 %
3770 13-02-2020 04:17:17 -0.3 C 47 %
3771 13-02-2020 04:27:17 -0.7 C 47 %
3772 13-02-2020 04:37:18 -0.7 C 47 %
3773 13-02-2020 04:47:17 -0.7 C 47 %
3774 13-02-2020 04:57:17 -0.7 C 47 %
3775 13-02-2020 05:07:18 -1 C 47 %
Sensor: Nr:Datum:Temp:Feuchte:
Aussen-T/F 3776 13-02-2020 05:17:17 -1.3 C 46 %
3777 13-02-2020 05:27:17 -1.3 C 47 %
3778 13-02-2020 05:37:17 -1.1 C 47 %
3779 13-02-2020 05:47:17 -1 C 47 %
3780 13-02-2020 05:57:17 -0.7 C 47 %
3781 13-02-2020 06:07:17 -0.2 C 47 %
3782 13-02-2020 06:17:17 -0.3 C 47 %
3783 13-02-2020 06:27:17 -0.3 C 47 %
3784 13-02-2020 06:37:18 -0.4 C 47 %
3785 13-02-2020 06:47:17 -0.4 C 47 %
3786 13-02-2020 06:57:18 -0.2 C 47 %
3787 13-02-2020 07:07:18 -0.2 C 47 %
3788 13-02-2020 07:17:18 -0.2 C 47 %
3789 13-02-2020 07:27:18 -0.2 C 47 %
3790 13-02-2020 07:37:17 0.1 C 47 %
3791 13-02-2020 07:47:18 0.6 C 47 %
3792 13-02-2020 07:57:18 0.8 C 47 %
3793 13-02-2020 08:07:17 0.9 C 47 %
3794 13-02-2020 08:17:17 1.1 C 46 %
3795 13-02-2020 08:27:17 1.4 C 46 %
3796 13-02-2020 08:37:17 1.6 C 46 %
3797 13-02-2020 08:47:17 2 C 45 %
3798 13-02-2020 08:57:17 2.2 C 43 %
3799 13-02-2020 09:07:18 2.3 C 43 %
3800 13-02-2020 09:17:17 2.5 C 42 %
Sensor: Nr:Datum:Temp:Feuchte:
Aussen-T/F 3801 13-02-2020 09:27:17 2.9 C 41 %
3802 13-02-2020 09:37:17 3 C 40 %
3803 13-02-2020 09:47:18 3 C 40 %
3804 13-02-2020 09:57:18 3 C 40 %
3805 13-02-2020 10:07:17 3 C 40 %
3806 13-02-2020 10:17:17 3.9 C 37 %
3807 13-02-2020 10:27:17 4.2 C 35 %
3808 13-02-2020 10:37:17 4.4 C 35 %
3809 13-02-2020 10:47:17 5.1 C 33 %
3810 13-02-2020 10:57:17 5.1 C 32 %
3811 13-02-2020 11:07:17 5.4 C 31 %
3812 13-02-2020 11:17:17 5.9 C 32 %
3813 13-02-2020 11:27:17 6.4 C 30 %
3814 13-02-2020 11:37:17 6.4 C 29 %
3815 13-02-2020 11:47:18 6.1 C 29 %
3816 13-02-2020 11:57:18 6 C 29 %
3817 13-02-2020 12:07:17 6 C 30 %
3818 13-02-2020 12:17:17 5.4 C 31 %
3819 13-02-2020 12:27:17 5 C 32 %
3820 13-02-2020 12:37:18 4.9 C 35 %
3821 13-02-2020 12:47:17 4.6 C 35 %
3822 13-02-2020 12:57:17 4.6 C 36 %
3823 13-02-2020 13:07:18 4.5 C 37 %
3824 13-02-2020 13:17:17 4.3 C 39 %
3825 13-02-2020 13:27:17 4.4 C 41 %
Sensor: Nr:Datum:Temp:Feuchte:
Aussen-T/F 3826 13-02-2020 13:37:17 4.4 C 40 %
3827 13-02-2020 13:47:17 4.3 C 40 %
3828 13-02-2020 13:57:17 4.6 C 39 %
3829 13-02-2020 14:07:17 4.4 C 39 %
3830 13-02-2020 14:17:17 4.3 C 40 %
3831 13-02-2020 14:27:17 4.9 C 41 %
3832 13-02-2020 14:37:17 4.8 C 40 %
3833 13-02-2020 14:47:17 4.8 C 40 %
3834 13-02-2020 14:57:17 4.8 C 41 %
3835 13-02-2020 15:07:17 4.8 C 42 %
3836 13-02-2020 15:17:17 5.1 C 42 %
3837 13-02-2020 15:27:17 5.3 C 41 %
3838 13-02-2020 15:37:18 5.5 C 41 %
3839 13-02-2020 15:47:18 5.4 C 41 %
3840 13-02-2020 15:57:18 6.9 C 38 %
3841 13-02-2020 16:07:17 8.4 C 35 %
3842 13-02-2020 16:17:17 10.2 C 31 %
3843 13-02-2020 16:27:17 8.7 C 32 %
3844 13-02-2020 16:37:17 6.9 C 36 %
3845 13-02-2020 16:47:18 5.9 C 41 %
3846 13-02-2020 16:57:18 5.8 C 43 %
3847 13-02-2020 17:07:17 5.8 C 43 %
3848 13-02-2020 17:17:17 5.7 C 43 %
3849 13-02-2020 17:27:17 5.6 C 43 %
3850 13-02-2020 17:37:17 5.2 C 44 %
Sensor: Nr:Datum:Temp:Feuchte:
Aussen-T/F 3851 13-02-2020 17:47:17 5 C 44 %
3852 13-02-2020 17:57:18 4.6 C 45 %
3853 13-02-2020 18:07:18 4.5 C 45 %
3854 13-02-2020 18:17:17 4.5 C 45 %
3855 13-02-2020 18:27:17 4.7 C 45 %
3856 13-02-2020 18:37:17 4.6 C 45 %
3857 13-02-2020 18:47:17 4.7 C 45 %
3858 13-02-2020 18:57:17 4.4 C 44 %
3859 13-02-2020 19:07:17 4.6 C 44 %
3860 13-02-2020 19:17:17 4.3 C 43 %
3861 13-02-2020 19:27:17 4.4 C 43 %
3862 13-02-2020 19:37:17 4.3 C 44 %
3863 13-02-2020 19:47:17 4.3 C 44 %
3864 13-02-2020 19:57:17 4.4 C 44 %
3865 13-02-2020 20:07:18 4.6 C 45 %
3866 13-02-2020 20:17:17 4.5 C 45 %
3867 13-02-2020 20:27:17 4.5 C 45 %
3868 13-02-2020 20:37:17 4.6 C 45 %
3869 13-02-2020 20:47:18 4.7 C 45 %
3870 13-02-2020 20:57:18 4.7 C 45 %
3871 13-02-2020 21:07:17 4.7 C 45 %
3872 13-02-2020 21:17:17 4.8 C 45 %
3873 13-02-2020 21:27:17 4.7 C 45 %
3874 13-02-2020 21:37:18 4.7 C 45 %
3875 13-02-2020 21:47:18 4.7 C 45 %
Sensor: Nr:Datum:Temp:Feuchte:
Aussen-T/F 3876 13-02-2020 21:57:18 5.3 C 45 %
3877 13-02-2020 22:07:17 5.8 C 45 %
3878 13-02-2020 22:17:17 5.9 C 41 %
3879 13-02-2020 22:27:17 6.1 C 40 %
3880 13-02-2020 22:37:17 6.3 C 40 %
3881 13-02-2020 22:47:17 6.5 C 38 %
3882 13-02-2020 22:57:17 6.8 C 37 %
3883 13-02-2020 23:07:17 6.4 C 37 %
3884 13-02-2020 23:17:17 6.1 C 40 %
3885 13-02-2020 23:27:17 5.8 C 42 %
3886 13-02-2020 23:37:17 5.7 C 45 %
3887 13-02-2020 23:47:18 5.8 C 44 %
3888 13-02-2020 23:57:18 5.8 C 43 %
3889 14-02-2020 00:07:18 5.8 C 43 %
3890 14-02-2020 00:17:17 5.8 C 42 %
3891 14-02-2020 00:27:17 5.8 C 42 %
3892 14-02-2020 00:37:17 5.8 C 43 %
3893 14-02-2020 00:47:17 5.8 C 42 %
3894 14-02-2020 00:57:17 5.7 C 42 %
3895 14-02-2020 01:07:17 5.6 C 41 %
3896 14-02-2020 01:17:18 5.7 C 40 %
3897 14-02-2020 01:27:18 5.6 C 41 %
3898 14-02-2020 01:37:18 5.9 C 39 %
3899 14-02-2020 01:47:18 5.6 C 40 %
3900 14-02-2020 01:57:18 5.5 C 41 %
Sensor: Nr:Datum:Temp:Feuchte:
Aussen-T/F 3901 14-02-2020 02:07:17 5.8 C 40 %
3902 14-02-2020 02:17:17 5.8 C 40 %
3903 14-02-2020 02:27:17 5.6 C 41 %
3904 14-02-2020 02:37:18 5.8 C 41 %
3905 14-02-2020 02:47:18 5.8 C 40 %
3906 14-02-2020 02:57:18 6 C 38 %
3907 14-02-2020 03:07:17 6 C 38 %
3908 14-02-2020 03:17:17 5.8 C 39 %
3909 14-02-2020 03:27:17 5.6 C 42 %
3910 14-02-2020 03:37:17 5.6 C 42 %
3911 14-02-2020 03:47:17 5.3 C 44 %
3912 14-02-2020 03:57:17 5.2 C 45 %
3913 14-02-2020 04:07:18 5.2 C 45 %
3914 14-02-2020 04:17:18 5.1 C 45 %
3915 14-02-2020 04:27:18 5 C 44 %
3916 14-02-2020 04:37:17 5 C 45 %
3917 14-02-2020 04:47:18 4.9 C 44 %
3918 14-02-2020 04:57:18 4.8 C 44 %
3919 14-02-2020 05:07:18 4.6 C 45 %
3920 14-02-2020 05:17:17 4.9 C 45 %
3921 14-02-2020 05:27:17 5 C 43 %
3922 14-02-2020 05:37:17 4.9 C 45 %
3923 14-02-2020 05:47:17 4.8 C 45 %
3924 14-02-2020 05:57:17 4.8 C 46 %
3925 14-02-2020 06:07:17 4.8 C 46 %
Sensor: Nr:Datum:Temp:Feuchte:
Aussen-T/F 3926 14-02-2020 06:17:17 4.7 C 45 %
3927 14-02-2020 06:27:17 4.7 C 45 %
3928 14-02-2020 06:37:17 4.7 C 45 %
3929 14-02-2020 06:47:17 4.7 C 45 %
3930 14-02-2020 06:57:17 4.7 C 45 %
3931 14-02-2020 07:07:17 4.7 C 45 %
3932 14-02-2020 07:17:17 4.7 C 45 %
3933 14-02-2020 07:27:17 4.6 C 45 %
3934 14-02-2020 07:37:18 4.6 C 45 %
3935 14-02-2020 07:47:17 4.6 C 43 %
3936 14-02-2020 07:57:18 4.7 C 43 %
3937 14-02-2020 08:07:17 4.6 C 42 %
3938 14-02-2020 08:17:17 4.6 C 43 %
3939 14-02-2020 08:27:17 4.6 C 43 %
3940 14-02-2020 08:37:18 4.8 C 41 %
3941 14-02-2020 08:47:18 5 C 40 %
3942 14-02-2020 08:57:18 5.3 C 38 %
3943 14-02-2020 09:07:17 5.4 C 37 %
3944 14-02-2020 09:17:17 5.6 C 36 %
3945 14-02-2020 09:27:17 5.9 C 36 %
3946 14-02-2020 09:37:17 5.8 C 36 %
3947 14-02-2020 09:47:17 5.3 C 36 %
3948 14-02-2020 09:57:17 5.4 C 37 %
3949 14-02-2020 10:07:17 5.5 C 36 %
3950 14-02-2020 10:17:17 5.4 C 37 %
Sensor: Nr:Datum:Temp:Feuchte:
Aussen-T/F 3951 14-02-2020 10:27:17 5.4 C 36 %
3952 14-02-2020 10:37:18 5.5 C 36 %
3953 14-02-2020 10:47:17 5.8 C 36 %
3954 14-02-2020 10:57:18 5.9 C 35 %
3955 14-02-2020 11:07:18 6.2 C 35 %
3956 14-02-2020 11:17:18 6.1 C 35 %
3957 14-02-2020 11:27:18 6.1 C 35 %
3958 14-02-2020 11:37:17 6.2 C 35 %
3959 14-02-2020 11:47:18 6.3 C 35 %
3960 14-02-2020 11:57:18 6.4 C 35 %
3961 14-02-2020 12:07:17 6.6 C 35 %
3962 14-02-2020 12:17:17 6.8 C 35 %
3963 14-02-2020 12:27:17 6.9 C 34 %
3964 14-02-2020 12:37:17 7 C 33 %
3965 14-02-2020 12:47:18 7.2 C 32 %
3966 14-02-2020 12:57:18 7.3 C 32 %
3967 14-02-2020 13:07:17 7.5 C 32 %
3968 14-02-2020 13:17:17 7.3 C 31 %
3969 14-02-2020 13:27:17 7.5 C 31 %
3970 14-02-2020 13:37:17 7.5 C 31 %
3971 14-02-2020 13:47:17 7.5 C 31 %
3972 14-02-2020 13:57:17 7.7 C 31 %
3973 14-02-2020 14:07:18 7.9 C 31 %
3974 14-02-2020 14:17:18 7.9 C 31 %
3975 14-02-2020 14:27:18 7.9 C 30 %
Sensor: Nr:Datum:Temp:Feuchte:
Aussen-T/F 3976 14-02-2020 14:37:17 7.9 C 30 %
3977 14-02-2020 14:47:18 7.9 C 30 %
3978 14-02-2020 14:57:18 7.9 C 30 %
3979 14-02-2020 15:07:17 7.9 C 30 %
3980 14-02-2020 15:17:17 7.8 C 30 %
3981 14-02-2020 15:27:17 8 C 30 %
3982 14-02-2020 15:37:17 8.1 C 30 %
3983 14-02-2020 15:47:17 8.2 C 30 %
3984 14-02-2020 15:57:17 8.1 C 29 %
3985 14-02-2020 16:07:17 8.2 C 29 %
3986 14-02-2020 16:17:17 8.1 C 30 %
3987 14-02-2020 16:27:17 8.1 C 30 %
3988 14-02-2020 16:37:18 7.9 C 31 %
3989 14-02-2020 16:47:18 7.7 C 33 %
3990 14-02-2020 16:57:18 7.5 C 34 %
3991 14-02-2020 17:07:18 7.1 C 34 %
3992 14-02-2020 17:17:17 6.9 C 36 %
3993 14-02-2020 17:27:17 6.7 C 36 %
3994 14-02-2020 17:37:17 6.4 C 36 %
3995 14-02-2020 17:47:17 6.2 C 37 %
3996 14-02-2020 17:57:17 6.2 C 37 %
3997 14-02-2020 18:07:17 6.2 C 37 %
3998 14-02-2020 18:17:17 6.2 C 37 %
3999 14-02-2020 18:27:18 6.1 C 37 %
4000 14-02-2020 18:37:17 6.2 C 37 %
Sensor: Nr:Datum:Temp:Feuchte:
Aussen-T/F 4001 14-02-2020 18:47:17 6.2 C 37 %
4002 14-02-2020 18:57:17 5.8 C 38 %
4003 14-02-2020 19:07:18 5.7 C 38 %
4004 14-02-2020 19:17:17 5.4 C 38 %
4005 14-02-2020 19:27:17 5 C 38 %
4006 14-02-2020 19:37:17 4.7 C 40 %
4007 14-02-2020 19:47:17 4.7 C 41 %
4008 14-02-2020 19:57:17 4.5 C 42 %
4009 14-02-2020 20:07:17 4.6 C 42 %
4010 14-02-2020 20:17:17 4.3 C 41 %
4011 14-02-2020 20:27:17 3.9 C 42 %
4012 14-02-2020 20:37:18 3.6 C 45 %
4013 14-02-2020 20:47:17 3.5 C 44 %
4014 14-02-2020 20:57:17 3.3 C 45 %
4015 14-02-2020 21:07:17 3.4 C 46 %
4016 14-02-2020 21:17:17 3.3 C 45 %
4017 14-02-2020 21:27:17 2.8 C 46 %
4018 14-02-2020 21:37:17 2.7 C 46 %
4019 14-02-2020 21:47:17 2.7 C 46 %
4020 14-02-2020 21:57:17 2.5 C 46 %
4021 14-02-2020 22:07:17 2.3 C 46 %
4022 14-02-2020 22:17:17 2.5 C 47 %
4023 14-02-2020 22:27:17 2.5 C 46 %
4024 14-02-2020 22:37:17 2.1 C 46 %
4025 14-02-2020 22:47:17 2 C 46 %
Sensor: Nr:Datum:Temp:Feuchte:
Aussen-T/F 4026 14-02-2020 22:57:17 1.8 C 47 %
4027 14-02-2020 23:07:18 2.1 C 46 %
4028 14-02-2020 23:17:18 2.1 C 46 %
4029 14-02-2020 23:27:18 2.5 C 47 %
4030 14-02-2020 23:37:17 1.9 C 47 %
4031 14-02-2020 23:47:18 1.6 C 47 %
4032 14-02-2020 23:57:18 1.7 C 47 %
4033 15-02-2020 00:07:18 1.6 C 47 %
4034 15-02-2020 00:17:17 1.7 C 47 %
4035 15-02-2020 00:27:17 1.7 C 47 %
4036 15-02-2020 00:37:17 1.7 C 47 %
4037 15-02-2020 00:47:17 1.8 C 47 %
4038 15-02-2020 00:57:17 1.9 C 47 %
4039 15-02-2020 01:07:17 2.1 C 46 %
4040 15-02-2020 01:17:17 2.5 C 46 %
4041 15-02-2020 01:27:17 2.4 C 46 %
4042 15-02-2020 01:37:18 2.4 C 46 %
4043 15-02-2020 01:47:17 2.6 C 46 %
4044 15-02-2020 01:57:17 2.4 C 46 %
4045 15-02-2020 02:07:18 2.3 C 46 %
4046 15-02-2020 02:17:17 2.6 C 46 %
4047 15-02-2020 02:27:17 2.3 C 46 %
4048 15-02-2020 02:37:17 2.2 C 46 %
4049 15-02-2020 02:47:17 2 C 45 %
4050 15-02-2020 02:57:17 2 C 46 %
Sensor: Nr:Datum:Temp:Feuchte:
Aussen-T/F 4051 15-02-2020 03:07:18 1.9 C 47 %
4052 15-02-2020 03:17:18 1.7 C 46 %
4053 15-02-2020 03:27:18 1.7 C 46 %
4054 15-02-2020 03:37:17 1.8 C 47 %
4055 15-02-2020 03:47:18 1.3 C 46 %
4056 15-02-2020 03:57:18 1.3 C 46 %
4057 15-02-2020 04:07:17 1.4 C 46 %
4058 15-02-2020 04:17:17 1.2 C 46 %
4059 15-02-2020 04:27:17 1.3 C 46 %
4060 15-02-2020 04:37:17 1.2 C 46 %
4061 15-02-2020 04:47:17 1.5 C 46 %
4062 15-02-2020 04:57:17 1.4 C 46 %
4063 15-02-2020 05:07:17 1.1 C 46 %
4064 15-02-2020 05:17:17 1 C 46 %
4065 15-02-2020 05:27:17 0.9 C 47 %
4066 15-02-2020 05:37:18 1.2 C 46 %
4067 15-02-2020 05:47:17 0.8 C 47 %
4068 15-02-2020 05:57:17 0.8 C 47 %
4069 15-02-2020 06:07:18 1 C 46 %
4070 15-02-2020 06:17:17 0.7 C 47 %
4071 15-02-2020 06:27:18 0.6 C 47 %
4072 15-02-2020 06:37:18 0.5 C 47 %
4073 15-02-2020 06:47:17 0.7 C 47 %
4074 15-02-2020 06:57:17 0.7 C 47 %
4075 15-02-2020 07:07:18 0.7 C 47 %
Sensor: Nr:Datum:Temp:Feuchte:
Aussen-T/F 4076 15-02-2020 07:17:18 0.3 C 47 %
4077 15-02-2020 07:27:18 0.3 C 47 %
4078 15-02-2020 07:37:18 0.8 C 47 %
4079 15-02-2020 07:47:17 1.1 C 46 %
4080 15-02-2020 07:57:18 1.1 C 46 %
4081 15-02-2020 08:07:17 0.9 C 47 %
4082 15-02-2020 08:17:18 1.3 C 46 %
4083 15-02-2020 08:27:18 1.8 C 46 %
4084 15-02-2020 08:37:18 2 C 45 %
4085 15-02-2020 08:47:17 2 C 45 %
4086 15-02-2020 08:57:18 2.6 C 45 %
4087 15-02-2020 09:07:18 2.8 C 45 %
4088 15-02-2020 09:17:17 3.1 C 45 %
4089 15-02-2020 09:27:17 3.2 C 45 %
4090 15-02-2020 09:37:17 3.6 C 45 %
4091 15-02-2020 09:47:17 3.7 C 45 %
4092 15-02-2020 09:57:17 4.2 C 44 %
4093 15-02-2020 10:07:17 3.7 C 44 %
4094 15-02-2020 10:17:17 4.4 C 44 %
4095 15-02-2020 10:27:17 4.6 C 44 %
4096 15-02-2020 10:37:18 5.1 C 43 %
4097 15-02-2020 10:47:17 5.4 C 43 %
4098 15-02-2020 10:57:17 5.6 C 42 %
4099 15-02-2020 11:07:18 6.4 C 40 %
4100 15-02-2020 11:17:18 6.9 C 41 %
Sensor: Nr:Datum:Temp:Feuchte:
Aussen-T/F 4101 15-02-2020 11:27:18 6.8 C 40 %
4102 15-02-2020 11:37:17 7.3 C 41 %
4103 15-02-2020 11:47:18 8 C 40 %
4104 15-02-2020 11:57:18 8.4 C 36 %
4105 15-02-2020 12:07:18 8.7 C 36 %
4106 15-02-2020 12:17:17 9.1 C 37 %
4107 15-02-2020 12:27:17 9.9 C 36 %
4108 15-02-2020 12:37:17 10.3 C 33 %
4109 15-02-2020 12:47:17 10.7 C 32 %
4110 15-02-2020 12:57:17 11.3 C 30 %
4111 15-02-2020 13:07:18 11.6 C 30 %
4112 15-02-2020 13:17:17 13.7 C 21 %
4113 15-02-2020 13:27:17 14.7 C 20 %
4114 15-02-2020 13:37:17 15.7 C 20 %
4115 15-02-2020 13:47:17 14.1 C 20 %
4116 15-02-2020 13:57:17 13 C 20 %
4117 15-02-2020 14:07:18 11.4 C 24 %
4118 15-02-2020 14:17:17 11.2 C 25 %
4119 15-02-2020 14:27:17 11.2 C 25 %
4120 15-02-2020 14:37:17 11.3 C 25 %
4121 15-02-2020 14:47:17 11 C 25 %
4122 15-02-2020 14:57:17 11.9 C 23 %
4123 15-02-2020 15:07:17 11.3 C 26 %
4124 15-02-2020 15:17:17 12.5 C 21 %
4125 15-02-2020 15:27:17 12.7 C 20 %
Sensor: Nr:Datum:Temp:Feuchte:
Aussen-T/F 4126 15-02-2020 15:37:18 12.1 C 21 %
4127 15-02-2020 15:47:17 11.9 C 23 %
4128 15-02-2020 15:57:18 11.7 C 25 %
4129 15-02-2020 16:07:18 12.1 C 21 %
4130 15-02-2020 16:17:18 12.1 C 23 %
4131 15-02-2020 16:27:18 11.4 C 25 %
4132 15-02-2020 16:37:18 9.8 C 30 %
4133 15-02-2020 16:47:18 9.3 C 30 %
4134 15-02-2020 16:57:18 9.2 C 30 %
4135 15-02-2020 17:07:17 8.5 C 32 %
4136 15-02-2020 17:17:17 8.4 C 33 %
4137 15-02-2020 17:27:17 7.8 C 35 %
4138 15-02-2020 17:37:18 7.4 C 35 %
4139 15-02-2020 17:47:18 7.3 C 35 %
4140 15-02-2020 17:57:18 7.3 C 36 %
4141 15-02-2020 18:07:17 7.3 C 36 %
4142 15-02-2020 18:17:17 7.1 C 36 %
4143 15-02-2020 18:27:17 7.1 C 36 %
4144 15-02-2020 18:37:17 6.8 C 36 %
4145 15-02-2020 18:47:17 7.1 C 36 %
4146 15-02-2020 18:57:17 7 C 36 %
4147 15-02-2020 19:07:17 6.9 C 36 %
4148 15-02-2020 19:17:18 6.8 C 36 %
4149 15-02-2020 19:27:18 6.9 C 37 %
4150 15-02-2020 19:37:18 7.1 C 36 %
Sensor: Nr:Datum:Temp:Feuchte:
Aussen-T/F 4151 15-02-2020 19:47:17 6.7 C 37 %
4152 15-02-2020 19:57:17 6.7 C 37 %
4153 15-02-2020 20:07:17 7.1 C 35 %
4154 15-02-2020 20:17:17 7.1 C 35 %
4155 15-02-2020 20:27:17 7.4 C 35 %
4156 15-02-2020 20:37:18 7.4 C 35 %
4157 15-02-2020 20:47:17 7.6 C 35 %
4158 15-02-2020 20:57:18 7.8 C 35 %
4159 15-02-2020 21:07:18 7.6 C 35 %
4160 15-02-2020 21:17:18 7.6 C 35 %
4161 15-02-2020 21:27:18 8.1 C 33 %
4162 15-02-2020 21:37:17 7.8 C 34 %
4163 15-02-2020 21:47:17 7.6 C 34 %
4164 15-02-2020 21:57:17 7.7 C 34 %
4165 15-02-2020 22:07:17 7.9 C 33 %
4166 15-02-2020 22:17:18 7.7 C 34 %
4167 15-02-2020 22:27:18 8.4 C 32 %
4168 15-02-2020 22:37:18 8.2 C 32 %
4169 15-02-2020 22:47:18 8.4 C 32 %
4170 15-02-2020 22:57:18 8.6 C 32 %
4171 15-02-2020 23:07:18 10.6 C 29 %
4172 15-02-2020 23:17:17 9.7 C 30 %
4173 15-02-2020 23:27:17 9.2 C 31 %
4174 15-02-2020 23:37:17 9.1 C 31 %
4175 15-02-2020 23:47:18 10 C 29 %
Sensor: Nr:Datum:Temp:Feuchte:
Aussen-T/F 4176 15-02-2020 23:57:18 9.8 C 30 %
4177 16-02-2020 00:07:18 9.3 C 30 %
4178 16-02-2020 00:17:17 9.8 C 30 %
4179 16-02-2020 00:27:17 9.2 C 30 %
4180 16-02-2020 00:37:17 9.2 C 30 %
4181 16-02-2020 00:47:17 10 C 29 %
4182 16-02-2020 00:57:17 9.7 C 30 %
4183 16-02-2020 01:07:18 9.7 C 30 %
4184 16-02-2020 01:17:18 10.5 C 29 %
4185 16-02-2020 01:27:18 10.4 C 29 %
4186 16-02-2020 01:37:18 9.7 C 30 %
4187 16-02-2020 01:47:18 9.7 C 30 %
4188 16-02-2020 01:57:18 10 C 30 %
4189 16-02-2020 02:07:17 10.5 C 30 %
4190 16-02-2020 02:17:17 10.5 C 30 %
4191 16-02-2020 02:27:18 10.8 C 29 %
4192 16-02-2020 02:37:18 10.6 C 30 %
4193 16-02-2020 02:47:18 10.9 C 30 %
4194 16-02-2020 02:57:18 11.1 C 28 %
4195 16-02-2020 03:07:17 11.4 C 28 %
4196 16-02-2020 03:17:17 11.4 C 28 %
4197 16-02-2020 03:27:17 12.1 C 27 %
4198 16-02-2020 03:37:18 12 C 27 %
4199 16-02-2020 03:47:17 12.3 C 27 %
4200 16-02-2020 03:57:18 12.4 C 26 %
Sensor: Nr:Datum:Temp:Feuchte:
Aussen-T/F 4201 16-02-2020 04:07:18 12.1 C 26 %
4202 16-02-2020 04:17:18 12.2 C 26 %
4203 16-02-2020 04:27:18 12 C 26 %
4204 16-02-2020 04:37:17 11.7 C 27 %
4205 16-02-2020 04:47:17 11.8 C 26 %
4206 16-02-2020 04:57:17 11.7 C 26 %
4207 16-02-2020 05:07:17 11.5 C 27 %
4208 16-02-2020 05:17:17 11.3 C 27 %
4209 16-02-2020 05:27:18 11.5 C 27 %
4210 16-02-2020 05:37:18 11.4 C 27 %
4211 16-02-2020 05:47:17 11.6 C 27 %
4212 16-02-2020 05:57:18 12.2 C 25 %
4213 16-02-2020 06:07:17 12.6 C 25 %
4214 16-02-2020 06:17:17 12.6 C 25 %
4215 16-02-2020 06:27:17 12.9 C 24 %
4216 16-02-2020 06:37:18 13.1 C 21 %
4217 16-02-2020 06:47:17 13.6 C 21 %
4218 16-02-2020 06:57:17 13.2 C 21 %
4219 16-02-2020 07:07:17 13.5 C 22 %
4220 16-02-2020 07:17:17 13.5 C 23 %
4221 16-02-2020 07:27:17 13.8 C 23 %
4222 16-02-2020 07:37:17 14.1 C 23 %
4223 16-02-2020 07:47:17 13.9 C 24 %
4224 16-02-2020 07:57:17 13.7 C 25 %
4225 16-02-2020 08:07:18 13.8 C 25 %
Sensor: Nr:Datum:Temp:Feuchte:
Aussen-T/F 4226 16-02-2020 08:17:17 13.4 C 25 %
4227 16-02-2020 08:27:17 13.3 C 25 %
4228 16-02-2020 08:37:18 13.4 C 25 %
4229 16-02-2020 08:47:17 13.6 C 25 %
4230 16-02-2020 08:57:17 13.6 C 25 %
4231 16-02-2020 09:07:18 13.7 C 25 %
4232 16-02-2020 09:17:17 13.9 C 25 %
4233 16-02-2020 09:27:17 14 C 25 %
4234 16-02-2020 09:37:17 14 C 23 %
4235 16-02-2020 09:47:18 14.1 C 23 %
4236 16-02-2020 09:57:18 14.2 C 23 %
4237 16-02-2020 10:07:18 14.3 C 23 %
4238 16-02-2020 10:17:18 14.2 C 23 %
4239 16-02-2020 10:27:18 14.5 C 23 %
4240 16-02-2020 10:37:18 14.7 C 22 %
4241 16-02-2020 10:47:18 15.1 C 21 %
4242 16-02-2020 10:57:18 15.2 C 21 %
4243 16-02-2020 11:07:17 15.2 C 20 %
4244 16-02-2020 11:17:17 15.8 C 20 %
4245 16-02-2020 11:27:17 16.1 C 20 %
4246 16-02-2020 11:37:17 16.1 C 20 %
4247 16-02-2020 11:47:17 16.4 C 20 %
4248 16-02-2020 11:57:17 16.3 C 20 %
4249 16-02-2020 12:07:17 16.4 C 20 %
4250 16-02-2020 12:17:17 17 C 20 %
Sensor: Nr:Datum:Temp:Feuchte:
Aussen-T/F 4251 16-02-2020 12:27:17 17.3 C 20 %
4252 16-02-2020 12:37:18 17.2 C 20 %
4253 16-02-2020 12:47:18 17.9 C 20 %
4254 16-02-2020 12:57:18 18.6 C 20 %
4255 16-02-2020 13:07:18 17.9 C 20 %
4256 16-02-2020 13:17:18 18.6 C 20 %
4257 16-02-2020 13:27:18 18.1 C 20 %
4258 16-02-2020 13:37:17 20 C 20 %
4259 16-02-2020 13:47:17 19.1 C 20 %
4260 16-02-2020 13:57:17 18 C 20 %
4261 16-02-2020 14:07:17 18 C 20 %
4262 16-02-2020 14:17:17 18.2 C 20 %
4263 16-02-2020 14:27:17 18.5 C 20 %
4264 16-02-2020 14:37:18 18.3 C 20 %
4265 16-02-2020 14:47:17 18.6 C 20 %
4266 16-02-2020 14:57:17 18.5 C 20 %
4267 16-02-2020 15:07:18 18.1 C 20 %
4268 16-02-2020 15:17:17 18 C 20 %
4269 16-02-2020 15:27:17 17.9 C 20 %
4270 16-02-2020 15:37:17 18 C 20 %
4271 16-02-2020 15:47:17 18.4 C 20 %
4272 16-02-2020 15:57:17 18.7 C 20 %
4273 16-02-2020 16:07:18 18.6 C 20 %
4274 16-02-2020 16:17:17 18.4 C 20 %
4275 16-02-2020 16:27:17 18.4 C 20 %
Sensor: Nr:Datum:Temp:Feuchte:
Aussen-T/F 4276 16-02-2020 16:37:17 17.8 C 20 %
4277 16-02-2020 16:47:17 17.2 C 20 %
4278 16-02-2020 16:57:17 16.6 C 20 %
4279 16-02-2020 17:07:17 16.3 C 20 %
4280 16-02-2020 17:17:18 16 C 20 %
4281 16-02-2020 17:27:18 15.3 C 20 %
4282 16-02-2020 17:37:17 15 C 20 %
4283 16-02-2020 17:47:18 14.9 C 20 %
4284 16-02-2020 17:57:18 14.7 C 20 %
4285 16-02-2020 18:07:17 15.3 C 20 %
4286 16-02-2020 18:17:17 14.9 C 20 %
4287 16-02-2020 18:27:17 15.1 C 20 %
4288 16-02-2020 18:37:18 15 C 20 %
4289 16-02-2020 18:47:17 15.7 C 20 %
4290 16-02-2020 18:57:18 14.9 C 20 %
4291 16-02-2020 19:07:18 15.9 C 20 %
4292 16-02-2020 19:17:17 15.4 C 20 %
4293 16-02-2020 19:27:17 15.9 C 20 %
4294 16-02-2020 19:37:18 15.5 C 20 %
4295 16-02-2020 19:47:17 15.8 C 20 %
4296 16-02-2020 19:57:18 15.4 C 20 %
4297 16-02-2020 20:07:18 15.7 C 20 %
4298 16-02-2020 20:17:17 15.9 C 20 %
4299 16-02-2020 20:27:17 15.9 C 20 %
4300 16-02-2020 20:37:17 15.8 C 20 %
Sensor: Nr:Datum:Temp:Feuchte:
Aussen-T/F 4301 16-02-2020 20:47:17 16 C 20 %
4302 16-02-2020 20:57:17 16.1 C 20 %
4303 16-02-2020 21:07:18 16.2 C 20 %
4304 16-02-2020 21:17:17 16.1 C 20 %
4305 16-02-2020 21:27:17 16.3 C 20 %
4306 16-02-2020 21:37:17 16.3 C 20 %
4307 16-02-2020 21:47:17 16.8 C 20 %
4308 16-02-2020 21:57:17 16.5 C 20 %
4309 16-02-2020 22:07:18 16.3 C 20 %
4310 16-02-2020 22:17:18 16.2 C 20 %
4311 16-02-2020 22:27:18 16.1 C 20 %
4312 16-02-2020 22:37:17 16.1 C 20 %
4313 16-02-2020 22:47:17 16 C 20 %
4314 16-02-2020 22:57:17 15.8 C 20 %
4315 16-02-2020 23:07:17 15.2 C 20 %
4316 16-02-2020 23:17:18 12.5 C 30 %
4317 16-02-2020 23:27:18 10.5 C 34 %
4318 16-02-2020 23:37:18 10.1 C 35 %
4319 16-02-2020 23:47:18 9.8 C 35 %
4320 16-02-2020 23:57:18 9.6 C 35 %
4321 17-02-2020 00:07:18 9.3 C 36 %
4322 17-02-2020 00:17:17 9.1 C 39 %
4323 17-02-2020 00:27:17 9.1 C 37 %
4324 17-02-2020 00:37:17 9.4 C 36 %
4325 17-02-2020 00:47:18 9.1 C 35 %
Sensor: Nr:Datum:Temp:Feuchte:
Aussen-T/F 4326 17-02-2020 00:57:18 9.1 C 35 %
4327 17-02-2020 01:07:18 8.9 C 36 %
4328 17-02-2020 01:17:17 8.9 C 36 %
4329 17-02-2020 01:27:17 9 C 35 %
4330 17-02-2020 01:37:18 8.4 C 36 %
4331 17-02-2020 01:47:17 8.2 C 37 %
4332 17-02-2020 01:57:18 7.9 C 41 %
4333 17-02-2020 02:07:18 8.2 C 39 %
4334 17-02-2020 02:17:17 8.4 C 35 %
4335 17-02-2020 02:27:17 8.2 C 33 %
4336 17-02-2020 02:37:17 8.1 C 32 %
4337 17-02-2020 02:47:17 8 C 32 %
4338 17-02-2020 02:57:17 8.1 C 31 %
4339 17-02-2020 03:07:17 8.1 C 32 %
4340 17-02-2020 03:17:17 8 C 32 %
4341 17-02-2020 03:27:17 7.9 C 32 %
4342 17-02-2020 03:37:17 8.1 C 32 %
4343 17-02-2020 03:47:17 8.1 C 32 %
4344 17-02-2020 03:57:17 8.1 C 32 %
4345 17-02-2020 04:07:17 7.9 C 32 %
4346 17-02-2020 04:17:18 7.9 C 32 %
4347 17-02-2020 04:27:18 8.1 C 32 %
4348 17-02-2020 04:37:17 7.8 C 33 %
4349 17-02-2020 04:47:17 7.8 C 33 %
4350 17-02-2020 04:57:17 7.8 C 33 %
Sensor: Nr:Datum:Temp:Feuchte:
Aussen-T/F 4351 17-02-2020 05:07:17 7.6 C 33 %
4352 17-02-2020 05:17:18 7.6 C 33 %
4353 17-02-2020 05:27:18 7.5 C 34 %
4354 17-02-2020 05:37:17 7.5 C 34 %
4355 17-02-2020 05:47:17 7.6 C 34 %
4356 17-02-2020 05:57:17 7.4 C 34 %
4357 17-02-2020 06:07:17 7.4 C 34 %
4358 17-02-2020 06:17:17 7.5 C 35 %
4359 17-02-2020 06:27:17 7.9 C 34 %
4360 17-02-2020 06:37:17 7.6 C 34 %
4361 17-02-2020 06:47:17 7.9 C 34 %
4362 17-02-2020 06:57:17 8 C 33 %
4363 17-02-2020 07:07:18 7.9 C 34 %
4364 17-02-2020 07:17:17 7.7 C 34 %
4365 17-02-2020 07:27:17 7.5 C 35 %
4366 17-02-2020 07:37:17 7.5 C 35 %
4367 17-02-2020 07:47:17 7.3 C 35 %
4368 17-02-2020 07:57:17 7.3 C 35 %
4369 17-02-2020 08:07:18 7.7 C 35 %
4370 17-02-2020 08:17:17 7.8 C 34 %
4371 17-02-2020 08:27:17 7.9 C 34 %
4372 17-02-2020 08:37:17 7.7 C 35 %
4373 17-02-2020 08:47:17 8.2 C 33 %
4374 17-02-2020 08:57:17 8.2 C 33 %
4375 17-02-2020 09:07:17 8.3 C 33 %
Sensor: Nr:Datum:Temp:Feuchte:
Aussen-T/F 4376 17-02-2020 09:17:17 8.4 C 33 %
4377 17-02-2020 09:27:17 8.4 C 33 %
4378 17-02-2020 09:37:18 8.4 C 33 %
4379 17-02-2020 09:47:17 8.3 C 33 %
4380 17-02-2020 09:57:18 8.4 C 32 %
4381 17-02-2020 10:07:18 8.5 C 32 %
4382 17-02-2020 10:17:17 8.6 C 32 %
4383 17-02-2020 10:27:17 8.8 C 32 %
4384 17-02-2020 10:37:17 9 C 32 %
4385 17-02-2020 10:47:17 9.1 C 32 %
4386 17-02-2020 10:57:17 9.1 C 31 %
4387 17-02-2020 11:07:17 9.2 C 31 %
4388 17-02-2020 11:17:17 9.2 C 31 %
4389 17-02-2020 11:27:17 9.4 C 30 %
4390 17-02-2020 11:37:17 9.4 C 30 %
4391 17-02-2020 11:47:18 9.3 C 30 %
4392 17-02-2020 11:57:18 9.4 C 30 %
4393 17-02-2020 12:07:17 9.3 C 30 %
4394 17-02-2020 12:17:17 9.3 C 30 %
4395 17-02-2020 12:27:17 9.2 C 30 %
4396 17-02-2020 12:37:17 9.5 C 29 %
4397 17-02-2020 12:47:17 9.5 C 28 %
4398 17-02-2020 12:57:17 9.6 C 28 %
4399 17-02-2020 13:07:18 10 C 26 %
4400 17-02-2020 13:17:17 10.4 C 26 %
Sensor: Nr:Datum:Temp:Feuchte:
Aussen-T/F 4401 17-02-2020 13:27:17 10.5 C 25 %
4402 17-02-2020 13:37:17 11.2 C 24 %
4403 17-02-2020 13:47:17 10.7 C 25 %
4404 17-02-2020 13:57:17 10.4 C 25 %
4405 17-02-2020 14:07:17 10.5 C 25 %
4406 17-02-2020 14:17:18 10.5 C 25 %
4407 17-02-2020 14:27:18 11.1 C 25 %
4408 17-02-2020 14:37:18 10.6 C 25 %
4409 17-02-2020 14:47:18 10.5 C 25 %
4410 17-02-2020 14:57:18 10.3 C 25 %
4411 17-02-2020 15:07:17 11.1 C 25 %
4412 17-02-2020 15:17:17 10.9 C 25 %
4413 17-02-2020 15:27:17 11.2 C 24 %
4414 17-02-2020 15:37:17 11.3 C 24 %
4415 17-02-2020 15:47:17 11.2 C 24 %
4416 17-02-2020 15:57:17 11.4 C 24 %
4417 17-02-2020 16:07:17 10.8 C 25 %
4418 17-02-2020 16:17:17 11.7 C 24 %
4419 17-02-2020 16:27:17 11.1 C 24 %
4420 17-02-2020 16:37:17 12.8 C 20 %
4421 17-02-2020 16:47:17 12.9 C 20 %
4422 17-02-2020 16:57:17 11.2 C 21 %
4423 17-02-2020 17:07:18 10.2 C 25 %
4424 17-02-2020 17:17:17 10.3 C 25 %
4425 17-02-2020 17:27:17 9.5 C 27 %
Sensor: Nr:Datum:Temp:Feuchte:
Aussen-T/F 4426 17-02-2020 17:37:17 7 C 36 %
4427 17-02-2020 17:47:17 7.1 C 35 %
4428 17-02-2020 17:57:17 7.2 C 34 %
4429 17-02-2020 18:07:18 7.1 C 33 %
4430 17-02-2020 18:17:18 7.3 C 32 %
4431 17-02-2020 18:27:18 7 C 33 %
4432 17-02-2020 18:37:18 6.7 C 33 %
4433 17-02-2020 18:47:17 6.8 C 33 %
4434 17-02-2020 18:57:18 6.8 C 33 %
4435 17-02-2020 19:07:18 6.4 C 33 %
4436 17-02-2020 19:17:17 5.7 C 35 %
4437 17-02-2020 19:27:17 5.6 C 36 %
4438 17-02-2020 19:37:17 5.7 C 36 %
4439 17-02-2020 19:47:17 6.3 C 35 %
4440 17-02-2020 19:57:17 5.3 C 36 %
4441 17-02-2020 20:07:17 4.8 C 38 %
4442 17-02-2020 20:17:17 4.6 C 40 %
4443 17-02-2020 20:27:17 4.5 C 41 %
4444 17-02-2020 20:37:17 4.4 C 42 %
4445 17-02-2020 20:47:17 3.8 C 43 %
4446 17-02-2020 20:57:17 4.1 C 44 %
4447 17-02-2020 21:07:18 4.3 C 45 %
4448 17-02-2020 21:17:17 5 C 43 %
4449 17-02-2020 21:27:17 5.7 C 40 %
4450 17-02-2020 21:37:17 5 C 39 %
Sensor: Nr:Datum:Temp:Feuchte:
Aussen-T/F 4451 17-02-2020 21:47:17 5.2 C 40 %
4452 17-02-2020 21:57:17 5.1 C 40 %
4453 17-02-2020 22:07:18 6.3 C 38 %
4454 17-02-2020 22:17:17 7.1 C 35 %
4455 17-02-2020 22:27:17 7.5 C 35 %
4456 17-02-2020 22:37:17 7.7 C 34 %
4457 17-02-2020 22:47:17 7.9 C 34 %
4458 17-02-2020 22:57:17 8 C 33 %
4459 17-02-2020 23:07:17 8 C 33 %
4460 17-02-2020 23:17:18 7.8 C 33 %
4461 17-02-2020 23:27:18 6.9 C 35 %
4462 17-02-2020 23:37:17 7.2 C 35 %
4463 17-02-2020 23:47:18 7.7 C 33 %
4464 17-02-2020 23:57:18 7.6 C 33 %
4465 18-02-2020 00:07:18 7.8 C 32 %
4466 18-02-2020 00:17:17 7.8 C 32 %
4467 18-02-2020 00:27:17 7.9 C 32 %
4468 18-02-2020 00:37:18 7.8 C 31 %
4469 18-02-2020 00:47:18 7.9 C 31 %
4470 18-02-2020 00:57:18 7.8 C 31 %
4471 18-02-2020 01:07:18 7.8 C 31 %
4472 18-02-2020 01:17:17 7.8 C 31 %
4473 18-02-2020 01:27:17 7.7 C 31 %
4474 18-02-2020 01:37:17 7.7 C 32 %
4475 18-02-2020 01:47:17 7.5 C 32 %
Sensor: Nr:Datum:Temp:Feuchte:
Aussen-T/F 4476 18-02-2020 01:57:17 7.5 C 32 %
4477 18-02-2020 02:07:18 7.4 C 32 %
4478 18-02-2020 02:17:17 7.2 C 32 %
4479 18-02-2020 02:27:17 7 C 32 %
4480 18-02-2020 02:37:17 7 C 32 %
4481 18-02-2020 02:47:18 6.8 C 33 %
4482 18-02-2020 02:57:18 7.1 C 32 %
4483 18-02-2020 03:07:18 7.1 C 32 %
4484 18-02-2020 03:17:17 7.3 C 32 %
4485 18-02-2020 03:27:17 7.3 C 31 %
4486 18-02-2020 03:37:17 7.1 C 32 %
4487 18-02-2020 03:47:17 6.6 C 33 %
4488 18-02-2020 03:57:17 6.6 C 33 %
4489 18-02-2020 04:07:17 6.4 C 33 %
4490 18-02-2020 04:17:17 6.2 C 33 %
4491 18-02-2020 04:27:17 6.2 C 33 %
4492 18-02-2020 04:37:18 5.9 C 34 %
4493 18-02-2020 04:47:17 6.3 C 33 %
4494 18-02-2020 04:57:18 6 C 33 %
4495 18-02-2020 05:07:18 5.9 C 33 %
4496 18-02-2020 05:17:17 5.8 C 33 %
4497 18-02-2020 05:27:17 6 C 33 %
4498 18-02-2020 05:37:17 5.7 C 33 %
4499 18-02-2020 05:47:18 5.7 C 33 %
4500 18-02-2020 05:57:18 5.8 C 34 %
Sensor: Nr:Datum:Temp:Feuchte:
Aussen-T/F 4501 18-02-2020 06:07:18 5.6 C 34 %
4502 18-02-2020 06:17:17 5.6 C 34 %
4503 18-02-2020 06:27:17 5.7 C 34 %
4504 18-02-2020 06:37:18 5.6 C 34 %
4505 18-02-2020 06:47:17 5.6 C 34 %
4506 18-02-2020 06:57:17 5.4 C 34 %
4507 18-02-2020 07:07:18 5.2 C 34 %
4508 18-02-2020 07:17:18 5.4 C 34 %
4509 18-02-2020 07:27:18 5.3 C 35 %
4510 18-02-2020 07:37:17 5.1 C 35 %
4511 18-02-2020 07:47:17 5 C 35 %
4512 18-02-2020 07:57:17 5.3 C 35 %
4513 18-02-2020 08:07:17 4.8 C 35 %
4514 18-02-2020 08:17:17 5.4 C 34 %
4515 18-02-2020 08:27:17 5.1 C 35 %
4516 18-02-2020 08:37:18 5.1 C 35 %
4517 18-02-2020 08:47:18 5.3 C 35 %
4518 18-02-2020 08:57:18 5.3 C 35 %
4519 18-02-2020 09:07:18 5.4 C 35 %
4520 18-02-2020 09:17:18 5.6 C 35 %
4521 18-02-2020 09:27:18 5.6 C 34 %
4522 18-02-2020 09:37:17 5.8 C 34 %
4523 18-02-2020 09:47:17 6 C 33 %
4524 18-02-2020 09:57:17 6.2 C 32 %
4525 18-02-2020 10:07:17 6.1 C 32 %
Sensor: Nr:Datum:Temp:Feuchte:
Aussen-T/F 4526 18-02-2020 10:17:18 6.1 C 32 %
4527 18-02-2020 10:27:18 6.3 C 32 %
4528 18-02-2020 10:37:17 6.7 C 32 %
4529 18-02-2020 10:47:18 6.9 C 31 %
4530 18-02-2020 10:57:18 7 C 30 %
4531 18-02-2020 11:07:17 7.4 C 30 %
4532 18-02-2020 11:17:17 8.1 C 30 %
4533 18-02-2020 11:27:17 8.2 C 29 %
4534 18-02-2020 11:37:17 7.6 C 29 %
4535 18-02-2020 11:47:17 7.7 C 29 %
4536 18-02-2020 11:57:17 7.5 C 29 %
4537 18-02-2020 12:07:17 7.8 C 29 %
4538 18-02-2020 12:17:18 8.1 C 29 %
4539 18-02-2020 12:27:18 8 C 28 %
4540 18-02-2020 12:37:17 7.9 C 28 %
4541 18-02-2020 12:47:17 8.5 C 28 %
4542 18-02-2020 12:57:17 9.7 C 25 %
4543 18-02-2020 13:07:17 10 C 20 %
4544 18-02-2020 13:17:17 8.5 C 25 %
4545 18-02-2020 13:27:17 7.8 C 26 %
4546 18-02-2020 13:37:18 8.6 C 26 %
4547 18-02-2020 13:47:17 9.2 C 25 %
4548 18-02-2020 13:57:17 8.2 C 26 %
4549 18-02-2020 14:07:18 8.4 C 26 %
4550 18-02-2020 14:17:17 8.1 C 26 %
Sensor: Nr:Datum:Temp:Feuchte:
Aussen-T/F 4551 18-02-2020 14:27:17 8.1 C 26 %
4552 18-02-2020 14:37:17 8 C 26 %
4553 18-02-2020 14:47:17 8.1 C 26 %
4554 18-02-2020 14:57:17 9 C 25 %
4555 18-02-2020 15:07:17 8.5 C 25 %
4556 18-02-2020 15:17:17 8.8 C 26 %
4557 18-02-2020 15:27:17 8.5 C 25 %
4558 18-02-2020 15:37:18 8.4 C 25 %
4559 18-02-2020 15:47:18 8.3 C 26 %
4560 18-02-2020 15:57:18 8.9 C 25 %
4561 18-02-2020 16:07:18 8.4 C 25 %
4562 18-02-2020 16:17:18 8.2 C 26 %
4563 18-02-2020 16:27:18 8.1 C 26 %
4564 18-02-2020 16:37:17 8.1 C 26 %
4565 18-02-2020 16:47:17 7.9 C 26 %
4566 18-02-2020 16:57:17 7.8 C 26 %
4567 18-02-2020 17:07:17 7.8 C 27 %
4568 18-02-2020 17:17:18 7.9 C 26 %
4569 18-02-2020 17:27:18 7.9 C 26 %
4570 18-02-2020 17:37:18 7.7 C 27 %
4571 18-02-2020 17:47:17 7.6 C 27 %
4572 18-02-2020 17:57:18 7.6 C 27 %
4573 18-02-2020 18:07:18 7.4 C 29 %
4574 18-02-2020 18:17:18 7 C 29 %
4575 18-02-2020 18:27:18 7 C 30 %
Sensor: Nr:Datum:Temp:Feuchte:
Aussen-T/F 4576 18-02-2020 18:37:17 6.4 C 31 %
4577 18-02-2020 18:47:18 6.6 C 31 %
4578 18-02-2020 18:57:18 6.1 C 32 %
4579 18-02-2020 19:07:18 5.8 C 33 %
4580 18-02-2020 19:17:17 5.3 C 34 %
4581 18-02-2020 19:27:17 5.5 C 35 %
4582 18-02-2020 19:37:17 5.5 C 35 %
4583 18-02-2020 19:47:17 5.9 C 34 %
4584 18-02-2020 19:57:17 5.7 C 34 %
4585 18-02-2020 20:07:18 5.5 C 34 %
4586 18-02-2020 20:17:18 5.7 C 35 %
4587 18-02-2020 20:27:18 6.4 C 33 %
4588 18-02-2020 20:37:17 6.7 C 32 %
4589 18-02-2020 20:47:17 6.5 C 32 %
4590 18-02-2020 20:57:17 6 C 33 %
4591 18-02-2020 21:07:17 6.3 C 33 %
4592 18-02-2020 21:17:17 6.3 C 33 %
4593 18-02-2020 21:27:17 6.5 C 32 %
4594 18-02-2020 21:37:17 6.3 C 33 %
4595 18-02-2020 21:47:17 6.2 C 33 %
4596 18-02-2020 21:57:17 6.5 C 33 %
4597 18-02-2020 22:07:17 6.9 C 32 %
4598 18-02-2020 22:17:17 6.9 C 33 %
4599 18-02-2020 22:27:17 7 C 32 %
4600 18-02-2020 22:37:17 6.9 C 33 %
Sensor: Nr:Datum:Temp:Feuchte:
Aussen-T/F 4601 18-02-2020 22:47:17 6.8 C 33 %
4602 18-02-2020 22:57:17 6.8 C 33 %
4603 18-02-2020 23:07:18 6.7 C 33 %
4604 18-02-2020 23:17:17 6.5 C 33 %
4605 18-02-2020 23:27:17 6.2 C 34 %
4606 18-02-2020 23:37:18 6.1 C 34 %
4607 18-02-2020 23:47:17 6.4 C 34 %
4608 18-02-2020 23:57:17 6.2 C 34 %
4609 19-02-2020 00:07:18 6.8 C 33 %
4610 19-02-2020 00:17:17 6.8 C 33 %
4611 19-02-2020 00:27:17 6.7 C 32 %
4612 19-02-2020 00:37:17 6.9 C 32 %
4613 19-02-2020 00:47:17 7 C 31 %
4614 19-02-2020 00:57:17 6.8 C 32 %
4615 19-02-2020 01:07:17 7 C 32 %
4616 19-02-2020 01:17:17 7 C 31 %
4617 19-02-2020 01:27:17 6.8 C 32 %
4618 19-02-2020 01:37:17 7 C 31 %
4619 19-02-2020 01:47:17 6.8 C 32 %
4620 19-02-2020 01:57:17 7 C 31 %
4621 19-02-2020 02:07:18 6.9 C 32 %
4622 19-02-2020 02:17:17 7.2 C 31 %
4623 19-02-2020 02:27:17 7 C 31 %
4624 19-02-2020 02:37:17 6.8 C 32 %
4625 19-02-2020 02:47:18 6.8 C 32 %
Sensor: Nr:Datum:Temp:Feuchte:
Aussen-T/F 4626 19-02-2020 02:57:18 6.9 C 32 %
4627 19-02-2020 03:07:17 6.9 C 32 %
4628 19-02-2020 03:17:17 6.7 C 33 %
4629 19-02-2020 03:27:17 6.6 C 33 %
4630 19-02-2020 03:37:17 6.4 C 34 %
4631 19-02-2020 03:47:17 6.2 C 35 %
4632 19-02-2020 03:57:17 5.9 C 36 %
4633 19-02-2020 04:07:18 6 C 36 %
4634 19-02-2020 04:17:17 6 C 36 %
4635 19-02-2020 04:27:18 5.9 C 37 %
4636 19-02-2020 04:37:18 5.8 C 37 %
4637 19-02-2020 04:47:17 5.9 C 37 %
4638 19-02-2020 04:57:17 6.2 C 36 %
4639 19-02-2020 05:07:18 6.3 C 36 %
4640 19-02-2020 05:17:17 6.4 C 35 %
4641 19-02-2020 05:27:17 6.4 C 35 %
4642 19-02-2020 05:37:17 6.3 C 35 %
4643 19-02-2020 05:47:17 6.3 C 34 %
4644 19-02-2020 05:57:17 6 C 34 %
4645 19-02-2020 06:07:18 6 C 34 %
4646 19-02-2020 06:17:17 5.9 C 35 %
4647 19-02-2020 06:27:17 5.9 C 35 %
4648 19-02-2020 06:37:18 5.8 C 35 %
4649 19-02-2020 06:47:17 5.7 C 35 %
4650 19-02-2020 06:57:17 5.4 C 35 %
Sensor: Nr:Datum:Temp:Feuchte:
Aussen-T/F 4651 19-02-2020 07:07:17 5.4 C 34 %
4652 19-02-2020 07:17:17 5.6 C 34 %
4653 19-02-2020 07:27:18 5.6 C 34 %
4654 19-02-2020 07:37:18 5.3 C 35 %
4655 19-02-2020 07:47:18 5.4 C 34 %
4656 19-02-2020 07:57:18 5.3 C 34 %
4657 19-02-2020 08:07:18 5.2 C 33 %
4658 19-02-2020 08:17:17 5.3 C 34 %
4659 19-02-2020 08:27:17 4.9 C 35 %
4660 19-02-2020 08:37:17 4.9 C 34 %
4661 19-02-2020 08:47:17 4.8 C 34 %
4662 19-02-2020 08:57:17 5 C 33 %
4663 19-02-2020 09:07:17 5.1 C 33 %
4664 19-02-2020 09:17:18 4.9 C 34 %
4665 19-02-2020 09:27:18 5.1 C 33 %
4666 19-02-2020 09:37:18 5.3 C 32 %
4667 19-02-2020 09:47:17 5.3 C 32 %
4668 19-02-2020 09:57:17 5.1 C 33 %
4669 19-02-2020 10:07:18 4.2 C 35 %
4670 19-02-2020 10:17:17 4.7 C 34 %
4671 19-02-2020 10:27:17 5.2 C 33 %
4672 19-02-2020 10:37:17 5.7 C 32 %
4673 19-02-2020 10:47:17 5.8 C 31 %
4674 19-02-2020 10:57:17 5.9 C 31 %
4675 19-02-2020 11:07:18 6.4 C 31 %
Sensor: Nr:Datum:Temp:Feuchte:
Aussen-T/F 4676 19-02-2020 11:17:17 6.9 C 30 %
4677 19-02-2020 11:27:17 6.7 C 30 %
4678